<?xml version="1.0" encoding="UTF-8"?>
<gpx xmlns="http://www.topografix.com/GPX/1/1" xmlns:dkl="http://www.gpsware.de/DKL/1/1" xmlns:rtx="http://www.bike-gps.de/RTX/1/1" version="1.1" creator="KOMPASS Digital Map" xmlns:xsi="http://www.w3.org/2001/XMLSchema-instance" xsi:schemaLocation="http://www.topografix.com/GPX/1/1 http://www.topografix.com/GPX/1/1/gpx.xsd">
 <metadata>
 <name>KOMPASS Digital Map Track</name>
 <desc> </desc>
 <time>2010-09-19T16:26:40Z</time>
 <bounds minlat="47.099957" minlon="13.628395" maxlat="47.240349" maxlon="13.792168"/>
 </metadata>
 <trk>
 <name>2010_Weißpriachtal</name>
 <extensions>
 <dkl:dkl>
 <dkl:format_version>1.1</dkl:format_version>
 <dkl:format>
 <dkl:color>FF0000</dkl:color>
 <dkl:style>00000000</dkl:style>
 <dkl:strength>3</dkl:strength>
 <dkl:transparent>0</dkl:transparent>
 </dkl:format>
 <dkl:profile>
 <dkl:mode>0</dkl:mode>
 <dkl:smooth>0</dkl:smooth>
 </dkl:profile>
 </dkl:dkl>
 </extensions>
 <trkseg>
 <trkpt lat="47.137878" lon="13.687456">
 <ele>1131.34</ele>
 <time>2010-09-19T09:54:38Z</time>
 </trkpt>
 <trkpt lat="47.137882" lon="13.687490">
 <ele>1130.41</ele>
 <time>2010-09-19T09:55:29Z</time>
 </trkpt>
 <trkpt lat="47.137882" lon="13.687508">
 <ele>1130.43</ele>
 <time>2010-09-19T09:55:32Z</time>
 </trkpt>
 <trkpt lat="47.137592" lon="13.687544">
 <ele>1130.38</ele>
 <time>2010-09-19T09:55:37Z</time>
 </trkpt>
 <trkpt lat="47.137592" lon="13.687577">
 <ele>1130.38</ele>
 <time>2010-09-19T09:55:39Z</time>
 </trkpt>
 <trkpt lat="47.137589" lon="13.687780">
 <ele>1129.59</ele>
 <time>2010-09-19T09:55:46Z</time>
 </trkpt>
 <trkpt lat="47.137554" lon="13.688173">
 <ele>1129.19</ele>
 <time>2010-09-19T09:55:53Z</time>
 </trkpt>
 <trkpt lat="47.137505" lon="13.688735">
 <ele>1129.31</ele>
 <time>2010-09-19T09:56:02Z</time>
 </trkpt>
 <trkpt lat="47.137447" lon="13.689208">
 <ele>1128.47</ele>
 <time>2010-09-19T09:56:09Z</time>
 </trkpt>
 <trkpt lat="47.137341" lon="13.689819">
 <ele>1127.63</ele>
 <time>2010-09-19T09:56:17Z</time>
 </trkpt>
 <trkpt lat="47.137329" lon="13.689880">
 <ele>1127.71</ele>
 <time>2010-09-19T09:56:18Z</time>
 </trkpt>
 <trkpt lat="47.137505" lon="13.690092">
 <ele>1127.98</ele>
 <time>2010-09-19T09:56:22Z</time>
 </trkpt>
 <trkpt lat="47.137684" lon="13.690109">
 <ele>1129.87</ele>
 <time>2010-09-19T09:56:29Z</time>
 </trkpt>
 <trkpt lat="47.137779" lon="13.690119">
 <ele>1131.07</ele>
 <time>2010-09-19T09:56:33Z</time>
 </trkpt>
 <trkpt lat="47.137894" lon="13.690150">
 <ele>1132.03</ele>
 <time>2010-09-19T09:56:38Z</time>
 </trkpt>
 <trkpt lat="47.137314" lon="13.689980">
 <ele>1133.63</ele>
 <time>2010-09-19T09:56:43Z</time>
 </trkpt>
 <trkpt lat="47.137272" lon="13.690200">
 <ele>1134.98</ele>
 <time>2010-09-19T09:56:50Z</time>
 </trkpt>
 <trkpt lat="47.137249" lon="13.690338">
 <ele>1135.86</ele>
 <time>2010-09-19T09:56:56Z</time>
 </trkpt>
 <trkpt lat="47.137249" lon="13.690338">
 <ele>1136.95</ele>
 <time>2010-09-19T09:57:10Z</time>
 </trkpt>
 <trkpt lat="47.137199" lon="13.690578">
 <ele>1136.92</ele>
 <time>2010-09-19T09:57:17Z</time>
 </trkpt>
 <trkpt lat="47.138836" lon="13.691755">
 <ele>1137.29</ele>
 <time>2010-09-19T09:57:25Z</time>
 </trkpt>
 <trkpt lat="47.138836" lon="13.691755">
 <ele>1138.13</ele>
 <time>2010-09-19T09:57:31Z</time>
 </trkpt>
 <trkpt lat="47.138836" lon="13.691755">
 <ele>1139.90</ele>
 <time>2010-09-19T09:57:38Z</time>
 </trkpt>
 <trkpt lat="47.138836" lon="13.691755">
 <ele>1142.38</ele>
 <time>2010-09-19T09:57:45Z</time>
 </trkpt>
 <trkpt lat="47.138836" lon="13.691755">
 <ele>1142.80</ele>
 <time>2010-09-19T09:57:51Z</time>
 </trkpt>
 <trkpt lat="47.138859" lon="13.691843">
 <ele>1143.32</ele>
 <time>2010-09-19T09:57:57Z</time>
 </trkpt>
 <trkpt lat="47.138943" lon="13.692193">
 <ele>1143.46</ele>
 <time>2010-09-19T09:58:05Z</time>
 </trkpt>
 <trkpt lat="47.139030" lon="13.692554">
 <ele>1143.96</ele>
 <time>2010-09-19T09:58:13Z</time>
 </trkpt>
 <trkpt lat="47.139111" lon="13.692886">
 <ele>1144.07</ele>
 <time>2010-09-19T09:58:20Z</time>
 </trkpt>
 <trkpt lat="47.139137" lon="13.692994">
 <ele>1143.86</ele>
 <time>2010-09-19T09:58:22Z</time>
 </trkpt>
 <trkpt lat="47.139252" lon="13.693463">
 <ele>1143.28</ele>
 <time>2010-09-19T09:58:30Z</time>
 </trkpt>
 <trkpt lat="47.139351" lon="13.693862">
 <ele>1142.05</ele>
 <time>2010-09-19T09:58:36Z</time>
 </trkpt>
 <trkpt lat="47.139473" lon="13.694363">
 <ele>1139.86</ele>
 <time>2010-09-19T09:58:41Z</time>
 </trkpt>
 <trkpt lat="47.139606" lon="13.694910">
 <ele>1138.36</ele>
 <time>2010-09-19T09:58:46Z</time>
 </trkpt>
 <trkpt lat="47.139683" lon="13.695221">
 <ele>1137.81</ele>
 <time>2010-09-19T09:58:49Z</time>
 </trkpt>
 <trkpt lat="47.139725" lon="13.695403">
 <ele>1137.95</ele>
 <time>2010-09-19T09:58:51Z</time>
 </trkpt>
 <trkpt lat="47.139874" lon="13.696016">
 <ele>1137.43</ele>
 <time>2010-09-19T09:58:58Z</time>
 </trkpt>
 <trkpt lat="47.139980" lon="13.696454">
 <ele>1137.18</ele>
 <time>2010-09-19T09:59:03Z</time>
 </trkpt>
 <trkpt lat="47.140076" lon="13.696843">
 <ele>1137.71</ele>
 <time>2010-09-19T09:59:08Z</time>
 </trkpt>
 <trkpt lat="47.140198" lon="13.697363">
 <ele>1137.33</ele>
 <time>2010-09-19T09:59:15Z</time>
 </trkpt>
 <trkpt lat="47.140274" lon="13.697695">
 <ele>1136.34</ele>
 <time>2010-09-19T09:59:19Z</time>
 </trkpt>
 <trkpt lat="47.140388" lon="13.698180">
 <ele>1136.67</ele>
 <time>2010-09-19T09:59:25Z</time>
 </trkpt>
 <trkpt lat="47.140404" lon="13.698251">
 <ele>1136.61</ele>
 <time>2010-09-19T09:59:26Z</time>
 </trkpt>
 <trkpt lat="47.140556" lon="13.698892">
 <ele>1134.90</ele>
 <time>2010-09-19T09:59:35Z</time>
 </trkpt>
 <trkpt lat="47.140610" lon="13.699116">
 <ele>1133.59</ele>
 <time>2010-09-19T09:59:38Z</time>
 </trkpt>
 <trkpt lat="47.140686" lon="13.699447">
 <ele>1132.34</ele>
 <time>2010-09-19T09:59:43Z</time>
 </trkpt>
 <trkpt lat="47.140781" lon="13.699859">
 <ele>1130.78</ele>
 <time>2010-09-19T09:59:49Z</time>
 </trkpt>
 <trkpt lat="47.140869" lon="13.700229">
 <ele>1130.31</ele>
 <time>2010-09-19T09:59:54Z</time>
 </trkpt>
 <trkpt lat="47.140995" lon="13.700763">
 <ele>1130.42</ele>
 <time>2010-09-19T10:00:02Z</time>
 </trkpt>
 <trkpt lat="47.141022" lon="13.700876">
 <ele>1130.92</ele>
 <time>2010-09-19T10:00:04Z</time>
 </trkpt>
 <trkpt lat="47.141136" lon="13.701369">
 <ele>1130.92</ele>
 <time>2010-09-19T10:00:12Z</time>
 </trkpt>
 <trkpt lat="47.141239" lon="13.701643">
 <ele>1130.56</ele>
 <time>2010-09-19T10:00:17Z</time>
 </trkpt>
 <trkpt lat="47.141273" lon="13.701659">
 <ele>1130.37</ele>
 <time>2010-09-19T10:00:21Z</time>
 </trkpt>
 <trkpt lat="47.141331" lon="13.701685">
 <ele>1130.06</ele>
 <time>2010-09-19T10:00:26Z</time>
 </trkpt>
 <trkpt lat="47.141483" lon="13.701752">
 <ele>1128.97</ele>
 <time>2010-09-19T10:00:31Z</time>
 </trkpt>
 <trkpt lat="47.141663" lon="13.701833">
 <ele>1128.61</ele>
 <time>2010-09-19T10:00:36Z</time>
 </trkpt>
 <trkpt lat="47.141804" lon="13.701897">
 <ele>1129.48</ele>
 <time>2010-09-19T10:00:40Z</time>
 </trkpt>
 <trkpt lat="47.142010" lon="13.701989">
 <ele>1129.50</ele>
 <time>2010-09-19T10:00:46Z</time>
 </trkpt>
 <trkpt lat="47.142174" lon="13.702063">
 <ele>1129.67</ele>
 <time>2010-09-19T10:00:51Z</time>
 </trkpt>
 <trkpt lat="47.142521" lon="13.702366">
 <ele>1130.63</ele>
 <time>2010-09-19T10:01:00Z</time>
 </trkpt>
 <trkpt lat="47.142574" lon="13.702488">
 <ele>1130.30</ele>
 <time>2010-09-19T10:01:02Z</time>
 </trkpt>
 <trkpt lat="47.142651" lon="13.702659">
 <ele>1130.10</ele>
 <time>2010-09-19T10:01:05Z</time>
 </trkpt>
 <trkpt lat="47.142876" lon="13.703172">
 <ele>1130.44</ele>
 <time>2010-09-19T10:01:15Z</time>
 </trkpt>
 <trkpt lat="47.143024" lon="13.703511">
 <ele>1131.97</ele>
 <time>2010-09-19T10:01:22Z</time>
 </trkpt>
 <trkpt lat="47.143188" lon="13.703892">
 <ele>1132.69</ele>
 <time>2010-09-19T10:01:29Z</time>
 </trkpt>
 <trkpt lat="47.143337" lon="13.704229">
 <ele>1132.38</ele>
 <time>2010-09-19T10:01:35Z</time>
 </trkpt>
 <trkpt lat="47.143574" lon="13.704766">
 <ele>1133.08</ele>
 <time>2010-09-19T10:01:45Z</time>
 </trkpt>
 <trkpt lat="47.143633" lon="13.705316">
 <ele>1134.71</ele>
 <time>2010-09-19T10:01:53Z</time>
 </trkpt>
 <trkpt lat="47.143617" lon="13.705877">
 <ele>1136.45</ele>
 <time>2010-09-19T10:02:03Z</time>
 </trkpt>
 <trkpt lat="47.143827" lon="13.706597">
 <ele>1136.44</ele>
 <time>2010-09-19T10:02:14Z</time>
 </trkpt>
 <trkpt lat="47.144013" lon="13.707087">
 <ele>1138.01</ele>
 <time>2010-09-19T10:02:24Z</time>
 </trkpt>
 <trkpt lat="47.144176" lon="13.707644">
 <ele>1136.71</ele>
 <time>2010-09-19T10:02:29Z</time>
 </trkpt>
 <trkpt lat="47.144518" lon="13.707998">
 <ele>1140.00</ele>
 <time>2010-09-19T10:02:37Z</time>
 </trkpt>
 <trkpt lat="47.144875" lon="13.708155">
 <ele>1139.30</ele>
 <time>2010-09-19T10:02:45Z</time>
 </trkpt>
 <trkpt lat="47.144989" lon="13.708480">
 <ele>1140.26</ele>
 <time>2010-09-19T10:02:52Z</time>
 </trkpt>
 <trkpt lat="47.145107" lon="13.708810">
 <ele>1142.35</ele>
 <time>2010-09-19T10:03:00Z</time>
 </trkpt>
 <trkpt lat="47.145252" lon="13.709206">
 <ele>1143.20</ele>
 <time>2010-09-19T10:03:09Z</time>
 </trkpt>
 <trkpt lat="47.145367" lon="13.709528">
 <ele>1144.82</ele>
 <time>2010-09-19T10:03:16Z</time>
 </trkpt>
 <trkpt lat="47.145523" lon="13.709964">
 <ele>1146.44</ele>
 <time>2010-09-19T10:03:26Z</time>
 </trkpt>
 <trkpt lat="47.145622" lon="13.710245">
 <ele>1146.37</ele>
 <time>2010-09-19T10:03:32Z</time>
 </trkpt>
 <trkpt lat="47.145802" lon="13.710739">
 <ele>1141.74</ele>
 <time>2010-09-19T10:03:39Z</time>
 </trkpt>
 <trkpt lat="47.145866" lon="13.710918">
 <ele>1140.88</ele>
 <time>2010-09-19T10:03:41Z</time>
 </trkpt>
 <trkpt lat="47.146137" lon="13.711672">
 <ele>1133.11</ele>
 <time>2010-09-19T10:03:48Z</time>
 </trkpt>
 <trkpt lat="47.146420" lon="13.712188">
 <ele>1130.24</ele>
 <time>2010-09-19T10:03:53Z</time>
 </trkpt>
 <trkpt lat="47.146633" lon="13.712530">
 <ele>1128.57</ele>
 <time>2010-09-19T10:03:57Z</time>
 </trkpt>
 <trkpt lat="47.146683" lon="13.712604">
 <ele>1128.13</ele>
 <time>2010-09-19T10:03:58Z</time>
 </trkpt>
 <trkpt lat="47.146893" lon="13.712939">
 <ele>1127.34</ele>
 <time>2010-09-19T10:04:03Z</time>
 </trkpt>
 <trkpt lat="47.146931" lon="13.713000">
 <ele>1127.09</ele>
 <time>2010-09-19T10:04:04Z</time>
 </trkpt>
 <trkpt lat="47.147373" lon="13.713413">
 <ele>1124.29</ele>
 <time>2010-09-19T10:04:12Z</time>
 </trkpt>
 <trkpt lat="47.147842" lon="13.713628">
 <ele>1121.62</ele>
 <time>2010-09-19T10:04:19Z</time>
 </trkpt>
 <trkpt lat="47.148197" lon="13.713790">
 <ele>1119.69</ele>
 <time>2010-09-19T10:04:24Z</time>
 </trkpt>
 <trkpt lat="47.148418" lon="13.713891">
 <ele>1117.89</ele>
 <time>2010-09-19T10:04:27Z</time>
 </trkpt>
 <trkpt lat="47.148991" lon="13.714150">
 <ele>1114.37</ele>
 <time>2010-09-19T10:04:34Z</time>
 </trkpt>
 <trkpt lat="47.149384" lon="13.714330">
 <ele>1111.24</ele>
 <time>2010-09-19T10:04:39Z</time>
 </trkpt>
 <trkpt lat="47.149452" lon="13.714361">
 <ele>1111.14</ele>
 <time>2010-09-19T10:04:40Z</time>
 </trkpt>
 <trkpt lat="47.149830" lon="13.714240">
 <ele>1110.37</ele>
 <time>2010-09-19T10:04:46Z</time>
 </trkpt>
 <trkpt lat="47.150246" lon="13.713965">
 <ele>1110.13</ele>
 <time>2010-09-19T10:04:53Z</time>
 </trkpt>
 <trkpt lat="47.150642" lon="13.713701">
 <ele>1110.04</ele>
 <time>2010-09-19T10:05:01Z</time>
 </trkpt>
 <trkpt lat="47.150776" lon="13.713613">
 <ele>1110.81</ele>
 <time>2010-09-19T10:05:05Z</time>
 </trkpt>
 <trkpt lat="47.150845" lon="13.713569">
 <ele>1110.99</ele>
 <time>2010-09-19T10:05:10Z</time>
 </trkpt>
 <trkpt lat="47.150993" lon="13.713903">
 <ele>1109.28</ele>
 <time>2010-09-19T10:05:15Z</time>
 </trkpt>
 <trkpt lat="47.151100" lon="13.714301">
 <ele>1107.90</ele>
 <time>2010-09-19T10:05:21Z</time>
 </trkpt>
 <trkpt lat="47.151157" lon="13.714526">
 <ele>1107.59</ele>
 <time>2010-09-19T10:05:24Z</time>
 </trkpt>
 <trkpt lat="47.151283" lon="13.714993">
 <ele>1107.18</ele>
 <time>2010-09-19T10:05:30Z</time>
 </trkpt>
 <trkpt lat="47.151459" lon="13.715662">
 <ele>1105.29</ele>
 <time>2010-09-19T10:05:38Z</time>
 </trkpt>
 <trkpt lat="47.151619" lon="13.716266">
 <ele>1103.05</ele>
 <time>2010-09-19T10:05:45Z</time>
 </trkpt>
 <trkpt lat="47.151691" lon="13.716535">
 <ele>1102.53</ele>
 <time>2010-09-19T10:05:48Z</time>
 </trkpt>
 <trkpt lat="47.151733" lon="13.716922">
 <ele>1103.26</ele>
 <time>2010-09-19T10:05:53Z</time>
 </trkpt>
 <trkpt lat="47.151711" lon="13.717078">
 <ele>1102.82</ele>
 <time>2010-09-19T10:05:59Z</time>
 </trkpt>
 <trkpt lat="47.151703" lon="13.717151">
 <ele>1102.59</ele>
 <time>2010-09-19T10:06:04Z</time>
 </trkpt>
 <trkpt lat="47.151752" lon="13.716774">
 <ele>1100.65</ele>
 <time>2010-09-19T10:06:08Z</time>
 </trkpt>
 <trkpt lat="47.151752" lon="13.716774">
 <ele>1100.19</ele>
 <time>2010-09-19T10:06:09Z</time>
 </trkpt>
 <trkpt lat="47.151745" lon="13.716845">
 <ele>1099.20</ele>
 <time>2010-09-19T10:06:14Z</time>
 </trkpt>
 <trkpt lat="47.152004" lon="13.716607">
 <ele>1099.30</ele>
 <time>2010-09-19T10:06:18Z</time>
 </trkpt>
 <trkpt lat="47.152222" lon="13.716464">
 <ele>1099.88</ele>
 <time>2010-09-19T10:06:24Z</time>
 </trkpt>
 <trkpt lat="47.152512" lon="13.716270">
 <ele>1100.68</ele>
 <time>2010-09-19T10:06:32Z</time>
 </trkpt>
 <trkpt lat="47.152771" lon="13.716096">
 <ele>1101.75</ele>
 <time>2010-09-19T10:06:39Z</time>
 </trkpt>
 <trkpt lat="47.153004" lon="13.715940">
 <ele>1102.35</ele>
 <time>2010-09-19T10:06:45Z</time>
 </trkpt>
 <trkpt lat="47.153381" lon="13.715696">
 <ele>1101.73</ele>
 <time>2010-09-19T10:06:54Z</time>
 </trkpt>
 <trkpt lat="47.153896" lon="13.715393">
 <ele>1100.16</ele>
 <time>2010-09-19T10:07:05Z</time>
 </trkpt>
 <trkpt lat="47.154484" lon="13.715048">
 <ele>1100.88</ele>
 <time>2010-09-19T10:07:18Z</time>
 </trkpt>
 <trkpt lat="47.154881" lon="13.714814">
 <ele>1100.42</ele>
 <time>2010-09-19T10:07:27Z</time>
 </trkpt>
 <trkpt lat="47.155293" lon="13.714572">
 <ele>1101.15</ele>
 <time>2010-09-19T10:07:37Z</time>
 </trkpt>
 <trkpt lat="47.155697" lon="13.714332">
 <ele>1101.02</ele>
 <time>2010-09-19T10:07:46Z</time>
 </trkpt>
 <trkpt lat="47.156189" lon="13.714079">
 <ele>1100.85</ele>
 <time>2010-09-19T10:07:56Z</time>
 </trkpt>
 <trkpt lat="47.156677" lon="13.713847">
 <ele>1099.41</ele>
 <time>2010-09-19T10:08:05Z</time>
 </trkpt>
 <trkpt lat="47.157299" lon="13.713547">
 <ele>1097.69</ele>
 <time>2010-09-19T10:08:16Z</time>
 </trkpt>
 <trkpt lat="47.157867" lon="13.713273">
 <ele>1096.93</ele>
 <time>2010-09-19T10:08:26Z</time>
 </trkpt>
 <trkpt lat="47.158428" lon="13.713002">
 <ele>1096.93</ele>
 <time>2010-09-19T10:08:36Z</time>
 </trkpt>
 <trkpt lat="47.158756" lon="13.712844">
 <ele>1095.22</ele>
 <time>2010-09-19T10:08:42Z</time>
 </trkpt>
 <trkpt lat="47.159130" lon="13.712950">
 <ele>1094.70</ele>
 <time>2010-09-19T10:08:48Z</time>
 </trkpt>
 <trkpt lat="47.159637" lon="13.713135">
 <ele>1093.32</ele>
 <time>2010-09-19T10:08:56Z</time>
 </trkpt>
 <trkpt lat="47.159885" lon="13.713226">
 <ele>1092.27</ele>
 <time>2010-09-19T10:09:00Z</time>
 </trkpt>
 <trkpt lat="47.160358" lon="13.713373">
 <ele>1091.14</ele>
 <time>2010-09-19T10:09:08Z</time>
 </trkpt>
 <trkpt lat="47.160851" lon="13.713255">
 <ele>1092.53</ele>
 <time>2010-09-19T10:09:17Z</time>
 </trkpt>
 <trkpt lat="47.161350" lon="13.713134">
 <ele>1093.84</ele>
 <time>2010-09-19T10:09:27Z</time>
 </trkpt>
 <trkpt lat="47.161819" lon="13.712910">
 <ele>1095.50</ele>
 <time>2010-09-19T10:09:37Z</time>
 </trkpt>
 <trkpt lat="47.162327" lon="13.712568">
 <ele>1096.52</ele>
 <time>2010-09-19T10:09:49Z</time>
 </trkpt>
 <trkpt lat="47.162674" lon="13.712333">
 <ele>1095.81</ele>
 <time>2010-09-19T10:09:57Z</time>
 </trkpt>
 <trkpt lat="47.163151" lon="13.712013">
 <ele>1094.63</ele>
 <time>2010-09-19T10:10:07Z</time>
 </trkpt>
 <trkpt lat="47.163528" lon="13.711758">
 <ele>1093.43</ele>
 <time>2010-09-19T10:10:14Z</time>
 </trkpt>
 <trkpt lat="47.163940" lon="13.711595">
 <ele>1093.69</ele>
 <time>2010-09-19T10:10:21Z</time>
 </trkpt>
 <trkpt lat="47.164566" lon="13.711509">
 <ele>1093.69</ele>
 <time>2010-09-19T10:10:32Z</time>
 </trkpt>
 <trkpt lat="47.165066" lon="13.711440">
 <ele>1093.20</ele>
 <time>2010-09-19T10:10:41Z</time>
 </trkpt>
 <trkpt lat="47.165710" lon="13.711352">
 <ele>1093.53</ele>
 <time>2010-09-19T10:10:53Z</time>
 </trkpt>
 <trkpt lat="47.166198" lon="13.711060">
 <ele>1100.00</ele>
 <time>2010-09-19T10:11:05Z</time>
 </trkpt>
 <trkpt lat="47.166713" lon="13.710850">
 <ele>1100.00</ele>
 <time>2010-09-19T10:11:13Z</time>
 </trkpt>
 <trkpt lat="47.167274" lon="13.710704">
 <ele>1100.00</ele>
 <time>2010-09-19T10:11:23Z</time>
 </trkpt>
 <trkpt lat="47.167903" lon="13.710590">
 <ele>1100.00</ele>
 <time>2010-09-19T10:11:34Z</time>
 </trkpt>
 <trkpt lat="47.168599" lon="13.710540">
 <ele>1100.00</ele>
 <time>2010-09-19T10:11:46Z</time>
 </trkpt>
 <trkpt lat="47.169274" lon="13.710524">
 <ele>1100.00</ele>
 <time>2010-09-19T10:11:58Z</time>
 </trkpt>
 <trkpt lat="47.169884" lon="13.710486">
 <ele>1092.84</ele>
 <time>2010-09-19T10:12:08Z</time>
 </trkpt>
 <trkpt lat="47.170181" lon="13.710404">
 <ele>1093.67</ele>
 <time>2010-09-19T10:12:14Z</time>
 </trkpt>
 <trkpt lat="47.170612" lon="13.710285">
 <ele>1092.87</ele>
 <time>2010-09-19T10:12:23Z</time>
 </trkpt>
 <trkpt lat="47.171112" lon="13.709950">
 <ele>1093.14</ele>
 <time>2010-09-19T10:12:34Z</time>
 </trkpt>
 <trkpt lat="47.171616" lon="13.709590">
 <ele>1094.03</ele>
 <time>2010-09-19T10:12:46Z</time>
 </trkpt>
 <trkpt lat="47.171822" lon="13.709443">
 <ele>1094.40</ele>
 <time>2010-09-19T10:12:52Z</time>
 </trkpt>
 <trkpt lat="47.172100" lon="13.709244">
 <ele>1094.77</ele>
 <time>2010-09-19T10:12:59Z</time>
 </trkpt>
 <trkpt lat="47.172554" lon="13.708919">
 <ele>1094.33</ele>
 <time>2010-09-19T10:13:09Z</time>
 </trkpt>
 <trkpt lat="47.173111" lon="13.708522">
 <ele>1094.14</ele>
 <time>2010-09-19T10:13:21Z</time>
 </trkpt>
 <trkpt lat="47.173573" lon="13.708193">
 <ele>1094.53</ele>
 <time>2010-09-19T10:13:31Z</time>
 </trkpt>
 <trkpt lat="47.173832" lon="13.708008">
 <ele>1095.59</ele>
 <time>2010-09-19T10:13:37Z</time>
 </trkpt>
 <trkpt lat="47.174137" lon="13.707790">
 <ele>1096.53</ele>
 <time>2010-09-19T10:13:44Z</time>
 </trkpt>
 <trkpt lat="47.174404" lon="13.707313">
 <ele>1096.08</ele>
 <time>2010-09-19T10:13:53Z</time>
 </trkpt>
 <trkpt lat="47.174702" lon="13.706736">
 <ele>1095.55</ele>
 <time>2010-09-19T10:14:03Z</time>
 </trkpt>
 <trkpt lat="47.174957" lon="13.706228">
 <ele>1095.79</ele>
 <time>2010-09-19T10:14:12Z</time>
 </trkpt>
 <trkpt lat="47.175240" lon="13.705675">
 <ele>1097.08</ele>
 <time>2010-09-19T10:14:22Z</time>
 </trkpt>
 <trkpt lat="47.175529" lon="13.705110">
 <ele>1097.44</ele>
 <time>2010-09-19T10:14:32Z</time>
 </trkpt>
 <trkpt lat="47.175728" lon="13.704724">
 <ele>1097.69</ele>
 <time>2010-09-19T10:14:39Z</time>
 </trkpt>
 <trkpt lat="47.176003" lon="13.704183">
 <ele>1097.96</ele>
 <time>2010-09-19T10:14:49Z</time>
 </trkpt>
 <trkpt lat="47.176083" lon="13.704026">
 <ele>1097.94</ele>
 <time>2010-09-19T10:14:52Z</time>
 </trkpt>
 <trkpt lat="47.176311" lon="13.703576">
 <ele>1098.95</ele>
 <time>2010-09-19T10:15:01Z</time>
 </trkpt>
 <trkpt lat="47.176388" lon="13.703424">
 <ele>1098.53</ele>
 <time>2010-09-19T10:15:04Z</time>
 </trkpt>
 <trkpt lat="47.176655" lon="13.702904">
 <ele>1098.08</ele>
 <time>2010-09-19T10:15:14Z</time>
 </trkpt>
 <trkpt lat="47.176849" lon="13.702521">
 <ele>1097.78</ele>
 <time>2010-09-19T10:15:21Z</time>
 </trkpt>
 <trkpt lat="47.177204" lon="13.701990">
 <ele>1097.38</ele>
 <time>2010-09-19T10:15:30Z</time>
 </trkpt>
 <trkpt lat="47.177547" lon="13.701651">
 <ele>1096.82</ele>
 <time>2010-09-19T10:15:38Z</time>
 </trkpt>
 <trkpt lat="47.177910" lon="13.701292">
 <ele>1096.34</ele>
 <time>2010-09-19T10:15:47Z</time>
 </trkpt>
 <trkpt lat="47.177952" lon="13.701252">
 <ele>1096.34</ele>
 <time>2010-09-19T10:15:48Z</time>
 </trkpt>
 <trkpt lat="47.178391" lon="13.700817">
 <ele>1095.69</ele>
 <time>2010-09-19T10:15:59Z</time>
 </trkpt>
 <trkpt lat="47.178761" lon="13.700447">
 <ele>1096.68</ele>
 <time>2010-09-19T10:16:09Z</time>
 </trkpt>
 <trkpt lat="47.179092" lon="13.700118">
 <ele>1095.40</ele>
 <time>2010-09-19T10:16:18Z</time>
 </trkpt>
 <trkpt lat="47.179462" lon="13.699796">
 <ele>1094.90</ele>
 <time>2010-09-19T10:16:28Z</time>
 </trkpt>
 <trkpt lat="47.179867" lon="13.699525">
 <ele>1096.22</ele>
 <time>2010-09-19T10:16:38Z</time>
 </trkpt>
 <trkpt lat="47.180241" lon="13.699273">
 <ele>1095.89</ele>
 <time>2010-09-19T10:16:47Z</time>
 </trkpt>
 <trkpt lat="47.180599" lon="13.699030">
 <ele>1096.10</ele>
 <time>2010-09-19T10:16:56Z</time>
 </trkpt>
 <trkpt lat="47.180916" lon="13.698816">
 <ele>1097.08</ele>
 <time>2010-09-19T10:17:04Z</time>
 </trkpt>
 <trkpt lat="47.181297" lon="13.698561">
 <ele>1098.31</ele>
 <time>2010-09-19T10:17:14Z</time>
 </trkpt>
 <trkpt lat="47.181656" lon="13.698081">
 <ele>1098.63</ele>
 <time>2010-09-19T10:17:24Z</time>
 </trkpt>
 <trkpt lat="47.181911" lon="13.697633">
 <ele>1100.01</ele>
 <time>2010-09-19T10:17:34Z</time>
 </trkpt>
 <trkpt lat="47.182178" lon="13.697170">
 <ele>1102.23</ele>
 <time>2010-09-19T10:17:45Z</time>
 </trkpt>
 <trkpt lat="47.182426" lon="13.696742">
 <ele>1103.63</ele>
 <time>2010-09-19T10:17:55Z</time>
 </trkpt>
 <trkpt lat="47.182667" lon="13.696324">
 <ele>1104.32</ele>
 <time>2010-09-19T10:18:05Z</time>
 </trkpt>
 <trkpt lat="47.182922" lon="13.695879">
 <ele>1103.50</ele>
 <time>2010-09-19T10:18:14Z</time>
 </trkpt>
 <trkpt lat="47.183220" lon="13.695364">
 <ele>1103.77</ele>
 <time>2010-09-19T10:18:25Z</time>
 </trkpt>
 <trkpt lat="47.183468" lon="13.694707">
 <ele>1103.65</ele>
 <time>2010-09-19T10:18:37Z</time>
 </trkpt>
 <trkpt lat="47.183598" lon="13.694114">
 <ele>1103.39</ele>
 <time>2010-09-19T10:18:47Z</time>
 </trkpt>
 <trkpt lat="47.183743" lon="13.693461">
 <ele>1103.24</ele>
 <time>2010-09-19T10:18:58Z</time>
 </trkpt>
 <trkpt lat="47.183861" lon="13.692923">
 <ele>1103.54</ele>
 <time>2010-09-19T10:19:07Z</time>
 </trkpt>
 <trkpt lat="47.184002" lon="13.692280">
 <ele>1103.01</ele>
 <time>2010-09-19T10:19:17Z</time>
 </trkpt>
 <trkpt lat="47.184151" lon="13.691608">
 <ele>1102.63</ele>
 <time>2010-09-19T10:19:27Z</time>
 </trkpt>
 <trkpt lat="47.184322" lon="13.690834">
 <ele>1101.94</ele>
 <time>2010-09-19T10:19:38Z</time>
 </trkpt>
 <trkpt lat="47.184422" lon="13.690397">
 <ele>1100.73</ele>
 <time>2010-09-19T10:19:44Z</time>
 </trkpt>
 <trkpt lat="47.184479" lon="13.690124">
 <ele>1100.61</ele>
 <time>2010-09-19T10:19:48Z</time>
 </trkpt>
 <trkpt lat="47.184776" lon="13.689546">
 <ele>1101.79</ele>
 <time>2010-09-19T10:19:58Z</time>
 </trkpt>
 <trkpt lat="47.185066" lon="13.689175">
 <ele>1102.49</ele>
 <time>2010-09-19T10:20:07Z</time>
 </trkpt>
 <trkpt lat="47.185394" lon="13.688755">
 <ele>1102.86</ele>
 <time>2010-09-19T10:20:17Z</time>
 </trkpt>
 <trkpt lat="47.185726" lon="13.688333">
 <ele>1102.60</ele>
 <time>2010-09-19T10:20:27Z</time>
 </trkpt>
 <trkpt lat="47.186047" lon="13.687920">
 <ele>1103.27</ele>
 <time>2010-09-19T10:20:37Z</time>
 </trkpt>
 <trkpt lat="47.186371" lon="13.687508">
 <ele>1104.01</ele>
 <time>2010-09-19T10:20:47Z</time>
 </trkpt>
 <trkpt lat="47.186687" lon="13.687104">
 <ele>1103.31</ele>
 <time>2010-09-19T10:20:57Z</time>
 </trkpt>
 <trkpt lat="47.187012" lon="13.686689">
 <ele>1102.96</ele>
 <time>2010-09-19T10:21:07Z</time>
 </trkpt>
 <trkpt lat="47.187298" lon="13.686347">
 <ele>1104.20</ele>
 <time>2010-09-19T10:21:16Z</time>
 </trkpt>
 <trkpt lat="47.187607" lon="13.686099">
 <ele>1102.76</ele>
 <time>2010-09-19T10:21:24Z</time>
 </trkpt>
 <trkpt lat="47.187897" lon="13.685867">
 <ele>1103.79</ele>
 <time>2010-09-19T10:21:32Z</time>
 </trkpt>
 <trkpt lat="47.188293" lon="13.685547">
 <ele>1104.46</ele>
 <time>2010-09-19T10:21:43Z</time>
 </trkpt>
 <trkpt lat="47.188618" lon="13.685285">
 <ele>1105.18</ele>
 <time>2010-09-19T10:21:52Z</time>
 </trkpt>
 <trkpt lat="47.188969" lon="13.685000">
 <ele>1105.24</ele>
 <time>2010-09-19T10:22:02Z</time>
 </trkpt>
 <trkpt lat="47.189377" lon="13.684673">
 <ele>1106.19</ele>
 <time>2010-09-19T10:22:14Z</time>
 </trkpt>
 <trkpt lat="47.189644" lon="13.684457">
 <ele>1108.09</ele>
 <time>2010-09-19T10:22:22Z</time>
 </trkpt>
 <trkpt lat="47.189976" lon="13.684190">
 <ele>1109.75</ele>
 <time>2010-09-19T10:22:32Z</time>
 </trkpt>
 <trkpt lat="47.190292" lon="13.683936">
 <ele>1110.00</ele>
 <time>2010-09-19T10:22:42Z</time>
 </trkpt>
 <trkpt lat="47.190575" lon="13.683708">
 <ele>1111.24</ele>
 <time>2010-09-19T10:22:51Z</time>
 </trkpt>
 <trkpt lat="47.190845" lon="13.683490">
 <ele>1112.25</ele>
 <time>2010-09-19T10:23:00Z</time>
 </trkpt>
 <trkpt lat="47.191113" lon="13.683274">
 <ele>1112.56</ele>
 <time>2010-09-19T10:23:09Z</time>
 </trkpt>
 <trkpt lat="47.191177" lon="13.683222">
 <ele>1113.52</ele>
 <time>2010-09-19T10:23:11Z</time>
 </trkpt>
 <trkpt lat="47.191532" lon="13.682935">
 <ele>1113.15</ele>
 <time>2010-09-19T10:23:22Z</time>
 </trkpt>
 <trkpt lat="47.191864" lon="13.682670">
 <ele>1115.25</ele>
 <time>2010-09-19T10:23:32Z</time>
 </trkpt>
 <trkpt lat="47.192108" lon="13.682473">
 <ele>1115.35</ele>
 <time>2010-09-19T10:23:40Z</time>
 </trkpt>
 <trkpt lat="47.192398" lon="13.682240">
 <ele>1114.89</ele>
 <time>2010-09-19T10:23:49Z</time>
 </trkpt>
 <trkpt lat="47.192703" lon="13.681993">
 <ele>1116.12</ele>
 <time>2010-09-19T10:23:58Z</time>
 </trkpt>
 <trkpt lat="47.192993" lon="13.681757">
 <ele>1115.49</ele>
 <time>2010-09-19T10:24:06Z</time>
 </trkpt>
 <trkpt lat="47.193306" lon="13.681508">
 <ele>1114.50</ele>
 <time>2010-09-19T10:24:14Z</time>
 </trkpt>
 <trkpt lat="47.193577" lon="13.681290">
 <ele>1112.09</ele>
 <time>2010-09-19T10:24:20Z</time>
 </trkpt>
 <trkpt lat="47.193718" lon="13.681176">
 <ele>1112.00</ele>
 <time>2010-09-19T10:24:23Z</time>
 </trkpt>
 <trkpt lat="47.193993" lon="13.680954">
 <ele>1111.36</ele>
 <time>2010-09-19T10:24:29Z</time>
 </trkpt>
 <trkpt lat="47.194321" lon="13.680690">
 <ele>1110.84</ele>
 <time>2010-09-19T10:24:37Z</time>
 </trkpt>
 <trkpt lat="47.194614" lon="13.680452">
 <ele>1111.66</ele>
 <time>2010-09-19T10:24:45Z</time>
 </trkpt>
 <trkpt lat="47.194923" lon="13.680116">
 <ele>1113.16</ele>
 <time>2010-09-19T10:24:54Z</time>
 </trkpt>
 <trkpt lat="47.195278" lon="13.679644">
 <ele>1114.02</ele>
 <time>2010-09-19T10:25:05Z</time>
 </trkpt>
 <trkpt lat="47.195568" lon="13.679264">
 <ele>1114.75</ele>
 <time>2010-09-19T10:25:14Z</time>
 </trkpt>
 <trkpt lat="47.195850" lon="13.678888">
 <ele>1114.57</ele>
 <time>2010-09-19T10:25:23Z</time>
 </trkpt>
 <trkpt lat="47.196121" lon="13.678528">
 <ele>1115.05</ele>
 <time>2010-09-19T10:25:32Z</time>
 </trkpt>
 <trkpt lat="47.196533" lon="13.678043">
 <ele>1114.07</ele>
 <time>2010-09-19T10:25:43Z</time>
 </trkpt>
 <trkpt lat="47.196957" lon="13.677903">
 <ele>1113.92</ele>
 <time>2010-09-19T10:25:53Z</time>
 </trkpt>
 <trkpt lat="47.197376" lon="13.677762">
 <ele>1115.05</ele>
 <time>2010-09-19T10:26:03Z</time>
 </trkpt>
 <trkpt lat="47.197868" lon="13.677599">
 <ele>1114.03</ele>
 <time>2010-09-19T10:26:14Z</time>
 </trkpt>
 <trkpt lat="47.198353" lon="13.677437">
 <ele>1113.91</ele>
 <time>2010-09-19T10:26:25Z</time>
 </trkpt>
 <trkpt lat="47.198593" lon="13.677357">
 <ele>1114.67</ele>
 <time>2010-09-19T10:26:31Z</time>
 </trkpt>
 <trkpt lat="47.198982" lon="13.677129">
 <ele>1115.01</ele>
 <time>2010-09-19T10:26:39Z</time>
 </trkpt>
 <trkpt lat="47.199242" lon="13.676630">
 <ele>1116.52</ele>
 <time>2010-09-19T10:26:50Z</time>
 </trkpt>
 <trkpt lat="47.199459" lon="13.676210">
 <ele>1116.71</ele>
 <time>2010-09-19T10:26:59Z</time>
 </trkpt>
 <trkpt lat="47.199673" lon="13.675801">
 <ele>1117.64</ele>
 <time>2010-09-19T10:27:08Z</time>
 </trkpt>
 <trkpt lat="47.199917" lon="13.675331">
 <ele>1116.80</ele>
 <time>2010-09-19T10:27:18Z</time>
 </trkpt>
 <trkpt lat="47.200150" lon="13.674886">
 <ele>1117.56</ele>
 <time>2010-09-19T10:27:27Z</time>
 </trkpt>
 <trkpt lat="47.200420" lon="13.674370">
 <ele>1116.92</ele>
 <time>2010-09-19T10:27:37Z</time>
 </trkpt>
 <trkpt lat="47.200680" lon="13.673873">
 <ele>1118.31</ele>
 <time>2010-09-19T10:27:47Z</time>
 </trkpt>
 <trkpt lat="47.200905" lon="13.673436">
 <ele>1117.35</ele>
 <time>2010-09-19T10:27:56Z</time>
 </trkpt>
 <trkpt lat="47.200908" lon="13.673278">
 <ele>1140.00</ele>
 <time>2010-09-19T10:28:00Z</time>
 </trkpt>
 <trkpt lat="47.201082" lon="13.672762">
 <ele>1140.00</ele>
 <time>2010-09-19T10:28:10Z</time>
 </trkpt>
 <trkpt lat="47.201357" lon="13.672260">
 <ele>1140.00</ele>
 <time>2010-09-19T10:28:19Z</time>
 </trkpt>
 <trkpt lat="47.201653" lon="13.672005">
 <ele>1121.18</ele>
 <time>2010-09-19T10:28:26Z</time>
 </trkpt>
 <trkpt lat="47.201759" lon="13.671796">
 <ele>1122.13</ele>
 <time>2010-09-19T10:28:31Z</time>
 </trkpt>
 <trkpt lat="47.201866" lon="13.671595">
 <ele>1122.27</ele>
 <time>2010-09-19T10:28:36Z</time>
 </trkpt>
 <trkpt lat="47.202023" lon="13.671294">
 <ele>1123.84</ele>
 <time>2010-09-19T10:28:44Z</time>
 </trkpt>
 <trkpt lat="47.202255" lon="13.671149">
 <ele>1140.00</ele>
 <time>2010-09-19T10:28:50Z</time>
 </trkpt>
 <trkpt lat="47.202420" lon="13.670847">
 <ele>1143.32</ele>
 <time>2010-09-19T10:28:57Z</time>
 </trkpt>
 <trkpt lat="47.202498" lon="13.670746">
 <ele>1140.00</ele>
 <time>2010-09-19T10:29:03Z</time>
 </trkpt>
 <trkpt lat="47.202575" lon="13.670563">
 <ele>1140.00</ele>
 <time>2010-09-19T10:29:08Z</time>
 </trkpt>
 <trkpt lat="47.202633" lon="13.670365">
 <ele>1127.04</ele>
 <time>2010-09-19T10:29:14Z</time>
 </trkpt>
 <trkpt lat="47.202633" lon="13.670365">
 <ele>1127.59</ele>
 <time>2010-09-19T10:29:15Z</time>
 </trkpt>
 <trkpt lat="47.202732" lon="13.670256">
 <ele>1128.28</ele>
 <time>2010-09-19T10:29:42Z</time>
 </trkpt>
 <trkpt lat="47.202770" lon="13.670213">
 <ele>1128.40</ele>
 <time>2010-09-19T10:29:45Z</time>
 </trkpt>
 <trkpt lat="47.202892" lon="13.670075">
 <ele>1128.80</ele>
 <time>2010-09-19T10:29:52Z</time>
 </trkpt>
 <trkpt lat="47.203014" lon="13.669937">
 <ele>1131.10</ele>
 <time>2010-09-19T10:29:59Z</time>
 </trkpt>
 <trkpt lat="47.203129" lon="13.669812">
 <ele>1131.46</ele>
 <time>2010-09-19T10:30:05Z</time>
 </trkpt>
 <trkpt lat="47.203335" lon="13.669581">
 <ele>1131.77</ele>
 <time>2010-09-19T10:30:16Z</time>
 </trkpt>
 <trkpt lat="47.203461" lon="13.669440">
 <ele>1132.96</ele>
 <time>2010-09-19T10:30:23Z</time>
 </trkpt>
 <trkpt lat="47.203594" lon="13.669290">
 <ele>1132.71</ele>
 <time>2010-09-19T10:30:31Z</time>
 </trkpt>
 <trkpt lat="47.203566" lon="13.669085">
 <ele>1140.00</ele>
 <time>2010-09-19T10:30:37Z</time>
 </trkpt>
 <trkpt lat="47.203576" lon="13.668953">
 <ele>1140.00</ele>
 <time>2010-09-19T10:30:44Z</time>
 </trkpt>
 <trkpt lat="47.203561" lon="13.668640">
 <ele>1140.00</ele>
 <time>2010-09-19T10:30:49Z</time>
 </trkpt>
 <trkpt lat="47.203593" lon="13.668457">
 <ele>1140.00</ele>
 <time>2010-09-19T10:30:53Z</time>
 </trkpt>
 <trkpt lat="47.203612" lon="13.668143">
 <ele>1140.00</ele>
 <time>2010-09-19T10:30:59Z</time>
 </trkpt>
 <trkpt lat="47.203768" lon="13.668007">
 <ele>1140.88</ele>
 <time>2010-09-19T10:31:04Z</time>
 </trkpt>
 <trkpt lat="47.203958" lon="13.667937">
 <ele>1143.45</ele>
 <time>2010-09-19T10:31:10Z</time>
 </trkpt>
 <trkpt lat="47.204103" lon="13.667850">
 <ele>1145.09</ele>
 <time>2010-09-19T10:31:20Z</time>
 </trkpt>
 <trkpt lat="47.204293" lon="13.667730">
 <ele>1140.00</ele>
 <time>2010-09-19T10:31:26Z</time>
 </trkpt>
 <trkpt lat="47.204416" lon="13.667645">
 <ele>1144.13</ele>
 <time>2010-09-19T10:31:31Z</time>
 </trkpt>
 <trkpt lat="47.204540" lon="13.667641">
 <ele>1140.60</ele>
 <time>2010-09-19T10:31:35Z</time>
 </trkpt>
 <trkpt lat="47.204650" lon="13.667507">
 <ele>1143.95</ele>
 <time>2010-09-19T10:31:40Z</time>
 </trkpt>
 <trkpt lat="47.204874" lon="13.667402">
 <ele>1141.07</ele>
 <time>2010-09-19T10:31:46Z</time>
 </trkpt>
 <trkpt lat="47.205052" lon="13.667199">
 <ele>1140.00</ele>
 <time>2010-09-19T10:31:51Z</time>
 </trkpt>
 <trkpt lat="47.205219" lon="13.667063">
 <ele>1140.00</ele>
 <time>2010-09-19T10:31:58Z</time>
 </trkpt>
 <trkpt lat="47.205386" lon="13.666894">
 <ele>1140.00</ele>
 <time>2010-09-19T10:32:04Z</time>
 </trkpt>
 <trkpt lat="47.205496" lon="13.666677">
 <ele>1140.00</ele>
 <time>2010-09-19T10:32:12Z</time>
 </trkpt>
 <trkpt lat="47.205573" lon="13.666592">
 <ele>1140.00</ele>
 <time>2010-09-19T10:32:13Z</time>
 </trkpt>
 <trkpt lat="47.205684" lon="13.666441">
 <ele>1140.00</ele>
 <time>2010-09-19T10:32:16Z</time>
 </trkpt>
 <trkpt lat="47.205883" lon="13.666089">
 <ele>1140.05</ele>
 <time>2010-09-19T10:32:22Z</time>
 </trkpt>
 <trkpt lat="47.206078" lon="13.665955">
 <ele>1136.61</ele>
 <time>2010-09-19T10:32:26Z</time>
 </trkpt>
 <trkpt lat="47.206127" lon="13.665806">
 <ele>1135.51</ele>
 <time>2010-09-19T10:32:29Z</time>
 </trkpt>
 <trkpt lat="47.206215" lon="13.665535">
 <ele>1133.42</ele>
 <time>2010-09-19T10:32:33Z</time>
 </trkpt>
 <trkpt lat="47.206303" lon="13.665275">
 <ele>1132.54</ele>
 <time>2010-09-19T10:32:37Z</time>
 </trkpt>
 <trkpt lat="47.206387" lon="13.665019">
 <ele>1133.04</ele>
 <time>2010-09-19T10:32:41Z</time>
 </trkpt>
 <trkpt lat="47.206262" lon="13.664908">
 <ele>1141.07</ele>
 <time>2010-09-19T10:32:43Z</time>
 </trkpt>
 <trkpt lat="47.206317" lon="13.664725">
 <ele>1142.11</ele>
 <time>2010-09-19T10:32:47Z</time>
 </trkpt>
 <trkpt lat="47.206347" lon="13.664460">
 <ele>1149.08</ele>
 <time>2010-09-19T10:32:51Z</time>
 </trkpt>
 <trkpt lat="47.206344" lon="13.664196">
 <ele>1160.00</ele>
 <time>2010-09-19T10:32:55Z</time>
 </trkpt>
 <trkpt lat="47.206497" lon="13.663763">
 <ele>1160.00</ele>
 <time>2010-09-19T10:33:02Z</time>
 </trkpt>
 <trkpt lat="47.206795" lon="13.663293">
 <ele>1160.00</ele>
 <time>2010-09-19T10:33:09Z</time>
 </trkpt>
 <trkpt lat="47.206938" lon="13.662993">
 <ele>1160.00</ele>
 <time>2010-09-19T10:33:15Z</time>
 </trkpt>
 <trkpt lat="47.207222" lon="13.662526">
 <ele>1134.68</ele>
 <time>2010-09-19T10:33:23Z</time>
 </trkpt>
 <trkpt lat="47.207363" lon="13.662359">
 <ele>1134.93</ele>
 <time>2010-09-19T10:33:28Z</time>
 </trkpt>
 <trkpt lat="47.207527" lon="13.662166">
 <ele>1135.63</ele>
 <time>2010-09-19T10:33:34Z</time>
 </trkpt>
 <trkpt lat="47.207703" lon="13.661962">
 <ele>1135.88</ele>
 <time>2010-09-19T10:33:40Z</time>
 </trkpt>
 <trkpt lat="47.207886" lon="13.661750">
 <ele>1135.25</ele>
 <time>2010-09-19T10:33:45Z</time>
 </trkpt>
 <trkpt lat="47.207996" lon="13.661617">
 <ele>1135.37</ele>
 <time>2010-09-19T10:33:48Z</time>
 </trkpt>
 <trkpt lat="47.208157" lon="13.661432">
 <ele>1135.35</ele>
 <time>2010-09-19T10:33:53Z</time>
 </trkpt>
 <trkpt lat="47.208389" lon="13.661160">
 <ele>1137.20</ele>
 <time>2010-09-19T10:34:01Z</time>
 </trkpt>
 <trkpt lat="47.208496" lon="13.661035">
 <ele>1138.05</ele>
 <time>2010-09-19T10:34:07Z</time>
 </trkpt>
 <trkpt lat="47.208645" lon="13.660860">
 <ele>1139.78</ele>
 <time>2010-09-19T10:34:13Z</time>
 </trkpt>
 <trkpt lat="47.208769" lon="13.660933">
 <ele>1160.00</ele>
 <time>2010-09-19T10:34:18Z</time>
 </trkpt>
 <trkpt lat="47.208938" lon="13.660879">
 <ele>1160.00</ele>
 <time>2010-09-19T10:34:23Z</time>
 </trkpt>
 <trkpt lat="47.209263" lon="13.660805">
 <ele>1160.00</ele>
 <time>2010-09-19T10:34:31Z</time>
 </trkpt>
 <trkpt lat="47.209360" lon="13.660472">
 <ele>1160.00</ele>
 <time>2010-09-19T10:34:36Z</time>
 </trkpt>
 <trkpt lat="47.209274" lon="13.660120">
 <ele>1141.70</ele>
 <time>2010-09-19T10:34:41Z</time>
 </trkpt>
 <trkpt lat="47.209328" lon="13.660061">
 <ele>1143.04</ele>
 <time>2010-09-19T10:34:46Z</time>
 </trkpt>
 <trkpt lat="47.209328" lon="13.660061">
 <ele>1143.06</ele>
 <time>2010-09-19T10:34:53Z</time>
 </trkpt>
 <trkpt lat="47.209370" lon="13.660009">
 <ele>1142.96</ele>
 <time>2010-09-19T10:34:58Z</time>
 </trkpt>
 <trkpt lat="47.209419" lon="13.659950">
 <ele>1142.64</ele>
 <time>2010-09-19T10:35:04Z</time>
 </trkpt>
 <trkpt lat="47.209480" lon="13.659881">
 <ele>1144.77</ele>
 <time>2010-09-19T10:35:12Z</time>
 </trkpt>
 <trkpt lat="47.209553" lon="13.659798">
 <ele>1147.08</ele>
 <time>2010-09-19T10:35:21Z</time>
 </trkpt>
 <trkpt lat="47.209633" lon="13.659702">
 <ele>1148.24</ele>
 <time>2010-09-19T10:35:28Z</time>
 </trkpt>
 <trkpt lat="47.209732" lon="13.659587">
 <ele>1149.84</ele>
 <time>2010-09-19T10:35:35Z</time>
 </trkpt>
 <trkpt lat="47.209801" lon="13.659504">
 <ele>1151.43</ele>
 <time>2010-09-19T10:35:42Z</time>
 </trkpt>
 <trkpt lat="47.209881" lon="13.659410">
 <ele>1152.86</ele>
 <time>2010-09-19T10:35:49Z</time>
 </trkpt>
 <trkpt lat="47.209995" lon="13.659276">
 <ele>1154.81</ele>
 <time>2010-09-19T10:35:58Z</time>
 </trkpt>
 <trkpt lat="47.210022" lon="13.659247">
 <ele>1155.23</ele>
 <time>2010-09-19T10:36:00Z</time>
 </trkpt>
 <trkpt lat="47.210121" lon="13.659128">
 <ele>1156.41</ele>
 <time>2010-09-19T10:36:09Z</time>
 </trkpt>
 <trkpt lat="47.210213" lon="13.659023">
 <ele>1157.76</ele>
 <time>2010-09-19T10:36:17Z</time>
 </trkpt>
 <trkpt lat="47.210293" lon="13.658929">
 <ele>1159.28</ele>
 <time>2010-09-19T10:36:24Z</time>
 </trkpt>
 <trkpt lat="47.210316" lon="13.658901">
 <ele>1159.78</ele>
 <time>2010-09-19T10:36:26Z</time>
 </trkpt>
 <trkpt lat="47.210384" lon="13.658856">
 <ele>1160.36</ele>
 <time>2010-09-19T10:36:30Z</time>
 </trkpt>
 <trkpt lat="47.210537" lon="13.658776">
 <ele>1161.70</ele>
 <time>2010-09-19T10:36:39Z</time>
 </trkpt>
 <trkpt lat="47.210686" lon="13.658700">
 <ele>1162.53</ele>
 <time>2010-09-19T10:36:48Z</time>
 </trkpt>
 <trkpt lat="47.210827" lon="13.658627">
 <ele>1164.11</ele>
 <time>2010-09-19T10:36:57Z</time>
 </trkpt>
 <trkpt lat="47.210941" lon="13.658569">
 <ele>1165.72</ele>
 <time>2010-09-19T10:37:05Z</time>
 </trkpt>
 <trkpt lat="47.211090" lon="13.658493">
 <ele>1167.68</ele>
 <time>2010-09-19T10:37:15Z</time>
 </trkpt>
 <trkpt lat="47.211220" lon="13.658426">
 <ele>1167.83</ele>
 <time>2010-09-19T10:37:24Z</time>
 </trkpt>
 <trkpt lat="47.211342" lon="13.658364">
 <ele>1170.12</ele>
 <time>2010-09-19T10:37:33Z</time>
 </trkpt>
 <trkpt lat="47.211449" lon="13.658309">
 <ele>1172.31</ele>
 <time>2010-09-19T10:37:41Z</time>
 </trkpt>
 <trkpt lat="47.211555" lon="13.658252">
 <ele>1173.34</ele>
 <time>2010-09-19T10:37:49Z</time>
 </trkpt>
 <trkpt lat="47.211655" lon="13.658202">
 <ele>1174.83</ele>
 <time>2010-09-19T10:37:56Z</time>
 </trkpt>
 <trkpt lat="47.211765" lon="13.658145">
 <ele>1176.65</ele>
 <time>2010-09-19T10:38:04Z</time>
 </trkpt>
 <trkpt lat="47.211845" lon="13.658105">
 <ele>1177.99</ele>
 <time>2010-09-19T10:38:10Z</time>
 </trkpt>
 <trkpt lat="47.211914" lon="13.658069">
 <ele>1179.23</ele>
 <time>2010-09-19T10:38:17Z</time>
 </trkpt>
 <trkpt lat="47.212009" lon="13.658020">
 <ele>1179.78</ele>
 <time>2010-09-19T10:38:23Z</time>
 </trkpt>
 <trkpt lat="47.212158" lon="13.657943">
 <ele>1180.25</ele>
 <time>2010-09-19T10:38:30Z</time>
 </trkpt>
 <trkpt lat="47.212292" lon="13.657875">
 <ele>1181.35</ele>
 <time>2010-09-19T10:38:39Z</time>
 </trkpt>
 <trkpt lat="47.212406" lon="13.657816">
 <ele>1183.56</ele>
 <time>2010-09-19T10:38:46Z</time>
 </trkpt>
 <trkpt lat="47.212540" lon="13.657748">
 <ele>1184.28</ele>
 <time>2010-09-19T10:38:54Z</time>
 </trkpt>
 <trkpt lat="47.212673" lon="13.657679">
 <ele>1185.58</ele>
 <time>2010-09-19T10:39:03Z</time>
 </trkpt>
 <trkpt lat="47.212784" lon="13.657623">
 <ele>1186.94</ele>
 <time>2010-09-19T10:39:11Z</time>
 </trkpt>
 <trkpt lat="47.212894" lon="13.657565">
 <ele>1188.93</ele>
 <time>2010-09-19T10:39:21Z</time>
 </trkpt>
 <trkpt lat="47.213001" lon="13.657511">
 <ele>1191.36</ele>
 <time>2010-09-19T10:39:30Z</time>
 </trkpt>
 <trkpt lat="47.213100" lon="13.657459">
 <ele>1194.01</ele>
 <time>2010-09-19T10:39:38Z</time>
 </trkpt>
 <trkpt lat="47.213203" lon="13.657405">
 <ele>1195.83</ele>
 <time>2010-09-19T10:39:47Z</time>
 </trkpt>
 <trkpt lat="47.213291" lon="13.657362">
 <ele>1197.53</ele>
 <time>2010-09-19T10:39:55Z</time>
 </trkpt>
 <trkpt lat="47.213387" lon="13.657312">
 <ele>1200.16</ele>
 <time>2010-09-19T10:40:03Z</time>
 </trkpt>
 <trkpt lat="47.213486" lon="13.657262">
 <ele>1201.58</ele>
 <time>2010-09-19T10:40:12Z</time>
 </trkpt>
 <trkpt lat="47.213570" lon="13.657218">
 <ele>1202.80</ele>
 <time>2010-09-19T10:40:19Z</time>
 </trkpt>
 <trkpt lat="47.213650" lon="13.657178">
 <ele>1202.92</ele>
 <time>2010-09-19T10:40:25Z</time>
 </trkpt>
 <trkpt lat="47.213757" lon="13.657122">
 <ele>1203.70</ele>
 <time>2010-09-19T10:40:33Z</time>
 </trkpt>
 <trkpt lat="47.213837" lon="13.657081">
 <ele>1204.48</ele>
 <time>2010-09-19T10:40:39Z</time>
 </trkpt>
 <trkpt lat="47.213886" lon="13.657056">
 <ele>1205.34</ele>
 <time>2010-09-19T10:40:44Z</time>
 </trkpt>
 <trkpt lat="47.213974" lon="13.657011">
 <ele>1206.84</ele>
 <time>2010-09-19T10:40:53Z</time>
 </trkpt>
 <trkpt lat="47.214050" lon="13.656972">
 <ele>1208.90</ele>
 <time>2010-09-19T10:41:01Z</time>
 </trkpt>
 <trkpt lat="47.214146" lon="13.656921">
 <ele>1211.31</ele>
 <time>2010-09-19T10:41:10Z</time>
 </trkpt>
 <trkpt lat="47.214306" lon="13.656918">
 <ele>1213.73</ele>
 <time>2010-09-19T10:41:20Z</time>
 </trkpt>
 <trkpt lat="47.214333" lon="13.656920">
 <ele>1214.30</ele>
 <time>2010-09-19T10:41:22Z</time>
 </trkpt>
 <trkpt lat="47.214462" lon="13.656930">
 <ele>1215.97</ele>
 <time>2010-09-19T10:41:32Z</time>
 </trkpt>
 <trkpt lat="47.214523" lon="13.656935">
 <ele>1216.85</ele>
 <time>2010-09-19T10:41:38Z</time>
 </trkpt>
 <trkpt lat="47.214638" lon="13.656944">
 <ele>1217.76</ele>
 <time>2010-09-19T10:41:45Z</time>
 </trkpt>
 <trkpt lat="47.214733" lon="13.656952">
 <ele>1219.49</ele>
 <time>2010-09-19T10:41:53Z</time>
 </trkpt>
 <trkpt lat="47.214802" lon="13.656957">
 <ele>1220.68</ele>
 <time>2010-09-19T10:41:59Z</time>
 </trkpt>
 <trkpt lat="47.214844" lon="13.656961">
 <ele>1221.82</ele>
 <time>2010-09-19T10:42:04Z</time>
 </trkpt>
 <trkpt lat="47.214893" lon="13.656965">
 <ele>1222.70</ele>
 <time>2010-09-19T10:42:07Z</time>
 </trkpt>
 <trkpt lat="47.214966" lon="13.656971">
 <ele>1223.07</ele>
 <time>2010-09-19T10:42:11Z</time>
 </trkpt>
 <trkpt lat="47.215015" lon="13.656975">
 <ele>1223.07</ele>
 <time>2010-09-19T10:42:14Z</time>
 </trkpt>
 <trkpt lat="47.215080" lon="13.656980">
 <ele>1223.48</ele>
 <time>2010-09-19T10:42:19Z</time>
 </trkpt>
 <trkpt lat="47.215122" lon="13.656983">
 <ele>1223.61</ele>
 <time>2010-09-19T10:42:24Z</time>
 </trkpt>
 <trkpt lat="47.215263" lon="13.656994">
 <ele>1224.40</ele>
 <time>2010-09-19T10:42:32Z</time>
 </trkpt>
 <trkpt lat="47.215351" lon="13.657001">
 <ele>1225.32</ele>
 <time>2010-09-19T10:42:38Z</time>
 </trkpt>
 <trkpt lat="47.215466" lon="13.657011">
 <ele>1225.97</ele>
 <time>2010-09-19T10:42:45Z</time>
 </trkpt>
 <trkpt lat="47.215557" lon="13.657018">
 <ele>1226.86</ele>
 <time>2010-09-19T10:42:53Z</time>
 </trkpt>
 <trkpt lat="47.215633" lon="13.657024">
 <ele>1227.20</ele>
 <time>2010-09-19T10:42:58Z</time>
 </trkpt>
 <trkpt lat="47.215698" lon="13.657029">
 <ele>1227.56</ele>
 <time>2010-09-19T10:43:04Z</time>
 </trkpt>
 <trkpt lat="47.215763" lon="13.657034">
 <ele>1228.02</ele>
 <time>2010-09-19T10:43:10Z</time>
 </trkpt>
 <trkpt lat="47.215782" lon="13.657036">
 <ele>1228.12</ele>
 <time>2010-09-19T10:43:14Z</time>
 </trkpt>
 <trkpt lat="47.215843" lon="13.657112">
 <ele>1229.09</ele>
 <time>2010-09-19T10:43:20Z</time>
 </trkpt>
 <trkpt lat="47.215912" lon="13.657201">
 <ele>1230.93</ele>
 <time>2010-09-19T10:43:27Z</time>
 </trkpt>
 <trkpt lat="47.215984" lon="13.657294">
 <ele>1232.58</ele>
 <time>2010-09-19T10:43:36Z</time>
 </trkpt>
 <trkpt lat="47.216080" lon="13.657418">
 <ele>1234.02</ele>
 <time>2010-09-19T10:43:45Z</time>
 </trkpt>
 <trkpt lat="47.216148" lon="13.657506">
 <ele>1235.44</ele>
 <time>2010-09-19T10:43:53Z</time>
 </trkpt>
 <trkpt lat="47.216213" lon="13.657587">
 <ele>1236.34</ele>
 <time>2010-09-19T10:44:00Z</time>
 </trkpt>
 <trkpt lat="47.216309" lon="13.657712">
 <ele>1237.41</ele>
 <time>2010-09-19T10:44:08Z</time>
 </trkpt>
 <trkpt lat="47.216400" lon="13.657827">
 <ele>1238.45</ele>
 <time>2010-09-19T10:44:17Z</time>
 </trkpt>
 <trkpt lat="47.216461" lon="13.657906">
 <ele>1239.64</ele>
 <time>2010-09-19T10:44:24Z</time>
 </trkpt>
 <trkpt lat="47.216511" lon="13.657970">
 <ele>1241.49</ele>
 <time>2010-09-19T10:44:32Z</time>
 </trkpt>
 <trkpt lat="47.216572" lon="13.658046">
 <ele>1243.07</ele>
 <time>2010-09-19T10:44:39Z</time>
 </trkpt>
 <trkpt lat="47.216637" lon="13.658131">
 <ele>1244.43</ele>
 <time>2010-09-19T10:44:45Z</time>
 </trkpt>
 <trkpt lat="47.216686" lon="13.658194">
 <ele>1245.18</ele>
 <time>2010-09-19T10:44:52Z</time>
 </trkpt>
 <trkpt lat="47.216705" lon="13.658222">
 <ele>1245.89</ele>
 <time>2010-09-19T10:44:57Z</time>
 </trkpt>
 <trkpt lat="47.216728" lon="13.658251">
 <ele>1246.43</ele>
 <time>2010-09-19T10:45:00Z</time>
 </trkpt>
 <trkpt lat="47.216759" lon="13.658290">
 <ele>1247.40</ele>
 <time>2010-09-19T10:45:05Z</time>
 </trkpt>
 <trkpt lat="47.216949" lon="13.658337">
 <ele>1248.80</ele>
 <time>2010-09-19T10:45:12Z</time>
 </trkpt>
 <trkpt lat="47.217026" lon="13.658304">
 <ele>1250.04</ele>
 <time>2010-09-19T10:45:20Z</time>
 </trkpt>
 <trkpt lat="47.217072" lon="13.658286">
 <ele>1251.47</ele>
 <time>2010-09-19T10:45:28Z</time>
 </trkpt>
 <trkpt lat="47.217152" lon="13.658249">
 <ele>1252.65</ele>
 <time>2010-09-19T10:45:36Z</time>
 </trkpt>
 <trkpt lat="47.217209" lon="13.658225">
 <ele>1253.31</ele>
 <time>2010-09-19T10:45:42Z</time>
 </trkpt>
 <trkpt lat="47.217293" lon="13.658188">
 <ele>1253.36</ele>
 <time>2010-09-19T10:45:49Z</time>
 </trkpt>
 <trkpt lat="47.217365" lon="13.658156">
 <ele>1253.13</ele>
 <time>2010-09-19T10:45:53Z</time>
 </trkpt>
 <trkpt lat="47.217541" lon="13.658080">
 <ele>1253.58</ele>
 <time>2010-09-19T10:46:02Z</time>
 </trkpt>
 <trkpt lat="47.217651" lon="13.658032">
 <ele>1255.23</ele>
 <time>2010-09-19T10:46:08Z</time>
 </trkpt>
 <trkpt lat="47.217720" lon="13.658002">
 <ele>1255.57</ele>
 <time>2010-09-19T10:46:13Z</time>
 </trkpt>
 <trkpt lat="47.217808" lon="13.657947">
 <ele>1255.89</ele>
 <time>2010-09-19T10:46:19Z</time>
 </trkpt>
 <trkpt lat="47.217838" lon="13.657950">
 <ele>1256.18</ele>
 <time>2010-09-19T10:46:22Z</time>
 </trkpt>
 <trkpt lat="47.217983" lon="13.657887">
 <ele>1256.10</ele>
 <time>2010-09-19T10:46:28Z</time>
 </trkpt>
 <trkpt lat="47.218102" lon="13.657835">
 <ele>1257.81</ele>
 <time>2010-09-19T10:46:34Z</time>
 </trkpt>
 <trkpt lat="47.218254" lon="13.657769">
 <ele>1258.19</ele>
 <time>2010-09-19T10:46:40Z</time>
 </trkpt>
 <trkpt lat="47.218376" lon="13.657715">
 <ele>1258.29</ele>
 <time>2010-09-19T10:46:45Z</time>
 </trkpt>
 <trkpt lat="47.218468" lon="13.657675">
 <ele>1258.76</ele>
 <time>2010-09-19T10:46:51Z</time>
 </trkpt>
 <trkpt lat="47.218529" lon="13.657650">
 <ele>1259.11</ele>
 <time>2010-09-19T10:46:55Z</time>
 </trkpt>
 <trkpt lat="47.218632" lon="13.657604">
 <ele>1259.73</ele>
 <time>2010-09-19T10:47:00Z</time>
 </trkpt>
 <trkpt lat="47.218842" lon="13.657512">
 <ele>1260.79</ele>
 <time>2010-09-19T10:47:07Z</time>
 </trkpt>
 <trkpt lat="47.218998" lon="13.657444">
 <ele>1262.32</ele>
 <time>2010-09-19T10:47:17Z</time>
 </trkpt>
 <trkpt lat="47.219151" lon="13.657378">
 <ele>1263.47</ele>
 <time>2010-09-19T10:47:24Z</time>
 </trkpt>
 <trkpt lat="47.219250" lon="13.657334">
 <ele>1264.76</ele>
 <time>2010-09-19T10:47:31Z</time>
 </trkpt>
 <trkpt lat="47.219330" lon="13.657299">
 <ele>1264.78</ele>
 <time>2010-09-19T10:47:35Z</time>
 </trkpt>
 <trkpt lat="47.219341" lon="13.657744">
 <ele>1280.00</ele>
 <time>2010-09-19T10:47:38Z</time>
 </trkpt>
 <trkpt lat="47.219318" lon="13.657662">
 <ele>1280.00</ele>
 <time>2010-09-19T10:47:44Z</time>
 </trkpt>
 <trkpt lat="47.219318" lon="13.657695">
 <ele>1280.00</ele>
 <time>2010-09-19T10:47:45Z</time>
 </trkpt>
 <trkpt lat="47.219588" lon="13.657655">
 <ele>1280.00</ele>
 <time>2010-09-19T10:47:54Z</time>
 </trkpt>
 <trkpt lat="47.219756" lon="13.657601">
 <ele>1280.00</ele>
 <time>2010-09-19T10:48:02Z</time>
 </trkpt>
 <trkpt lat="47.219891" lon="13.657647">
 <ele>1280.00</ele>
 <time>2010-09-19T10:48:09Z</time>
 </trkpt>
 <trkpt lat="47.220049" lon="13.657676">
 <ele>1280.00</ele>
 <time>2010-09-19T10:48:17Z</time>
 </trkpt>
 <trkpt lat="47.220319" lon="13.657669">
 <ele>1280.00</ele>
 <time>2010-09-19T10:48:23Z</time>
 </trkpt>
 <trkpt lat="47.220522" lon="13.657730">
 <ele>1280.00</ele>
 <time>2010-09-19T10:48:24Z</time>
 </trkpt>
 <trkpt lat="47.220881" lon="13.657606">
 <ele>1280.00</ele>
 <time>2010-09-19T10:48:32Z</time>
 </trkpt>
 <trkpt lat="47.221214" lon="13.657251">
 <ele>1280.00</ele>
 <time>2010-09-19T10:48:42Z</time>
 </trkpt>
 <trkpt lat="47.221626" lon="13.656910">
 <ele>1280.00</ele>
 <time>2010-09-19T10:48:50Z</time>
 </trkpt>
 <trkpt lat="47.222046" lon="13.656737">
 <ele>1233.45</ele>
 <time>2010-09-19T10:48:59Z</time>
 </trkpt>
 <trkpt lat="47.222366" lon="13.656716">
 <ele>1233.17</ele>
 <time>2010-09-19T10:49:07Z</time>
 </trkpt>
 <trkpt lat="47.222530" lon="13.656706">
 <ele>1234.88</ele>
 <time>2010-09-19T10:49:12Z</time>
 </trkpt>
 <trkpt lat="47.222651" lon="13.656925">
 <ele>1280.00</ele>
 <time>2010-09-19T10:49:18Z</time>
 </trkpt>
 <trkpt lat="47.222943" lon="13.656918">
 <ele>1280.00</ele>
 <time>2010-09-19T10:49:23Z</time>
 </trkpt>
 <trkpt lat="47.223103" lon="13.656633">
 <ele>1234.36</ele>
 <time>2010-09-19T10:49:29Z</time>
 </trkpt>
 <trkpt lat="47.223176" lon="13.656664">
 <ele>1280.00</ele>
 <time>2010-09-19T10:49:33Z</time>
 </trkpt>
 <trkpt lat="47.223310" lon="13.656562">
 <ele>1280.00</ele>
 <time>2010-09-19T10:49:40Z</time>
 </trkpt>
 <trkpt lat="47.223455" lon="13.656459">
 <ele>1280.00</ele>
 <time>2010-09-19T10:49:44Z</time>
 </trkpt>
 <trkpt lat="47.223544" lon="13.656391">
 <ele>1280.00</ele>
 <time>2010-09-19T10:49:48Z</time>
 </trkpt>
 <trkpt lat="47.223678" lon="13.656305">
 <ele>1280.00</ele>
 <time>2010-09-19T10:49:54Z</time>
 </trkpt>
 <trkpt lat="47.223847" lon="13.656267">
 <ele>1280.00</ele>
 <time>2010-09-19T10:49:58Z</time>
 </trkpt>
 <trkpt lat="47.224014" lon="13.656197">
 <ele>1280.00</ele>
 <time>2010-09-19T10:50:01Z</time>
 </trkpt>
 <trkpt lat="47.224138" lon="13.656144">
 <ele>1280.00</ele>
 <time>2010-09-19T10:50:08Z</time>
 </trkpt>
 <trkpt lat="47.224295" lon="13.656140">
 <ele>1280.00</ele>
 <time>2010-09-19T10:50:15Z</time>
 </trkpt>
 <trkpt lat="47.224429" lon="13.656087">
 <ele>1280.00</ele>
 <time>2010-09-19T10:50:22Z</time>
 </trkpt>
 <trkpt lat="47.224496" lon="13.656053">
 <ele>1280.00</ele>
 <time>2010-09-19T10:50:25Z</time>
 </trkpt>
 <trkpt lat="47.224641" lon="13.655933">
 <ele>1280.00</ele>
 <time>2010-09-19T10:50:33Z</time>
 </trkpt>
 <trkpt lat="47.224797" lon="13.655797">
 <ele>1280.00</ele>
 <time>2010-09-19T10:50:41Z</time>
 </trkpt>
 <trkpt lat="47.224909" lon="13.655762">
 <ele>1280.00</ele>
 <time>2010-09-19T10:50:47Z</time>
 </trkpt>
 <trkpt lat="47.225077" lon="13.655658">
 <ele>1280.00</ele>
 <time>2010-09-19T10:50:51Z</time>
 </trkpt>
 <trkpt lat="47.225200" lon="13.655622">
 <ele>1280.00</ele>
 <time>2010-09-19T10:51:01Z</time>
 </trkpt>
 <trkpt lat="47.225322" lon="13.655503">
 <ele>1280.00</ele>
 <time>2010-09-19T10:51:09Z</time>
 </trkpt>
 <trkpt lat="47.225469" lon="13.655500">
 <ele>1280.00</ele>
 <time>2010-09-19T10:51:13Z</time>
 </trkpt>
 <trkpt lat="47.225614" lon="13.655397">
 <ele>1280.00</ele>
 <time>2010-09-19T10:51:15Z</time>
 </trkpt>
 <trkpt lat="47.225758" lon="13.655278">
 <ele>1280.00</ele>
 <time>2010-09-19T10:51:48Z</time>
 </trkpt>
 <trkpt lat="47.225903" lon="13.655142">
 <ele>1280.00</ele>
 <time>2010-09-19T10:51:49Z</time>
 </trkpt>
 <trkpt lat="47.226024" lon="13.654924">
 <ele>1280.00</ele>
 <time>2010-09-19T10:52:15Z</time>
 </trkpt>
 <trkpt lat="47.226168" lon="13.654673">
 <ele>1280.00</ele>
 <time>2010-09-19T10:52:53Z</time>
 </trkpt>
 <trkpt lat="47.226480" lon="13.654483">
 <ele>1280.00</ele>
 <time>2010-09-19T10:52:54Z</time>
 </trkpt>
 <trkpt lat="47.226692" lon="13.654330">
 <ele>1280.00</ele>
 <time>2010-09-19T10:53:00Z</time>
 </trkpt>
 <trkpt lat="47.226871" lon="13.654242">
 <ele>1280.00</ele>
 <time>2010-09-19T10:53:05Z</time>
 </trkpt>
 <trkpt lat="47.227039" lon="13.654189">
 <ele>1280.00</ele>
 <time>2010-09-19T10:53:10Z</time>
 </trkpt>
 <trkpt lat="47.227252" lon="13.654117">
 <ele>1280.00</ele>
 <time>2010-09-19T10:53:18Z</time>
 </trkpt>
 <trkpt lat="47.227431" lon="13.654047">
 <ele>1280.00</ele>
 <time>2010-09-19T10:53:24Z</time>
 </trkpt>
 <trkpt lat="47.227610" lon="13.653960">
 <ele>1280.00</ele>
 <time>2010-09-19T10:53:30Z</time>
 </trkpt>
 <trkpt lat="47.227789" lon="13.653889">
 <ele>1280.00</ele>
 <time>2010-09-19T10:53:35Z</time>
 </trkpt>
 <trkpt lat="47.227980" lon="13.653868">
 <ele>1280.00</ele>
 <time>2010-09-19T10:53:40Z</time>
 </trkpt>
 <trkpt lat="47.228171" lon="13.653830">
 <ele>1280.00</ele>
 <time>2010-09-19T10:53:45Z</time>
 </trkpt>
 <trkpt lat="47.228305" lon="13.653777">
 <ele>1280.00</ele>
 <time>2010-09-19T10:53:48Z</time>
 </trkpt>
 <trkpt lat="47.228497" lon="13.653788">
 <ele>1280.00</ele>
 <time>2010-09-19T10:53:52Z</time>
 </trkpt>
 <trkpt lat="47.228665" lon="13.653718">
 <ele>1280.00</ele>
 <time>2010-09-19T10:53:55Z</time>
 </trkpt>
 <trkpt lat="47.228821" lon="13.653632">
 <ele>1280.00</ele>
 <time>2010-09-19T10:54:01Z</time>
 </trkpt>
 <trkpt lat="47.229024" lon="13.653643">
 <ele>1280.00</ele>
 <time>2010-09-19T10:54:07Z</time>
 </trkpt>
 <trkpt lat="47.229238" lon="13.653594">
 <ele>1280.00</ele>
 <time>2010-09-19T10:54:13Z</time>
 </trkpt>
 <trkpt lat="47.229507" lon="13.653537">
 <ele>1280.00</ele>
 <time>2010-09-19T10:54:19Z</time>
 </trkpt>
 <trkpt lat="47.229709" lon="13.653499">
 <ele>1280.00</ele>
 <time>2010-09-19T10:54:20Z</time>
 </trkpt>
 <trkpt lat="47.230115" lon="13.653571">
 <ele>1280.25</ele>
 <time>2010-09-19T10:54:27Z</time>
 </trkpt>
 <trkpt lat="47.230211" lon="13.653140">
 <ele>1280.00</ele>
 <time>2010-09-19T10:54:34Z</time>
 </trkpt>
 <trkpt lat="47.230242" lon="13.652908">
 <ele>1280.00</ele>
 <time>2010-09-19T10:54:40Z</time>
 </trkpt>
 <trkpt lat="47.230351" lon="13.652558">
 <ele>1280.00</ele>
 <time>2010-09-19T10:54:45Z</time>
 </trkpt>
 <trkpt lat="47.230448" lon="13.652275">
 <ele>1280.02</ele>
 <time>2010-09-19T10:54:51Z</time>
 </trkpt>
 <trkpt lat="47.230534" lon="13.651926">
 <ele>1280.16</ele>
 <time>2010-09-19T10:54:58Z</time>
 </trkpt>
 <trkpt lat="47.230608" lon="13.651478">
 <ele>1280.00</ele>
 <time>2010-09-19T10:55:03Z</time>
 </trkpt>
 <trkpt lat="47.230671" lon="13.651080">
 <ele>1280.07</ele>
 <time>2010-09-19T10:55:10Z</time>
 </trkpt>
 <trkpt lat="47.230642" lon="13.650569">
 <ele>1280.00</ele>
 <time>2010-09-19T10:55:11Z</time>
 </trkpt>
 <trkpt lat="47.230323" lon="13.650181">
 <ele>1280.00</ele>
 <time>2010-09-19T10:55:17Z</time>
 </trkpt>
 <trkpt lat="47.230160" lon="13.649739">
 <ele>1280.00</ele>
 <time>2010-09-19T10:55:21Z</time>
 </trkpt>
 <trkpt lat="47.230133" lon="13.649360">
 <ele>1280.00</ele>
 <time>2010-09-19T10:55:32Z</time>
 </trkpt>
 <trkpt lat="47.230185" lon="13.649028">
 <ele>1280.00</ele>
 <time>2010-09-19T10:55:38Z</time>
 </trkpt>
 <trkpt lat="47.230361" lon="13.648710">
 <ele>1280.00</ele>
 <time>2010-09-19T10:55:43Z</time>
 </trkpt>
 <trkpt lat="47.230582" lon="13.648358">
 <ele>1280.00</ele>
 <time>2010-09-19T10:55:51Z</time>
 </trkpt>
 <trkpt lat="47.230759" lon="13.648018">
 <ele>1246.75</ele>
 <time>2010-09-19T10:55:58Z</time>
 </trkpt>
 <trkpt lat="47.230892" lon="13.647914">
 <ele>1246.84</ele>
 <time>2010-09-19T10:56:02Z</time>
 </trkpt>
 <trkpt lat="47.230713" lon="13.647975">
 <ele>1281.57</ele>
 <time>2010-09-19T10:56:09Z</time>
 </trkpt>
 <trkpt lat="47.230744" lon="13.647792">
 <ele>1283.48</ele>
 <time>2010-09-19T10:56:15Z</time>
 </trkpt>
 <trkpt lat="47.230775" lon="13.647494">
 <ele>1288.51</ele>
 <time>2010-09-19T10:56:22Z</time>
 </trkpt>
 <trkpt lat="47.231341" lon="13.646949">
 <ele>1291.33</ele>
 <time>2010-09-19T10:56:29Z</time>
 </trkpt>
 <trkpt lat="47.231655" lon="13.646739">
 <ele>1251.60</ele>
 <time>2010-09-19T10:56:35Z</time>
 </trkpt>
 <trkpt lat="47.231789" lon="13.646673">
 <ele>1252.87</ele>
 <time>2010-09-19T10:56:40Z</time>
 </trkpt>
 <trkpt lat="47.231987" lon="13.646623">
 <ele>1253.53</ele>
 <time>2010-09-19T10:56:46Z</time>
 </trkpt>
 <trkpt lat="47.232155" lon="13.646623">
 <ele>1254.21</ele>
 <time>2010-09-19T10:56:51Z</time>
 </trkpt>
 <trkpt lat="47.232307" lon="13.646640">
 <ele>1254.95</ele>
 <time>2010-09-19T10:56:56Z</time>
 </trkpt>
 <trkpt lat="47.232426" lon="13.646572">
 <ele>1255.32</ele>
 <time>2010-09-19T10:57:00Z</time>
 </trkpt>
 <trkpt lat="47.232510" lon="13.646356">
 <ele>1254.47</ele>
 <time>2010-09-19T10:57:05Z</time>
 </trkpt>
 <trkpt lat="47.232571" lon="13.646130">
 <ele>1253.95</ele>
 <time>2010-09-19T10:57:10Z</time>
 </trkpt>
 <trkpt lat="47.232677" lon="13.645815">
 <ele>1253.89</ele>
 <time>2010-09-19T10:57:16Z</time>
 </trkpt>
 <trkpt lat="47.232738" lon="13.645750">
 <ele>1253.69</ele>
 <time>2010-09-19T10:57:18Z</time>
 </trkpt>
 <trkpt lat="47.232868" lon="13.645669">
 <ele>1252.83</ele>
 <time>2010-09-19T10:57:21Z</time>
 </trkpt>
 <trkpt lat="47.233162" lon="13.645340">
 <ele>1252.01</ele>
 <time>2010-09-19T10:57:29Z</time>
 </trkpt>
 <trkpt lat="47.233337" lon="13.644989">
 <ele>1252.61</ele>
 <time>2010-09-19T10:57:36Z</time>
 </trkpt>
 <trkpt lat="47.233452" lon="13.644727">
 <ele>1252.63</ele>
 <time>2010-09-19T10:57:41Z</time>
 </trkpt>
 <trkpt lat="47.233631" lon="13.644207">
 <ele>1253.69</ele>
 <time>2010-09-19T10:57:51Z</time>
 </trkpt>
 <trkpt lat="47.233826" lon="13.643823">
 <ele>1254.49</ele>
 <time>2010-09-19T10:58:00Z</time>
 </trkpt>
 <trkpt lat="47.234123" lon="13.643248">
 <ele>1257.19</ele>
 <time>2010-09-19T10:58:14Z</time>
 </trkpt>
 <trkpt lat="47.234310" lon="13.642950">
 <ele>1257.46</ele>
 <time>2010-09-19T10:58:22Z</time>
 </trkpt>
 <trkpt lat="47.234482" lon="13.642614">
 <ele>1258.28</ele>
 <time>2010-09-19T10:58:30Z</time>
 </trkpt>
 <trkpt lat="47.234642" lon="13.642162">
 <ele>1259.32</ele>
 <time>2010-09-19T10:58:40Z</time>
 </trkpt>
 <trkpt lat="47.234814" lon="13.641672">
 <ele>1260.06</ele>
 <time>2010-09-19T10:58:50Z</time>
 </trkpt>
 <trkpt lat="47.234936" lon="13.641345">
 <ele>1260.90</ele>
 <time>2010-09-19T10:58:57Z</time>
 </trkpt>
 <trkpt lat="47.235027" lon="13.640963">
 <ele>1262.13</ele>
 <time>2010-09-19T10:59:05Z</time>
 </trkpt>
 <trkpt lat="47.235039" lon="13.640556">
 <ele>1261.90</ele>
 <time>2010-09-19T10:59:13Z</time>
 </trkpt>
 <trkpt lat="47.235130" lon="13.640322">
 <ele>1262.64</ele>
 <time>2010-09-19T10:59:19Z</time>
 </trkpt>
 <trkpt lat="47.235249" lon="13.639986">
 <ele>1262.95</ele>
 <time>2010-09-19T10:59:27Z</time>
 </trkpt>
 <trkpt lat="47.235336" lon="13.639649">
 <ele>1264.94</ele>
 <time>2010-09-19T10:59:35Z</time>
 </trkpt>
 <trkpt lat="47.235477" lon="13.639374">
 <ele>1266.21</ele>
 <time>2010-09-19T10:59:43Z</time>
 </trkpt>
 <trkpt lat="47.235668" lon="13.639166">
 <ele>1267.22</ele>
 <time>2010-09-19T10:59:51Z</time>
 </trkpt>
 <trkpt lat="47.235840" lon="13.639001">
 <ele>1268.15</ele>
 <time>2010-09-19T10:59:58Z</time>
 </trkpt>
 <trkpt lat="47.236046" lon="13.638809">
 <ele>1268.32</ele>
 <time>2010-09-19T11:00:06Z</time>
 </trkpt>
 <trkpt lat="47.236145" lon="13.638566">
 <ele>1268.87</ele>
 <time>2010-09-19T11:00:12Z</time>
 </trkpt>
 <trkpt lat="47.236198" lon="13.638226">
 <ele>1269.63</ele>
 <time>2010-09-19T11:00:20Z</time>
 </trkpt>
 <trkpt lat="47.236225" lon="13.637858">
 <ele>1270.42</ele>
 <time>2010-09-19T11:00:28Z</time>
 </trkpt>
 <trkpt lat="47.236279" lon="13.637574">
 <ele>1271.21</ele>
 <time>2010-09-19T11:00:35Z</time>
 </trkpt>
 <trkpt lat="47.236351" lon="13.637369">
 <ele>1272.59</ele>
 <time>2010-09-19T11:00:42Z</time>
 </trkpt>
 <trkpt lat="47.236423" lon="13.637254">
 <ele>1273.17</ele>
 <time>2010-09-19T11:00:48Z</time>
 </trkpt>
 <trkpt lat="47.236507" lon="13.637143">
 <ele>1273.93</ele>
 <time>2010-09-19T11:00:53Z</time>
 </trkpt>
 <trkpt lat="47.236626" lon="13.636906">
 <ele>1274.98</ele>
 <time>2010-09-19T11:01:00Z</time>
 </trkpt>
 <trkpt lat="47.236675" lon="13.636661">
 <ele>1275.60</ele>
 <time>2010-09-19T11:01:06Z</time>
 </trkpt>
 <trkpt lat="47.236774" lon="13.636295">
 <ele>1275.91</ele>
 <time>2010-09-19T11:01:14Z</time>
 </trkpt>
 <trkpt lat="47.236874" lon="13.636015">
 <ele>1275.69</ele>
 <time>2010-09-19T11:01:21Z</time>
 </trkpt>
 <trkpt lat="47.236969" lon="13.635792">
 <ele>1277.55</ele>
 <time>2010-09-19T11:01:28Z</time>
 </trkpt>
 <trkpt lat="47.237095" lon="13.635593">
 <ele>1278.83</ele>
 <time>2010-09-19T11:01:37Z</time>
 </trkpt>
 <trkpt lat="47.237213" lon="13.635466">
 <ele>1280.00</ele>
 <time>2010-09-19T11:01:44Z</time>
 </trkpt>
 <trkpt lat="47.237305" lon="13.635322">
 <ele>1280.86</ele>
 <time>2010-09-19T11:01:51Z</time>
 </trkpt>
 <trkpt lat="47.237431" lon="13.635050">
 <ele>1283.22</ele>
 <time>2010-09-19T11:02:02Z</time>
 </trkpt>
 <trkpt lat="47.237450" lon="13.634973">
 <ele>1283.88</ele>
 <time>2010-09-19T11:02:05Z</time>
 </trkpt>
 <trkpt lat="47.237545" lon="13.634749">
 <ele>1284.56</ele>
 <time>2010-09-19T11:02:13Z</time>
 </trkpt>
 <trkpt lat="47.237667" lon="13.634470">
 <ele>1284.14</ele>
 <time>2010-09-19T11:02:20Z</time>
 </trkpt>
 <trkpt lat="47.237743" lon="13.634205">
 <ele>1282.16</ele>
 <time>2010-09-19T11:02:24Z</time>
 </trkpt>
 <trkpt lat="47.237907" lon="13.633848">
 <ele>1282.00</ele>
 <time>2010-09-19T11:02:31Z</time>
 </trkpt>
 <trkpt lat="47.238014" lon="13.633616">
 <ele>1283.18</ele>
 <time>2010-09-19T11:02:38Z</time>
 </trkpt>
 <trkpt lat="47.238060" lon="13.633343">
 <ele>1282.92</ele>
 <time>2010-09-19T11:02:45Z</time>
 </trkpt>
 <trkpt lat="47.238079" lon="13.632989">
 <ele>1283.30</ele>
 <time>2010-09-19T11:02:53Z</time>
 </trkpt>
 <trkpt lat="47.238174" lon="13.632680">
 <ele>1283.71</ele>
 <time>2010-09-19T11:03:01Z</time>
 </trkpt>
 <trkpt lat="47.238338" lon="13.632433">
 <ele>1284.29</ele>
 <time>2010-09-19T11:03:09Z</time>
 </trkpt>
 <trkpt lat="47.238537" lon="13.632103">
 <ele>1285.41</ele>
 <time>2010-09-19T11:03:19Z</time>
 </trkpt>
 <trkpt lat="47.238689" lon="13.631773">
 <ele>1285.99</ele>
 <time>2010-09-19T11:03:28Z</time>
 </trkpt>
 <trkpt lat="47.238770" lon="13.631488">
 <ele>1286.56</ele>
 <time>2010-09-19T11:03:35Z</time>
 </trkpt>
 <trkpt lat="47.238853" lon="13.631125">
 <ele>1287.25</ele>
 <time>2010-09-19T11:03:44Z</time>
 </trkpt>
 <trkpt lat="47.238911" lon="13.630682">
 <ele>1289.01</ele>
 <time>2010-09-19T11:03:54Z</time>
 </trkpt>
 <trkpt lat="47.238956" lon="13.630348">
 <ele>1289.43</ele>
 <time>2010-09-19T11:04:02Z</time>
 </trkpt>
 <trkpt lat="47.239044" lon="13.630092">
 <ele>1289.86</ele>
 <time>2010-09-19T11:04:09Z</time>
 </trkpt>
 <trkpt lat="47.239178" lon="13.629916">
 <ele>1290.69</ele>
 <time>2010-09-19T11:04:16Z</time>
 </trkpt>
 <trkpt lat="47.239311" lon="13.629747">
 <ele>1292.56</ele>
 <time>2010-09-19T11:04:23Z</time>
 </trkpt>
 <trkpt lat="47.239422" lon="13.629419">
 <ele>1293.14</ele>
 <time>2010-09-19T11:04:32Z</time>
 </trkpt>
 <trkpt lat="47.239468" lon="13.629090">
 <ele>1293.70</ele>
 <time>2010-09-19T11:04:40Z</time>
 </trkpt>
 <trkpt lat="47.239498" lon="13.628857">
 <ele>1294.89</ele>
 <time>2010-09-19T11:04:47Z</time>
 </trkpt>
 <trkpt lat="47.239597" lon="13.628652">
 <ele>1295.99</ele>
 <time>2010-09-19T11:04:54Z</time>
 </trkpt>
 <trkpt lat="47.239723" lon="13.628537">
 <ele>1296.35</ele>
 <time>2010-09-19T11:05:00Z</time>
 </trkpt>
 <trkpt lat="47.239883" lon="13.628476">
 <ele>1297.95</ele>
 <time>2010-09-19T11:05:07Z</time>
 </trkpt>
 <trkpt lat="47.240032" lon="13.628450">
 <ele>1299.00</ele>
 <time>2010-09-19T11:05:14Z</time>
 </trkpt>
 <trkpt lat="47.240131" lon="13.628502">
 <ele>1299.26</ele>
 <time>2010-09-19T11:05:20Z</time>
 </trkpt>
 <trkpt lat="47.240200" lon="13.628541">
 <ele>1299.61</ele>
 <time>2010-09-19T11:05:26Z</time>
 </trkpt>
 <trkpt lat="47.240208" lon="13.628539">
 <ele>1300.05</ele>
 <time>2010-09-19T11:05:28Z</time>
 </trkpt>
 <trkpt lat="47.240246" lon="13.628572">
 <ele>1300.31</ele>
 <time>2010-09-19T11:05:39Z</time>
 </trkpt>
 <trkpt lat="47.240349" lon="13.628606">
 <ele>1302.05</ele>
 <time>2010-09-19T11:05:47Z</time>
 </trkpt>
 <trkpt lat="47.240349" lon="13.628607">
 <ele>1302.13</ele>
 <time>2010-09-19T11:05:48Z</time>
 </trkpt>
 <trkpt lat="47.240322" lon="13.628625">
 <ele>1302.27</ele>
 <time>2010-09-19T11:06:15Z</time>
 </trkpt>
 <trkpt lat="47.240295" lon="13.628618">
 <ele>1301.51</ele>
 <time>2010-09-19T11:06:22Z</time>
 </trkpt>
 <trkpt lat="47.240215" lon="13.628534">
 <ele>1300.94</ele>
 <time>2010-09-19T11:06:32Z</time>
 </trkpt>
 <trkpt lat="47.240219" lon="13.628532">
 <ele>1300.64</ele>
 <time>2010-09-19T11:06:33Z</time>
 </trkpt>
 <trkpt lat="47.240215" lon="13.628475">
 <ele>1300.98</ele>
 <time>2010-09-19T11:06:51Z</time>
 </trkpt>
 <trkpt lat="47.240215" lon="13.628472">
 <ele>1300.96</ele>
 <time>2010-09-19T11:06:52Z</time>
 </trkpt>
 <trkpt lat="47.240215" lon="13.628471">
 <ele>1300.98</ele>
 <time>2010-09-19T11:06:53Z</time>
 </trkpt>
 <trkpt lat="47.240147" lon="13.628423">
 <ele>1300.71</ele>
 <time>2010-09-19T11:06:59Z</time>
 </trkpt>
 <trkpt lat="47.240074" lon="13.628406">
 <ele>1300.21</ele>
 <time>2010-09-19T11:07:04Z</time>
 </trkpt>
 <trkpt lat="47.240002" lon="13.628395">
 <ele>1299.81</ele>
 <time>2010-09-19T11:07:11Z</time>
 </trkpt>
 <trkpt lat="47.239967" lon="13.628398">
 <ele>1300.02</ele>
 <time>2010-09-19T11:07:20Z</time>
 </trkpt>
 <trkpt lat="47.239819" lon="13.628440">
 <ele>1299.51</ele>
 <time>2010-09-19T11:07:34Z</time>
 </trkpt>
 <trkpt lat="47.239815" lon="13.628441">
 <ele>1299.62</ele>
 <time>2010-09-19T11:07:36Z</time>
 </trkpt>
 <trkpt lat="47.239742" lon="13.628493">
 <ele>1299.00</ele>
 <time>2010-09-19T11:07:47Z</time>
 </trkpt>
 <trkpt lat="47.239601" lon="13.628613">
 <ele>1297.92</ele>
 <time>2010-09-19T11:07:54Z</time>
 </trkpt>
 <trkpt lat="47.239574" lon="13.628644">
 <ele>1298.35</ele>
 <time>2010-09-19T11:07:58Z</time>
 </trkpt>
 <trkpt lat="47.239487" lon="13.628901">
 <ele>1298.49</ele>
 <time>2010-09-19T11:09:17Z</time>
 </trkpt>
 <trkpt lat="47.239456" lon="13.629037">
 <ele>1298.12</ele>
 <time>2010-09-19T11:09:22Z</time>
 </trkpt>
 <trkpt lat="47.239418" lon="13.629321">
 <ele>1296.89</ele>
 <time>2010-09-19T11:09:29Z</time>
 </trkpt>
 <trkpt lat="47.239311" lon="13.629690">
 <ele>1296.48</ele>
 <time>2010-09-19T11:09:37Z</time>
 </trkpt>
 <trkpt lat="47.239178" lon="13.629902">
 <ele>1295.82</ele>
 <time>2010-09-19T11:09:43Z</time>
 </trkpt>
 <trkpt lat="47.239010" lon="13.630115">
 <ele>1293.97</ele>
 <time>2010-09-19T11:09:50Z</time>
 </trkpt>
 <trkpt lat="47.238926" lon="13.630421">
 <ele>1293.25</ele>
 <time>2010-09-19T11:09:56Z</time>
 </trkpt>
 <trkpt lat="47.238899" lon="13.630665">
 <ele>1292.70</ele>
 <time>2010-09-19T11:10:00Z</time>
 </trkpt>
 <trkpt lat="47.238888" lon="13.630863">
 <ele>1292.17</ele>
 <time>2010-09-19T11:10:03Z</time>
 </trkpt>
 <trkpt lat="47.238811" lon="13.631301">
 <ele>1291.90</ele>
 <time>2010-09-19T11:10:10Z</time>
 </trkpt>
 <trkpt lat="47.238689" lon="13.631741">
 <ele>1290.92</ele>
 <time>2010-09-19T11:10:17Z</time>
 </trkpt>
 <trkpt lat="47.238392" lon="13.632328">
 <ele>1290.54</ele>
 <time>2010-09-19T11:10:27Z</time>
 </trkpt>
 <trkpt lat="47.238197" lon="13.632622">
 <ele>1290.17</ele>
 <time>2010-09-19T11:10:33Z</time>
 </trkpt>
 <trkpt lat="47.238102" lon="13.632841">
 <ele>1290.07</ele>
 <time>2010-09-19T11:10:37Z</time>
 </trkpt>
 <trkpt lat="47.238045" lon="13.633137">
 <ele>1289.56</ele>
 <time>2010-09-19T11:10:42Z</time>
 </trkpt>
 <trkpt lat="47.238045" lon="13.633258">
 <ele>1289.67</ele>
 <time>2010-09-19T11:10:44Z</time>
 </trkpt>
 <trkpt lat="47.237980" lon="13.633637">
 <ele>1289.54</ele>
 <time>2010-09-19T11:10:51Z</time>
 </trkpt>
 <trkpt lat="47.237881" lon="13.633847">
 <ele>1289.36</ele>
 <time>2010-09-19T11:10:55Z</time>
 </trkpt>
 <trkpt lat="47.237705" lon="13.634282">
 <ele>1288.69</ele>
 <time>2010-09-19T11:11:03Z</time>
 </trkpt>
 <trkpt lat="47.237610" lon="13.634555">
 <ele>1289.99</ele>
 <time>2010-09-19T11:11:09Z</time>
 </trkpt>
 <trkpt lat="47.237492" lon="13.634779">
 <ele>1291.01</ele>
 <time>2010-09-19T11:11:16Z</time>
 </trkpt>
 <trkpt lat="47.237480" lon="13.634785">
 <ele>1291.76</ele>
 <time>2010-09-19T11:11:19Z</time>
 </trkpt>
 <trkpt lat="47.237419" lon="13.634938">
 <ele>1291.75</ele>
 <time>2010-09-19T11:12:15Z</time>
 </trkpt>
 <trkpt lat="47.237362" lon="13.635134">
 <ele>1290.60</ele>
 <time>2010-09-19T11:12:22Z</time>
 </trkpt>
 <trkpt lat="47.237282" lon="13.635325">
 <ele>1288.41</ele>
 <time>2010-09-19T11:12:29Z</time>
 </trkpt>
 <trkpt lat="47.237152" lon="13.635483">
 <ele>1287.16</ele>
 <time>2010-09-19T11:12:34Z</time>
 </trkpt>
 <trkpt lat="47.237064" lon="13.635570">
 <ele>1285.88</ele>
 <time>2010-09-19T11:12:37Z</time>
 </trkpt>
 <trkpt lat="47.236942" lon="13.635760">
 <ele>1284.52</ele>
 <time>2010-09-19T11:12:43Z</time>
 </trkpt>
 <trkpt lat="47.236839" lon="13.635982">
 <ele>1283.15</ele>
 <time>2010-09-19T11:12:48Z</time>
 </trkpt>
 <trkpt lat="47.236694" lon="13.636389">
 <ele>1281.74</ele>
 <time>2010-09-19T11:12:55Z</time>
 </trkpt>
 <trkpt lat="47.236629" lon="13.636644">
 <ele>1282.37</ele>
 <time>2010-09-19T11:13:00Z</time>
 </trkpt>
 <trkpt lat="47.236576" lon="13.636870">
 <ele>1282.12</ele>
 <time>2010-09-19T11:13:05Z</time>
 </trkpt>
 <trkpt lat="47.236530" lon="13.637013">
 <ele>1281.53</ele>
 <time>2010-09-19T11:13:10Z</time>
 </trkpt>
 <trkpt lat="47.236465" lon="13.637107">
 <ele>1280.92</ele>
 <time>2010-09-19T11:13:16Z</time>
 </trkpt>
 <trkpt lat="47.236366" lon="13.637138">
 <ele>1280.06</ele>
 <time>2010-09-19T11:13:23Z</time>
 </trkpt>
 <trkpt lat="47.236362" lon="13.637126">
 <ele>1280.07</ele>
 <time>2010-09-19T11:13:25Z</time>
 </trkpt>
 <trkpt lat="47.236301" lon="13.637112">
 <ele>1279.83</ele>
 <time>2010-09-19T11:14:13Z</time>
 </trkpt>
 <trkpt lat="47.236275" lon="13.637086">
 <ele>1279.68</ele>
 <time>2010-09-19T11:14:15Z</time>
 </trkpt>
 <trkpt lat="47.236214" lon="13.637031">
 <ele>1279.46</ele>
 <time>2010-09-19T11:14:20Z</time>
 </trkpt>
 <trkpt lat="47.236134" lon="13.637084">
 <ele>1279.15</ele>
 <time>2010-09-19T11:14:26Z</time>
 </trkpt>
 <trkpt lat="47.236130" lon="13.637093">
 <ele>1279.10</ele>
 <time>2010-09-19T11:14:30Z</time>
 </trkpt>
 <trkpt lat="47.236126" lon="13.637131">
 <ele>1278.92</ele>
 <time>2010-09-19T11:15:08Z</time>
 </trkpt>
 <trkpt lat="47.236126" lon="13.637132">
 <ele>1279.09</ele>
 <time>2010-09-19T11:15:10Z</time>
 </trkpt>
 <trkpt lat="47.236088" lon="13.637138">
 <ele>1279.10</ele>
 <time>2010-09-19T11:15:19Z</time>
 </trkpt>
 <trkpt lat="47.236027" lon="13.637152">
 <ele>1279.18</ele>
 <time>2010-09-19T11:15:39Z</time>
 </trkpt>
 <trkpt lat="47.236092" lon="13.637086">
 <ele>1279.98</ele>
 <time>2010-09-19T11:16:59Z</time>
 </trkpt>
 <trkpt lat="47.236076" lon="13.637091">
 <ele>1280.14</ele>
 <time>2010-09-19T11:17:02Z</time>
 </trkpt>
 <trkpt lat="47.236050" lon="13.637156">
 <ele>1280.49</ele>
 <time>2010-09-19T11:17:16Z</time>
 </trkpt>
 <trkpt lat="47.236038" lon="13.637167">
 <ele>1280.46</ele>
 <time>2010-09-19T11:17:17Z</time>
 </trkpt>
 <trkpt lat="47.235912" lon="13.637240">
 <ele>1280.58</ele>
 <time>2010-09-19T11:17:32Z</time>
 </trkpt>
 <trkpt lat="47.235886" lon="13.637238">
 <ele>1280.89</ele>
 <time>2010-09-19T11:17:35Z</time>
 </trkpt>
 <trkpt lat="47.236031" lon="13.637154">
 <ele>1281.13</ele>
 <time>2010-09-19T11:17:55Z</time>
 </trkpt>
 <trkpt lat="47.236034" lon="13.637157">
 <ele>1281.06</ele>
 <time>2010-09-19T11:17:57Z</time>
 </trkpt>
 <trkpt lat="47.236038" lon="13.637191">
 <ele>1281.00</ele>
 <time>2010-09-19T11:18:05Z</time>
 </trkpt>
 <trkpt lat="47.235970" lon="13.637159">
 <ele>1281.06</ele>
 <time>2010-09-19T11:18:15Z</time>
 </trkpt>
 <trkpt lat="47.236118" lon="13.637054">
 <ele>1280.93</ele>
 <time>2010-09-19T11:18:46Z</time>
 </trkpt>
 <trkpt lat="47.236076" lon="13.637156">
 <ele>1281.76</ele>
 <time>2010-09-19T11:19:30Z</time>
 </trkpt>
 <trkpt lat="47.235977" lon="13.637242">
 <ele>1283.20</ele>
 <time>2010-09-19T11:21:30Z</time>
 </trkpt>
 <trkpt lat="47.235970" lon="13.637244">
 <ele>1283.32</ele>
 <time>2010-09-19T11:21:31Z</time>
 </trkpt>
 <trkpt lat="47.235920" lon="13.637270">
 <ele>1283.57</ele>
 <time>2010-09-19T11:21:41Z</time>
 </trkpt>
 <trkpt lat="47.235886" lon="13.637321">
 <ele>1283.74</ele>
 <time>2010-09-19T11:21:55Z</time>
 </trkpt>
 <trkpt lat="47.235863" lon="13.637356">
 <ele>1283.84</ele>
 <time>2010-09-19T11:21:59Z</time>
 </trkpt>
 <trkpt lat="47.235855" lon="13.637358">
 <ele>1284.37</ele>
 <time>2010-09-19T11:22:06Z</time>
 </trkpt>
 <trkpt lat="47.235867" lon="13.637337">
 <ele>1284.30</ele>
 <time>2010-09-19T11:22:12Z</time>
 </trkpt>
 <trkpt lat="47.235867" lon="13.637383">
 <ele>1284.91</ele>
 <time>2010-09-19T11:22:24Z</time>
 </trkpt>
 <trkpt lat="47.236038" lon="13.637231">
 <ele>1284.93</ele>
 <time>2010-09-19T11:22:40Z</time>
 </trkpt>
 <trkpt lat="47.236088" lon="13.637209">
 <ele>1284.91</ele>
 <time>2010-09-19T11:22:48Z</time>
 </trkpt>
 <trkpt lat="47.236057" lon="13.637222">
 <ele>1285.28</ele>
 <time>2010-09-19T11:22:52Z</time>
 </trkpt>
 <trkpt lat="47.236027" lon="13.637275">
 <ele>1285.41</ele>
 <time>2010-09-19T11:23:19Z</time>
 </trkpt>
 <trkpt lat="47.236019" lon="13.637282">
 <ele>1285.46</ele>
 <time>2010-09-19T11:23:20Z</time>
 </trkpt>
 <trkpt lat="47.236183" lon="13.637065">
 <ele>1285.78</ele>
 <time>2010-09-19T11:23:54Z</time>
 </trkpt>
 <trkpt lat="47.236187" lon="13.637071">
 <ele>1286.15</ele>
 <time>2010-09-19T11:24:00Z</time>
 </trkpt>
 <trkpt lat="47.236095" lon="13.637153">
 <ele>1285.93</ele>
 <time>2010-09-19T11:24:07Z</time>
 </trkpt>
 <trkpt lat="47.236088" lon="13.637220">
 <ele>1286.30</ele>
 <time>2010-09-19T11:24:16Z</time>
 </trkpt>
 <trkpt lat="47.236084" lon="13.637225">
 <ele>1286.43</ele>
 <time>2010-09-19T11:24:17Z</time>
 </trkpt>
 <trkpt lat="47.236042" lon="13.637229">
 <ele>1286.10</ele>
 <time>2010-09-19T11:24:23Z</time>
 </trkpt>
 <trkpt lat="47.235943" lon="13.637285">
 <ele>1286.08</ele>
 <time>2010-09-19T11:24:32Z</time>
 </trkpt>
 <trkpt lat="47.235912" lon="13.637300">
 <ele>1285.96</ele>
 <time>2010-09-19T11:24:38Z</time>
 </trkpt>
 <trkpt lat="47.235893" lon="13.637308">
 <ele>1286.09</ele>
 <time>2010-09-19T11:24:39Z</time>
 </trkpt>
 <trkpt lat="47.235783" lon="13.637357">
 <ele>1285.93</ele>
 <time>2010-09-19T11:24:44Z</time>
 </trkpt>
 <trkpt lat="47.235725" lon="13.637398">
 <ele>1285.97</ele>
 <time>2010-09-19T11:24:48Z</time>
 </trkpt>
 <trkpt lat="47.235893" lon="13.637242">
 <ele>1285.67</ele>
 <time>2010-09-19T11:25:01Z</time>
 </trkpt>
 <trkpt lat="47.235916" lon="13.637219">
 <ele>1285.79</ele>
 <time>2010-09-19T11:25:06Z</time>
 </trkpt>
 <trkpt lat="47.235943" lon="13.637199">
 <ele>1285.71</ele>
 <time>2010-09-19T11:25:11Z</time>
 </trkpt>
 <trkpt lat="47.236000" lon="13.637304">
 <ele>1286.35</ele>
 <time>2010-09-19T11:25:27Z</time>
 </trkpt>
 <trkpt lat="47.235981" lon="13.637357">
 <ele>1286.63</ele>
 <time>2010-09-19T11:25:32Z</time>
 </trkpt>
 <trkpt lat="47.236156" lon="13.637235">
 <ele>1286.65</ele>
 <time>2010-09-19T11:25:44Z</time>
 </trkpt>
 <trkpt lat="47.236099" lon="13.637264">
 <ele>1286.64</ele>
 <time>2010-09-19T11:25:48Z</time>
 </trkpt>
 <trkpt lat="47.236019" lon="13.637308">
 <ele>1286.84</ele>
 <time>2010-09-19T11:25:55Z</time>
 </trkpt>
 <trkpt lat="47.236076" lon="13.637200">
 <ele>1287.04</ele>
 <time>2010-09-19T11:25:59Z</time>
 </trkpt>
 <trkpt lat="47.236031" lon="13.637228">
 <ele>1287.14</ele>
 <time>2010-09-19T11:26:02Z</time>
 </trkpt>
 <trkpt lat="47.236126" lon="13.637125">
 <ele>1287.80</ele>
 <time>2010-09-19T11:26:11Z</time>
 </trkpt>
 <trkpt lat="47.236115" lon="13.637118">
 <ele>1287.62</ele>
 <time>2010-09-19T11:26:12Z</time>
 </trkpt>
 <trkpt lat="47.236118" lon="13.637103">
 <ele>1287.14</ele>
 <time>2010-09-19T11:26:19Z</time>
 </trkpt>
 <trkpt lat="47.236084" lon="13.637076">
 <ele>1286.89</ele>
 <time>2010-09-19T11:26:27Z</time>
 </trkpt>
 <trkpt lat="47.236065" lon="13.637056">
 <ele>1287.15</ele>
 <time>2010-09-19T11:26:31Z</time>
 </trkpt>
 <trkpt lat="47.236061" lon="13.637049">
 <ele>1287.08</ele>
 <time>2010-09-19T11:26:32Z</time>
 </trkpt>
 <trkpt lat="47.236233" lon="13.637112">
 <ele>1287.29</ele>
 <time>2010-09-19T11:26:54Z</time>
 </trkpt>
 <trkpt lat="47.236210" lon="13.637102">
 <ele>1286.47</ele>
 <time>2010-09-19T11:26:58Z</time>
 </trkpt>
 <trkpt lat="47.236126" lon="13.637067">
 <ele>1287.21</ele>
 <time>2010-09-19T11:27:19Z</time>
 </trkpt>
 <trkpt lat="47.236156" lon="13.637040">
 <ele>1287.16</ele>
 <time>2010-09-19T11:27:27Z</time>
 </trkpt>
 <trkpt lat="47.236252" lon="13.637039">
 <ele>1287.38</ele>
 <time>2010-09-19T11:27:33Z</time>
 </trkpt>
 <trkpt lat="47.236340" lon="13.637155">
 <ele>1288.27</ele>
 <time>2010-09-19T11:27:38Z</time>
 </trkpt>
 <trkpt lat="47.236347" lon="13.637188">
 <ele>1288.36</ele>
 <time>2010-09-19T11:27:39Z</time>
 </trkpt>
 <trkpt lat="47.236328" lon="13.637316">
 <ele>1288.44</ele>
 <time>2010-09-19T11:27:43Z</time>
 </trkpt>
 <trkpt lat="47.236244" lon="13.637545">
 <ele>1287.94</ele>
 <time>2010-09-19T11:27:48Z</time>
 </trkpt>
 <trkpt lat="47.236217" lon="13.637681">
 <ele>1287.48</ele>
 <time>2010-09-19T11:27:50Z</time>
 </trkpt>
 <trkpt lat="47.236172" lon="13.638276">
 <ele>1286.17</ele>
 <time>2010-09-19T11:27:58Z</time>
 </trkpt>
 <trkpt lat="47.236156" lon="13.638406">
 <ele>1286.02</ele>
 <time>2010-09-19T11:28:00Z</time>
 </trkpt>
 <trkpt lat="47.236107" lon="13.638589">
 <ele>1285.80</ele>
 <time>2010-09-19T11:28:03Z</time>
 </trkpt>
 <trkpt lat="47.235954" lon="13.638863">
 <ele>1284.76</ele>
 <time>2010-09-19T11:28:08Z</time>
 </trkpt>
 <trkpt lat="47.235836" lon="13.638966">
 <ele>1284.67</ele>
 <time>2010-09-19T11:28:11Z</time>
 </trkpt>
 <trkpt lat="47.235603" lon="13.639183">
 <ele>1283.96</ele>
 <time>2010-09-19T11:28:17Z</time>
 </trkpt>
 <trkpt lat="47.235443" lon="13.639371">
 <ele>1283.29</ele>
 <time>2010-09-19T11:28:22Z</time>
 </trkpt>
 <trkpt lat="47.235332" lon="13.639607">
 <ele>1282.02</ele>
 <time>2010-09-19T11:28:26Z</time>
 </trkpt>
 <trkpt lat="47.235172" lon="13.640154">
 <ele>1280.55</ele>
 <time>2010-09-19T11:28:33Z</time>
 </trkpt>
 <trkpt lat="47.235054" lon="13.640432">
 <ele>1280.01</ele>
 <time>2010-09-19T11:28:37Z</time>
 </trkpt>
 <trkpt lat="47.234993" lon="13.640719">
 <ele>1279.81</ele>
 <time>2010-09-19T11:28:41Z</time>
 </trkpt>
 <trkpt lat="47.234985" lon="13.640960">
 <ele>1279.57</ele>
 <time>2010-09-19T11:28:44Z</time>
 </trkpt>
 <trkpt lat="47.234867" lon="13.641405">
 <ele>1278.46</ele>
 <time>2010-09-19T11:28:50Z</time>
 </trkpt>
 <trkpt lat="47.234756" lon="13.641705">
 <ele>1277.84</ele>
 <time>2010-09-19T11:28:54Z</time>
 </trkpt>
 <trkpt lat="47.234608" lon="13.642145">
 <ele>1277.35</ele>
 <time>2010-09-19T11:29:00Z</time>
 </trkpt>
 <trkpt lat="47.234432" lon="13.642640">
 <ele>1276.92</ele>
 <time>2010-09-19T11:29:07Z</time>
 </trkpt>
 <trkpt lat="47.234074" lon="13.643309">
 <ele>1275.14</ele>
 <time>2010-09-19T11:29:17Z</time>
 </trkpt>
 <trkpt lat="47.233822" lon="13.643801">
 <ele>1274.83</ele>
 <time>2010-09-19T11:29:25Z</time>
 </trkpt>
 <trkpt lat="47.233616" lon="13.644210">
 <ele>1273.81</ele>
 <time>2010-09-19T11:29:32Z</time>
 </trkpt>
 <trkpt lat="47.233459" lon="13.644687">
 <ele>1272.66</ele>
 <time>2010-09-19T11:29:39Z</time>
 </trkpt>
 <trkpt lat="47.233242" lon="13.645198">
 <ele>1271.21</ele>
 <time>2010-09-19T11:29:47Z</time>
 </trkpt>
 <trkpt lat="47.233212" lon="13.645258">
 <ele>1271.29</ele>
 <time>2010-09-19T11:29:48Z</time>
 </trkpt>
 <trkpt lat="47.232956" lon="13.645567">
 <ele>1270.94</ele>
 <time>2010-09-19T11:29:55Z</time>
 </trkpt>
 <trkpt lat="47.232758" lon="13.645705">
 <ele>1272.03</ele>
 <time>2010-09-19T11:30:00Z</time>
 </trkpt>
 <trkpt lat="47.232723" lon="13.645734">
 <ele>1272.41</ele>
 <time>2010-09-19T11:30:01Z</time>
 </trkpt>
 <trkpt lat="47.232624" lon="13.645931">
 <ele>1273.33</ele>
 <time>2010-09-19T11:30:05Z</time>
 </trkpt>
 <trkpt lat="47.232555" lon="13.646285">
 <ele>1273.77</ele>
 <time>2010-09-19T11:30:11Z</time>
 </trkpt>
 <trkpt lat="47.232380" lon="13.646582">
 <ele>1273.44</ele>
 <time>2010-09-19T11:30:17Z</time>
 </trkpt>
 <trkpt lat="47.232265" lon="13.646587">
 <ele>1273.34</ele>
 <time>2010-09-19T11:30:20Z</time>
 </trkpt>
 <trkpt lat="47.231998" lon="13.646590">
 <ele>1272.99</ele>
 <time>2010-09-19T11:30:26Z</time>
 </trkpt>
 <trkpt lat="47.231766" lon="13.646627">
 <ele>1272.23</ele>
 <time>2010-09-19T11:30:31Z</time>
 </trkpt>
 <trkpt lat="47.231537" lon="13.646761">
 <ele>1271.69</ele>
 <time>2010-09-19T11:30:36Z</time>
 </trkpt>
 <trkpt lat="47.231362" lon="13.646816">
 <ele>1300.00</ele>
 <time>2010-09-19T11:30:43Z</time>
 </trkpt>
 <trkpt lat="47.231206" lon="13.646903">
 <ele>1293.21</ele>
 <time>2010-09-19T11:30:46Z</time>
 </trkpt>
 <trkpt lat="47.230994" lon="13.647090">
 <ele>1293.36</ele>
 <time>2010-09-19T11:30:52Z</time>
 </trkpt>
 <trkpt lat="47.230818" lon="13.647441">
 <ele>1288.60</ele>
 <time>2010-09-19T11:30:53Z</time>
 </trkpt>
 <trkpt lat="47.231284" lon="13.646851">
 <ele>1293.14</ele>
 <time>2010-09-19T11:30:57Z</time>
 </trkpt>
 <trkpt lat="47.230778" lon="13.647808">
 <ele>1282.88</ele>
 <time>2010-09-19T11:30:59Z</time>
 </trkpt>
 <trkpt lat="47.230706" lon="13.648338">
 <ele>1280.00</ele>
 <time>2010-09-19T11:31:06Z</time>
 </trkpt>
 <trkpt lat="47.230540" lon="13.648630">
 <ele>1280.00</ele>
 <time>2010-09-19T11:31:12Z</time>
 </trkpt>
 <trkpt lat="47.230374" lon="13.648881">
 <ele>1280.00</ele>
 <time>2010-09-19T11:31:18Z</time>
 </trkpt>
 <trkpt lat="47.230263" lon="13.649049">
 <ele>1280.00</ele>
 <time>2010-09-19T11:31:24Z</time>
 </trkpt>
 <trkpt lat="47.230255" lon="13.649314">
 <ele>1280.00</ele>
 <time>2010-09-19T11:31:30Z</time>
 </trkpt>
 <trkpt lat="47.230259" lon="13.649627">
 <ele>1280.00</ele>
 <time>2010-09-19T11:31:34Z</time>
 </trkpt>
 <trkpt lat="47.230388" lon="13.650070">
 <ele>1280.00</ele>
 <time>2010-09-19T11:31:38Z</time>
 </trkpt>
 <trkpt lat="47.230696" lon="13.650409">
 <ele>1280.00</ele>
 <time>2010-09-19T11:31:43Z</time>
 </trkpt>
 <trkpt lat="47.230771" lon="13.651051">
 <ele>1280.15</ele>
 <time>2010-09-19T11:31:51Z</time>
 </trkpt>
 <trkpt lat="47.230633" lon="13.651748">
 <ele>1280.25</ele>
 <time>2010-09-19T11:31:58Z</time>
 </trkpt>
 <trkpt lat="47.230505" lon="13.652379">
 <ele>1280.08</ele>
 <time>2010-09-19T11:32:05Z</time>
 </trkpt>
 <trkpt lat="47.230342" lon="13.652862">
 <ele>1280.02</ele>
 <time>2010-09-19T11:32:13Z</time>
 </trkpt>
 <trkpt lat="47.230258" lon="13.653359">
 <ele>1280.00</ele>
 <time>2010-09-19T11:32:20Z</time>
 </trkpt>
 <trkpt lat="47.230206" lon="13.653724">
 <ele>1281.00</ele>
 <time>2010-09-19T11:32:23Z</time>
 </trkpt>
 <trkpt lat="47.230026" lon="13.653712">
 <ele>1280.32</ele>
 <time>2010-09-19T11:32:29Z</time>
 </trkpt>
 <trkpt lat="47.229789" lon="13.653702">
 <ele>1280.15</ele>
 <time>2010-09-19T11:32:34Z</time>
 </trkpt>
 <trkpt lat="47.229677" lon="13.653721">
 <ele>1280.00</ele>
 <time>2010-09-19T11:32:41Z</time>
 </trkpt>
 <trkpt lat="47.229430" lon="13.653760">
 <ele>1280.00</ele>
 <time>2010-09-19T11:32:43Z</time>
 </trkpt>
 <trkpt lat="47.229127" lon="13.653784">
 <ele>1280.00</ele>
 <time>2010-09-19T11:32:46Z</time>
 </trkpt>
 <trkpt lat="47.228880" lon="13.653807">
 <ele>1280.00</ele>
 <time>2010-09-19T11:32:48Z</time>
 </trkpt>
 <trkpt lat="47.228735" lon="13.653910">
 <ele>1280.00</ele>
 <time>2010-09-19T11:32:51Z</time>
 </trkpt>
 <trkpt lat="47.228499" lon="13.653949">
 <ele>1280.00</ele>
 <time>2010-09-19T11:32:59Z</time>
 </trkpt>
 <trkpt lat="47.228297" lon="13.653971">
 <ele>1280.00</ele>
 <time>2010-09-19T11:33:06Z</time>
 </trkpt>
 <trkpt lat="47.228117" lon="13.654025">
 <ele>1280.00</ele>
 <time>2010-09-19T11:33:12Z</time>
 </trkpt>
 <trkpt lat="47.227948" lon="13.654012">
 <ele>1280.00</ele>
 <time>2010-09-19T11:33:18Z</time>
 </trkpt>
 <trkpt lat="47.227758" lon="13.654083">
 <ele>1280.00</ele>
 <time>2010-09-19T11:33:25Z</time>
 </trkpt>
 <trkpt lat="47.227455" lon="13.654220">
 <ele>1280.00</ele>
 <time>2010-09-19T11:33:31Z</time>
 </trkpt>
 <trkpt lat="47.227221" lon="13.654342">
 <ele>1280.00</ele>
 <time>2010-09-19T11:33:36Z</time>
 </trkpt>
 <trkpt lat="47.227075" lon="13.654378">
 <ele>1280.00</ele>
 <time>2010-09-19T11:33:38Z</time>
 </trkpt>
 <trkpt lat="47.226817" lon="13.654451">
 <ele>1280.00</ele>
 <time>2010-09-19T11:33:43Z</time>
 </trkpt>
 <trkpt lat="47.226527" lon="13.654624">
 <ele>1280.00</ele>
 <time>2010-09-19T11:33:49Z</time>
 </trkpt>
 <trkpt lat="47.226147" lon="13.654881">
 <ele>1280.00</ele>
 <time>2010-09-19T11:33:55Z</time>
 </trkpt>
 <trkpt lat="47.225894" lon="13.655350">
 <ele>1280.00</ele>
 <time>2010-09-19T11:33:59Z</time>
 </trkpt>
 <trkpt lat="47.225558" lon="13.655523">
 <ele>1280.00</ele>
 <time>2010-09-19T11:34:06Z</time>
 </trkpt>
 <trkpt lat="47.225402" lon="13.655626">
 <ele>1280.00</ele>
 <time>2010-09-19T11:34:11Z</time>
 </trkpt>
 <trkpt lat="47.225224" lon="13.655763">
 <ele>1280.00</ele>
 <time>2010-09-19T11:34:17Z</time>
 </trkpt>
 <trkpt lat="47.225056" lon="13.655833">
 <ele>1280.00</ele>
 <time>2010-09-19T11:34:21Z</time>
 </trkpt>
 <trkpt lat="47.224843" lon="13.655905">
 <ele>1280.00</ele>
 <time>2010-09-19T11:34:28Z</time>
 </trkpt>
 <trkpt lat="47.224364" lon="13.656280">
 <ele>1280.00</ele>
 <time>2010-09-19T11:34:34Z</time>
 </trkpt>
 <trkpt lat="47.224162" lon="13.656318">
 <ele>1280.00</ele>
 <time>2010-09-19T11:34:38Z</time>
 </trkpt>
 <trkpt lat="47.224027" lon="13.656338">
 <ele>1280.00</ele>
 <time>2010-09-19T11:34:41Z</time>
 </trkpt>
 <trkpt lat="47.223803" lon="13.656426">
 <ele>1280.00</ele>
 <time>2010-09-19T11:34:47Z</time>
 </trkpt>
 <trkpt lat="47.223578" lon="13.656448">
 <ele>1280.00</ele>
 <time>2010-09-19T11:34:52Z</time>
 </trkpt>
 <trkpt lat="47.223601" lon="13.656497">
 <ele>1280.00</ele>
 <time>2010-09-19T11:34:55Z</time>
 </trkpt>
 <trkpt lat="47.223412" lon="13.656667">
 <ele>1280.00</ele>
 <time>2010-09-19T11:35:00Z</time>
 </trkpt>
 <trkpt lat="47.223122" lon="13.656889">
 <ele>1280.00</ele>
 <time>2010-09-19T11:35:06Z</time>
 </trkpt>
 <trkpt lat="47.222978" lon="13.657074">
 <ele>1280.00</ele>
 <time>2010-09-19T11:35:11Z</time>
 </trkpt>
 <trkpt lat="47.222787" lon="13.657079">
 <ele>1280.00</ele>
 <time>2010-09-19T11:35:14Z</time>
 </trkpt>
 <trkpt lat="47.222515" lon="13.656921">
 <ele>1280.00</ele>
 <time>2010-09-19T11:35:22Z</time>
 </trkpt>
 <trkpt lat="47.222305" lon="13.656720">
 <ele>1262.39</ele>
 <time>2010-09-19T11:35:27Z</time>
 </trkpt>
 <trkpt lat="47.221907" lon="13.656870">
 <ele>1280.00</ele>
 <time>2010-09-19T11:35:36Z</time>
 </trkpt>
 <trkpt lat="47.221584" lon="13.657093">
 <ele>1280.00</ele>
 <time>2010-09-19T11:35:43Z</time>
 </trkpt>
 <trkpt lat="47.221283" lon="13.657315">
 <ele>1280.00</ele>
 <time>2010-09-19T11:35:51Z</time>
 </trkpt>
 <trkpt lat="47.221028" lon="13.657619">
 <ele>1280.00</ele>
 <time>2010-09-19T11:35:58Z</time>
 </trkpt>
 <trkpt lat="47.220782" lon="13.657790">
 <ele>1280.00</ele>
 <time>2010-09-19T11:36:02Z</time>
 </trkpt>
 <trkpt lat="47.220547" lon="13.657862">
 <ele>1280.00</ele>
 <time>2010-09-19T11:36:06Z</time>
 </trkpt>
 <trkpt lat="47.220231" lon="13.657771">
 <ele>1280.00</ele>
 <time>2010-09-19T11:36:14Z</time>
 </trkpt>
 <trkpt lat="47.220085" lon="13.657841">
 <ele>1280.00</ele>
 <time>2010-09-19T11:36:15Z</time>
 </trkpt>
 <trkpt lat="47.219724" lon="13.657734">
 <ele>1280.00</ele>
 <time>2010-09-19T11:36:21Z</time>
 </trkpt>
 <trkpt lat="47.219533" lon="13.657772">
 <ele>1280.00</ele>
 <time>2010-09-19T11:36:25Z</time>
 </trkpt>
 <trkpt lat="47.219400" lon="13.657891">
 <ele>1280.00</ele>
 <time>2010-09-19T11:36:26Z</time>
 </trkpt>
 <trkpt lat="47.219463" lon="13.657625">
 <ele>1281.61</ele>
 <time>2010-09-19T11:36:32Z</time>
 </trkpt>
 <trkpt lat="47.219227" lon="13.657344">
 <ele>1264.39</ele>
 <time>2010-09-19T11:36:36Z</time>
 </trkpt>
 <trkpt lat="47.219074" lon="13.657411">
 <ele>1263.69</ele>
 <time>2010-09-19T11:36:42Z</time>
 </trkpt>
 <trkpt lat="47.218826" lon="13.657519">
 <ele>1260.42</ele>
 <time>2010-09-19T11:36:49Z</time>
 </trkpt>
 <trkpt lat="47.218792" lon="13.657534">
 <ele>1260.43</ele>
 <time>2010-09-19T11:36:50Z</time>
 </trkpt>
 <trkpt lat="47.218479" lon="13.657670">
 <ele>1256.96</ele>
 <time>2010-09-19T11:36:56Z</time>
 </trkpt>
 <trkpt lat="47.218266" lon="13.657764">
 <ele>1255.70</ele>
 <time>2010-09-19T11:37:00Z</time>
 </trkpt>
 <trkpt lat="47.218006" lon="13.657876">
 <ele>1255.52</ele>
 <time>2010-09-19T11:37:05Z</time>
 </trkpt>
 <trkpt lat="47.217735" lon="13.657995">
 <ele>1254.62</ele>
 <time>2010-09-19T11:37:10Z</time>
 </trkpt>
 <trkpt lat="47.217659" lon="13.658029">
 <ele>1254.22</ele>
 <time>2010-09-19T11:37:12Z</time>
 </trkpt>
 <trkpt lat="47.217533" lon="13.658083">
 <ele>1253.64</ele>
 <time>2010-09-19T11:37:16Z</time>
 </trkpt>
 <trkpt lat="47.217415" lon="13.658135">
 <ele>1253.84</ele>
 <time>2010-09-19T11:37:22Z</time>
 </trkpt>
 <trkpt lat="47.217197" lon="13.658230">
 <ele>1252.17</ele>
 <time>2010-09-19T11:37:28Z</time>
 </trkpt>
 <trkpt lat="47.217056" lon="13.658291">
 <ele>1250.94</ele>
 <time>2010-09-19T11:37:32Z</time>
 </trkpt>
 <trkpt lat="47.216923" lon="13.658349">
 <ele>1248.85</ele>
 <time>2010-09-19T11:37:37Z</time>
 </trkpt>
 <trkpt lat="47.216747" lon="13.658273">
 <ele>1247.53</ele>
 <time>2010-09-19T11:37:41Z</time>
 </trkpt>
 <trkpt lat="47.216656" lon="13.658158">
 <ele>1245.18</ele>
 <time>2010-09-19T11:37:46Z</time>
 </trkpt>
 <trkpt lat="47.216599" lon="13.658084">
 <ele>1243.30</ele>
 <time>2010-09-19T11:37:51Z</time>
 </trkpt>
 <trkpt lat="47.216526" lon="13.657990">
 <ele>1241.70</ele>
 <time>2010-09-19T11:37:56Z</time>
 </trkpt>
 <trkpt lat="47.216419" lon="13.657854">
 <ele>1239.71</ele>
 <time>2010-09-19T11:38:01Z</time>
 </trkpt>
 <trkpt lat="47.216385" lon="13.657808">
 <ele>1238.52</ele>
 <time>2010-09-19T11:38:03Z</time>
 </trkpt>
 <trkpt lat="47.216286" lon="13.657681">
 <ele>1237.18</ele>
 <time>2010-09-19T11:38:06Z</time>
 </trkpt>
 <trkpt lat="47.216209" lon="13.657583">
 <ele>1235.96</ele>
 <time>2010-09-19T11:38:08Z</time>
 </trkpt>
 <trkpt lat="47.216103" lon="13.657445">
 <ele>1234.83</ele>
 <time>2010-09-19T11:38:11Z</time>
 </trkpt>
 <trkpt lat="47.216000" lon="13.657312">
 <ele>1233.23</ele>
 <time>2010-09-19T11:38:14Z</time>
 </trkpt>
 <trkpt lat="47.215855" lon="13.657125">
 <ele>1231.18</ele>
 <time>2010-09-19T11:38:19Z</time>
 </trkpt>
 <trkpt lat="47.215801" lon="13.657058">
 <ele>1231.00</ele>
 <time>2010-09-19T11:38:23Z</time>
 </trkpt>
 <trkpt lat="47.215782" lon="13.657036">
 <ele>1229.51</ele>
 <time>2010-09-19T11:38:28Z</time>
 </trkpt>
 <trkpt lat="47.215714" lon="13.657030">
 <ele>1228.07</ele>
 <time>2010-09-19T11:38:31Z</time>
 </trkpt>
 <trkpt lat="47.215569" lon="13.657019">
 <ele>1225.77</ele>
 <time>2010-09-19T11:38:35Z</time>
 </trkpt>
 <trkpt lat="47.215343" lon="13.657001">
 <ele>1223.63</ele>
 <time>2010-09-19T11:38:40Z</time>
 </trkpt>
 <trkpt lat="47.215061" lon="13.656978">
 <ele>1221.41</ele>
 <time>2010-09-19T11:38:46Z</time>
 </trkpt>
 <trkpt lat="47.214836" lon="13.656960">
 <ele>1219.64</ele>
 <time>2010-09-19T11:38:51Z</time>
 </trkpt>
 <trkpt lat="47.214699" lon="13.656949">
 <ele>1217.75</ele>
 <time>2010-09-19T11:38:55Z</time>
 </trkpt>
 <trkpt lat="47.214455" lon="13.656930">
 <ele>1215.09</ele>
 <time>2010-09-19T11:39:02Z</time>
 </trkpt>
 <trkpt lat="47.214321" lon="13.656919">
 <ele>1212.79</ele>
 <time>2010-09-19T11:39:07Z</time>
 </trkpt>
 <trkpt lat="47.214302" lon="13.656918">
 <ele>1212.15</ele>
 <time>2010-09-19T11:39:10Z</time>
 </trkpt>
 <trkpt lat="47.214272" lon="13.656915">
 <ele>1211.22</ele>
 <time>2010-09-19T11:39:43Z</time>
 </trkpt>
 <trkpt lat="47.214085" lon="13.656953">
 <ele>1208.79</ele>
 <time>2010-09-19T11:39:50Z</time>
 </trkpt>
 <trkpt lat="47.213921" lon="13.657038">
 <ele>1205.92</ele>
 <time>2010-09-19T11:39:57Z</time>
 </trkpt>
 <trkpt lat="47.213757" lon="13.657122">
 <ele>1203.75</ele>
 <time>2010-09-19T11:40:02Z</time>
 </trkpt>
 <trkpt lat="47.213512" lon="13.657248">
 <ele>1201.24</ele>
 <time>2010-09-19T11:40:08Z</time>
 </trkpt>
 <trkpt lat="47.213322" lon="13.657345">
 <ele>1199.18</ele>
 <time>2010-09-19T11:40:14Z</time>
 </trkpt>
 <trkpt lat="47.213100" lon="13.657459">
 <ele>1195.60</ele>
 <time>2010-09-19T11:40:22Z</time>
 </trkpt>
 <trkpt lat="47.212929" lon="13.657548">
 <ele>1192.88</ele>
 <time>2010-09-19T11:40:29Z</time>
 </trkpt>
 <trkpt lat="47.212822" lon="13.657603">
 <ele>1190.49</ele>
 <time>2010-09-19T11:40:35Z</time>
 </trkpt>
 <trkpt lat="47.212742" lon="13.657644">
 <ele>1189.56</ele>
 <time>2010-09-19T11:40:38Z</time>
 </trkpt>
 <trkpt lat="47.212456" lon="13.657791">
 <ele>1185.11</ele>
 <time>2010-09-19T11:40:45Z</time>
 </trkpt>
 <trkpt lat="47.212173" lon="13.657936">
 <ele>1181.71</ele>
 <time>2010-09-19T11:40:53Z</time>
 </trkpt>
 <trkpt lat="47.212009" lon="13.658020">
 <ele>1180.06</ele>
 <time>2010-09-19T11:40:58Z</time>
 </trkpt>
 <trkpt lat="47.211834" lon="13.658110">
 <ele>1178.24</ele>
 <time>2010-09-19T11:41:03Z</time>
 </trkpt>
 <trkpt lat="47.211601" lon="13.658229">
 <ele>1175.62</ele>
 <time>2010-09-19T11:41:09Z</time>
 </trkpt>
 <trkpt lat="47.211365" lon="13.658352">
 <ele>1172.74</ele>
 <time>2010-09-19T11:41:15Z</time>
 </trkpt>
 <trkpt lat="47.211086" lon="13.658495">
 <ele>1168.74</ele>
 <time>2010-09-19T11:41:23Z</time>
 </trkpt>
 <trkpt lat="47.210777" lon="13.658653">
 <ele>1164.93</ele>
 <time>2010-09-19T11:41:30Z</time>
 </trkpt>
 <trkpt lat="47.210598" lon="13.658746">
 <ele>1162.99</ele>
 <time>2010-09-19T11:41:34Z</time>
 </trkpt>
 <trkpt lat="47.210285" lon="13.658936">
 <ele>1159.80</ele>
 <time>2010-09-19T11:41:41Z</time>
 </trkpt>
 <trkpt lat="47.210091" lon="13.659166">
 <ele>1157.09</ele>
 <time>2010-09-19T11:41:47Z</time>
 </trkpt>
 <trkpt lat="47.209949" lon="13.659333">
 <ele>1154.76</ele>
 <time>2010-09-19T11:41:52Z</time>
 </trkpt>
 <trkpt lat="47.209698" lon="13.659627">
 <ele>1151.30</ele>
 <time>2010-09-19T11:41:59Z</time>
 </trkpt>
 <trkpt lat="47.209587" lon="13.659756">
 <ele>1149.15</ele>
 <time>2010-09-19T11:42:04Z</time>
 </trkpt>
 <trkpt lat="47.209511" lon="13.659846">
 <ele>1147.95</ele>
 <time>2010-09-19T11:42:08Z</time>
 </trkpt>
 <trkpt lat="47.209442" lon="13.659926">
 <ele>1145.98</ele>
 <time>2010-09-19T11:42:14Z</time>
 </trkpt>
 <trkpt lat="47.209358" lon="13.660022">
 <ele>1143.90</ele>
 <time>2010-09-19T11:42:23Z</time>
 </trkpt>
 <trkpt lat="47.209301" lon="13.660090">
 <ele>1143.30</ele>
 <time>2010-09-19T11:42:28Z</time>
 </trkpt>
 <trkpt lat="47.209255" lon="13.660144">
 <ele>1142.79</ele>
 <time>2010-09-19T11:42:32Z</time>
 </trkpt>
 <trkpt lat="47.209514" lon="13.660122">
 <ele>1160.11</ele>
 <time>2010-09-19T11:42:35Z</time>
 </trkpt>
 <trkpt lat="47.209436" lon="13.660256">
 <ele>1160.00</ele>
 <time>2010-09-19T11:43:25Z</time>
 </trkpt>
 <trkpt lat="47.209372" lon="13.660489">
 <ele>1160.00</ele>
 <time>2010-09-19T11:43:27Z</time>
 </trkpt>
 <trkpt lat="47.209286" lon="13.660870">
 <ele>1160.00</ele>
 <time>2010-09-19T11:43:34Z</time>
 </trkpt>
 <trkpt lat="47.209072" lon="13.660876">
 <ele>1160.00</ele>
 <time>2010-09-19T11:43:36Z</time>
 </trkpt>
 <trkpt lat="47.208804" lon="13.661015">
 <ele>1160.00</ele>
 <time>2010-09-19T11:43:44Z</time>
 </trkpt>
 <trkpt lat="47.208488" lon="13.661043">
 <ele>1138.41</ele>
 <time>2010-09-19T11:43:50Z</time>
 </trkpt>
 <trkpt lat="47.208290" lon="13.661275">
 <ele>1136.06</ele>
 <time>2010-09-19T11:43:55Z</time>
 </trkpt>
 <trkpt lat="47.208206" lon="13.661373">
 <ele>1135.40</ele>
 <time>2010-09-19T11:43:57Z</time>
 </trkpt>
 <trkpt lat="47.208027" lon="13.661583">
 <ele>1135.35</ele>
 <time>2010-09-19T11:44:01Z</time>
 </trkpt>
 <trkpt lat="47.207764" lon="13.661891">
 <ele>1135.36</ele>
 <time>2010-09-19T11:44:08Z</time>
 </trkpt>
 <trkpt lat="47.207615" lon="13.662065">
 <ele>1134.68</ele>
 <time>2010-09-19T11:44:12Z</time>
 </trkpt>
 <trkpt lat="47.207314" lon="13.662417">
 <ele>1134.46</ele>
 <time>2010-09-19T11:44:20Z</time>
 </trkpt>
 <trkpt lat="47.207014" lon="13.662793">
 <ele>1160.00</ele>
 <time>2010-09-19T11:44:28Z</time>
 </trkpt>
 <trkpt lat="47.206849" lon="13.663110">
 <ele>1160.00</ele>
 <time>2010-09-19T11:44:35Z</time>
 </trkpt>
 <trkpt lat="47.206760" lon="13.663245">
 <ele>1160.00</ele>
 <time>2010-09-19T11:44:40Z</time>
 </trkpt>
 <trkpt lat="47.206575" lon="13.663778">
 <ele>1160.00</ele>
 <time>2010-09-19T11:44:47Z</time>
 </trkpt>
 <trkpt lat="47.206322" lon="13.664213">
 <ele>1160.00</ele>
 <time>2010-09-19T11:44:54Z</time>
 </trkpt>
 <trkpt lat="47.206294" lon="13.664742">
 <ele>1141.65</ele>
 <time>2010-09-19T11:45:04Z</time>
 </trkpt>
 <trkpt lat="47.206262" lon="13.664842">
 <ele>1140.52</ele>
 <time>2010-09-19T11:45:06Z</time>
 </trkpt>
 <trkpt lat="47.206189" lon="13.665339">
 <ele>1140.65</ele>
 <time>2010-09-19T11:45:12Z</time>
 </trkpt>
 <trkpt lat="47.206069" lon="13.665721">
 <ele>1140.05</ele>
 <time>2010-09-19T11:45:18Z</time>
 </trkpt>
 <trkpt lat="47.205937" lon="13.665939">
 <ele>1140.00</ele>
 <time>2010-09-19T11:45:24Z</time>
 </trkpt>
 <trkpt lat="47.205816" lon="13.666157">
 <ele>1140.00</ele>
 <time>2010-09-19T11:45:28Z</time>
 </trkpt>
 <trkpt lat="47.205695" lon="13.666375">
 <ele>1140.00</ele>
 <time>2010-09-19T11:45:30Z</time>
 </trkpt>
 <trkpt lat="47.205506" lon="13.666610">
 <ele>1142.22</ele>
 <time>2010-09-19T11:45:37Z</time>
 </trkpt>
 <trkpt lat="47.205340" lon="13.666862">
 <ele>1144.48</ele>
 <time>2010-09-19T11:45:42Z</time>
 </trkpt>
 <trkpt lat="47.205141" lon="13.667131">
 <ele>1140.00</ele>
 <time>2010-09-19T11:45:49Z</time>
 </trkpt>
 <trkpt lat="47.204963" lon="13.667301">
 <ele>1142.47</ele>
 <time>2010-09-19T11:45:52Z</time>
 </trkpt>
 <trkpt lat="47.204728" lon="13.667373">
 <ele>1144.97</ele>
 <time>2010-09-19T11:45:56Z</time>
 </trkpt>
 <trkpt lat="47.204561" lon="13.667525">
 <ele>1143.11</ele>
 <time>2010-09-19T11:46:03Z</time>
 </trkpt>
 <trkpt lat="47.204392" lon="13.667546">
 <ele>1147.57</ele>
 <time>2010-09-19T11:46:06Z</time>
 </trkpt>
 <trkpt lat="47.204292" lon="13.667664">
 <ele>1150.30</ele>
 <time>2010-09-19T11:46:10Z</time>
 </trkpt>
 <trkpt lat="47.204092" lon="13.667867">
 <ele>1144.82</ele>
 <time>2010-09-19T11:46:17Z</time>
 </trkpt>
 <trkpt lat="47.203845" lon="13.667890">
 <ele>1145.57</ele>
 <time>2010-09-19T11:46:21Z</time>
 </trkpt>
 <trkpt lat="47.203712" lon="13.668025">
 <ele>1141.57</ele>
 <time>2010-09-19T11:46:27Z</time>
 </trkpt>
 <trkpt lat="47.203611" lon="13.668077">
 <ele>1143.07</ele>
 <time>2010-09-19T11:46:29Z</time>
 </trkpt>
 <trkpt lat="47.203536" lon="13.668426">
 <ele>1140.00</ele>
 <time>2010-09-19T11:46:34Z</time>
 </trkpt>
 <trkpt lat="47.203532" lon="13.669020">
 <ele>1140.00</ele>
 <time>2010-09-19T11:46:40Z</time>
 </trkpt>
 <trkpt lat="47.203333" lon="13.669306">
 <ele>1140.00</ele>
 <time>2010-09-19T11:46:45Z</time>
 </trkpt>
 <trkpt lat="47.203089" lon="13.669609">
 <ele>1140.00</ele>
 <time>2010-09-19T11:46:52Z</time>
 </trkpt>
 <trkpt lat="47.202991" lon="13.669965">
 <ele>1128.05</ele>
 <time>2010-09-19T11:46:59Z</time>
 </trkpt>
 <trkpt lat="47.202755" lon="13.670231">
 <ele>1126.50</ele>
 <time>2010-09-19T11:47:05Z</time>
 </trkpt>
 <trkpt lat="47.202679" lon="13.670313">
 <ele>1125.70</ele>
 <time>2010-09-19T11:47:09Z</time>
 </trkpt>
 <trkpt lat="47.202644" lon="13.670354">
 <ele>1125.13</ele>
 <time>2010-09-19T11:47:13Z</time>
 </trkpt>
 <trkpt lat="47.202644" lon="13.670354">
 <ele>1125.12</ele>
 <time>2010-09-19T11:47:44Z</time>
 </trkpt>
 <trkpt lat="47.202827" lon="13.670149">
 <ele>1125.10</ele>
 <time>2010-09-19T11:47:50Z</time>
 </trkpt>
 <trkpt lat="47.202866" lon="13.670105">
 <ele>1125.13</ele>
 <time>2010-09-19T11:47:55Z</time>
 </trkpt>
 <trkpt lat="47.202866" lon="13.670105">
 <ele>1125.44</ele>
 <time>2010-09-19T11:48:15Z</time>
 </trkpt>
 <trkpt lat="47.202728" lon="13.670261">
 <ele>1125.10</ele>
 <time>2010-09-19T11:48:31Z</time>
 </trkpt>
 <trkpt lat="47.202698" lon="13.670527">
 <ele>1140.00</ele>
 <time>2010-09-19T11:48:36Z</time>
 </trkpt>
 <trkpt lat="47.202587" lon="13.670695">
 <ele>1140.00</ele>
 <time>2010-09-19T11:48:40Z</time>
 </trkpt>
 <trkpt lat="47.202609" lon="13.670645">
 <ele>1140.00</ele>
 <time>2010-09-19T11:48:42Z</time>
 </trkpt>
 <trkpt lat="47.202489" lon="13.670895">
 <ele>1140.00</ele>
 <time>2010-09-19T11:48:46Z</time>
 </trkpt>
 <trkpt lat="47.202447" lon="13.671193">
 <ele>1140.00</ele>
 <time>2010-09-19T11:48:48Z</time>
 </trkpt>
 <trkpt lat="47.202168" lon="13.671415">
 <ele>1140.00</ele>
 <time>2010-09-19T11:48:50Z</time>
 </trkpt>
 <trkpt lat="47.201968" lon="13.671601">
 <ele>1140.00</ele>
 <time>2010-09-19T11:48:56Z</time>
 </trkpt>
 <trkpt lat="47.201763" lon="13.671792">
 <ele>1118.98</ele>
 <time>2010-09-19T11:49:02Z</time>
 </trkpt>
 <trkpt lat="47.201556" lon="13.671942">
 <ele>1140.00</ele>
 <time>2010-09-19T11:49:07Z</time>
 </trkpt>
 <trkpt lat="47.201067" lon="13.672482">
 <ele>1140.00</ele>
 <time>2010-09-19T11:49:14Z</time>
 </trkpt>
 <trkpt lat="47.200849" lon="13.673049">
 <ele>1142.92</ele>
 <time>2010-09-19T11:49:16Z</time>
 </trkpt>
 <trkpt lat="47.200642" lon="13.673615">
 <ele>1140.00</ele>
 <time>2010-09-19T11:49:25Z</time>
 </trkpt>
 <trkpt lat="47.200539" lon="13.674142">
 <ele>1115.76</ele>
 <time>2010-09-19T11:49:35Z</time>
 </trkpt>
 <trkpt lat="47.200272" lon="13.674653">
 <ele>1115.86</ele>
 <time>2010-09-19T11:49:42Z</time>
 </trkpt>
 <trkpt lat="47.199928" lon="13.675313">
 <ele>1116.15</ele>
 <time>2010-09-19T11:49:51Z</time>
 </trkpt>
 <trkpt lat="47.199562" lon="13.676014">
 <ele>1115.64</ele>
 <time>2010-09-19T11:50:00Z</time>
 </trkpt>
 <trkpt lat="47.199188" lon="13.676732">
 <ele>1113.34</ele>
 <time>2010-09-19T11:50:09Z</time>
 </trkpt>
 <trkpt lat="47.198750" lon="13.677306">
 <ele>1112.40</ele>
 <time>2010-09-19T11:50:17Z</time>
 </trkpt>
 <trkpt lat="47.198341" lon="13.677441">
 <ele>1111.84</ele>
 <time>2010-09-19T11:50:23Z</time>
 </trkpt>
 <trkpt lat="47.197800" lon="13.677622">
 <ele>1112.27</ele>
 <time>2010-09-19T11:50:31Z</time>
 </trkpt>
 <trkpt lat="47.197231" lon="13.677811">
 <ele>1113.41</ele>
 <time>2010-09-19T11:50:40Z</time>
 </trkpt>
 <trkpt lat="47.196712" lon="13.677984">
 <ele>1113.03</ele>
 <time>2010-09-19T11:50:48Z</time>
 </trkpt>
 <trkpt lat="47.196171" lon="13.678463">
 <ele>1112.01</ele>
 <time>2010-09-19T11:50:57Z</time>
 </trkpt>
 <trkpt lat="47.195812" lon="13.678938">
 <ele>1111.10</ele>
 <time>2010-09-19T11:51:04Z</time>
 </trkpt>
 <trkpt lat="47.195499" lon="13.679353">
 <ele>1110.24</ele>
 <time>2010-09-19T11:51:10Z</time>
 </trkpt>
 <trkpt lat="47.195126" lon="13.679849">
 <ele>1109.37</ele>
 <time>2010-09-19T11:51:17Z</time>
 </trkpt>
 <trkpt lat="47.194733" lon="13.680358">
 <ele>1109.31</ele>
 <time>2010-09-19T11:51:24Z</time>
 </trkpt>
 <trkpt lat="47.194351" lon="13.680664">
 <ele>1109.64</ele>
 <time>2010-09-19T11:51:30Z</time>
 </trkpt>
 <trkpt lat="47.193859" lon="13.681061">
 <ele>1109.43</ele>
 <time>2010-09-19T11:51:38Z</time>
 </trkpt>
 <trkpt lat="47.193516" lon="13.681339">
 <ele>1110.26</ele>
 <time>2010-09-19T11:51:44Z</time>
 </trkpt>
 <trkpt lat="47.193233" lon="13.681567">
 <ele>1112.49</ele>
 <time>2010-09-19T11:51:50Z</time>
 </trkpt>
 <trkpt lat="47.192837" lon="13.681887">
 <ele>1113.68</ele>
 <time>2010-09-19T11:51:59Z</time>
 </trkpt>
 <trkpt lat="47.192383" lon="13.682250">
 <ele>1113.36</ele>
 <time>2010-09-19T11:52:09Z</time>
 </trkpt>
 <trkpt lat="47.191994" lon="13.682566">
 <ele>1112.47</ele>
 <time>2010-09-19T11:52:17Z</time>
 </trkpt>
 <trkpt lat="47.191525" lon="13.682943">
 <ele>1111.74</ele>
 <time>2010-09-19T11:52:26Z</time>
 </trkpt>
 <trkpt lat="47.191128" lon="13.683263">
 <ele>1111.12</ele>
 <time>2010-09-19T11:52:33Z</time>
 </trkpt>
 <trkpt lat="47.190769" lon="13.683549">
 <ele>1109.12</ele>
 <time>2010-09-19T11:52:39Z</time>
 </trkpt>
 <trkpt lat="47.190517" lon="13.683755">
 <ele>1107.21</ele>
 <time>2010-09-19T11:52:43Z</time>
 </trkpt>
 <trkpt lat="47.189980" lon="13.684187">
 <ele>1105.80</ele>
 <time>2010-09-19T11:52:51Z</time>
 </trkpt>
 <trkpt lat="47.189396" lon="13.684658">
 <ele>1103.58</ele>
 <time>2010-09-19T11:52:59Z</time>
 </trkpt>
 <trkpt lat="47.188637" lon="13.685269">
 <ele>1101.42</ele>
 <time>2010-09-19T11:53:09Z</time>
 </trkpt>
 <trkpt lat="47.187969" lon="13.685805">
 <ele>1100.81</ele>
 <time>2010-09-19T11:53:18Z</time>
 </trkpt>
 <trkpt lat="47.187496" lon="13.686188">
 <ele>1099.93</ele>
 <time>2010-09-19T11:53:25Z</time>
 </trkpt>
 <trkpt lat="47.187138" lon="13.686530">
 <ele>1100.28</ele>
 <time>2010-09-19T11:53:31Z</time>
 </trkpt>
 <trkpt lat="47.186764" lon="13.687007">
 <ele>1100.40</ele>
 <time>2010-09-19T11:53:38Z</time>
 </trkpt>
 <trkpt lat="47.186352" lon="13.687532">
 <ele>1100.54</ele>
 <time>2010-09-19T11:53:46Z</time>
 </trkpt>
 <trkpt lat="47.185932" lon="13.688067">
 <ele>1100.73</ele>
 <time>2010-09-19T11:53:54Z</time>
 </trkpt>
 <trkpt lat="47.185509" lon="13.688608">
 <ele>1100.02</ele>
 <time>2010-09-19T11:54:02Z</time>
 </trkpt>
 <trkpt lat="47.185024" lon="13.689229">
 <ele>1099.68</ele>
 <time>2010-09-19T11:54:11Z</time>
 </trkpt>
 <trkpt lat="47.184521" lon="13.689935">
 <ele>1097.97</ele>
 <time>2010-09-19T11:54:21Z</time>
 </trkpt>
 <trkpt lat="47.184502" lon="13.690022">
 <ele>1097.67</ele>
 <time>2010-09-19T11:54:22Z</time>
 </trkpt>
 <trkpt lat="47.184399" lon="13.690490">
 <ele>1097.70</ele>
 <time>2010-09-19T11:54:27Z</time>
 </trkpt>
 <trkpt lat="47.184216" lon="13.691319">
 <ele>1099.05</ele>
 <time>2010-09-19T11:54:36Z</time>
 </trkpt>
 <trkpt lat="47.184040" lon="13.692108">
 <ele>1099.70</ele>
 <time>2010-09-19T11:54:45Z</time>
 </trkpt>
 <trkpt lat="47.183807" lon="13.693158">
 <ele>1101.04</ele>
 <time>2010-09-19T11:54:57Z</time>
 </trkpt>
 <trkpt lat="47.183636" lon="13.693936">
 <ele>1101.98</ele>
 <time>2010-09-19T11:55:06Z</time>
 </trkpt>
 <trkpt lat="47.183445" lon="13.694801">
 <ele>1101.80</ele>
 <time>2010-09-19T11:55:16Z</time>
 </trkpt>
 <trkpt lat="47.183102" lon="13.695569">
 <ele>1099.95</ele>
 <time>2010-09-19T11:55:25Z</time>
 </trkpt>
 <trkpt lat="47.182888" lon="13.695940">
 <ele>1100.59</ele>
 <time>2010-09-19T11:55:30Z</time>
 </trkpt>
 <trkpt lat="47.182858" lon="13.695995">
 <ele>1100.71</ele>
 <time>2010-09-19T11:55:31Z</time>
 </trkpt>
 <trkpt lat="47.182629" lon="13.696389">
 <ele>1101.39</ele>
 <time>2010-09-19T11:55:38Z</time>
 </trkpt>
 <trkpt lat="47.182377" lon="13.696829">
 <ele>1099.20</ele>
 <time>2010-09-19T11:55:44Z</time>
 </trkpt>
 <trkpt lat="47.182274" lon="13.697006">
 <ele>1098.56</ele>
 <time>2010-09-19T11:55:46Z</time>
 </trkpt>
 <trkpt lat="47.181950" lon="13.697568">
 <ele>1096.15</ele>
 <time>2010-09-19T11:55:52Z</time>
 </trkpt>
 <trkpt lat="47.181492" lon="13.698367">
 <ele>1095.10</ele>
 <time>2010-09-19T11:56:00Z</time>
 </trkpt>
 <trkpt lat="47.181164" lon="13.698651">
 <ele>1094.31</ele>
 <time>2010-09-19T11:56:04Z</time>
 </trkpt>
 <trkpt lat="47.180851" lon="13.698862">
 <ele>1093.63</ele>
 <time>2010-09-19T11:56:08Z</time>
 </trkpt>
 <trkpt lat="47.180775" lon="13.698914">
 <ele>1093.57</ele>
 <time>2010-09-19T11:56:09Z</time>
 </trkpt>
 <trkpt lat="47.180695" lon="13.698965">
 <ele>1093.58</ele>
 <time>2010-09-19T11:56:10Z</time>
 </trkpt>
 <trkpt lat="47.180241" lon="13.699272">
 <ele>1093.43</ele>
 <time>2010-09-19T11:56:16Z</time>
 </trkpt>
 <trkpt lat="47.179813" lon="13.699560">
 <ele>1093.84</ele>
 <time>2010-09-19T11:56:22Z</time>
 </trkpt>
 <trkpt lat="47.179230" lon="13.699983">
 <ele>1094.69</ele>
 <time>2010-09-19T11:56:31Z</time>
 </trkpt>
 <trkpt lat="47.178680" lon="13.700526">
 <ele>1094.90</ele>
 <time>2010-09-19T11:56:40Z</time>
 </trkpt>
 <trkpt lat="47.178074" lon="13.701129">
 <ele>1093.90</ele>
 <time>2010-09-19T11:56:50Z</time>
 </trkpt>
 <trkpt lat="47.177788" lon="13.701413">
 <ele>1093.60</ele>
 <time>2010-09-19T11:56:55Z</time>
 </trkpt>
 <trkpt lat="47.177425" lon="13.701772">
 <ele>1093.74</ele>
 <time>2010-09-19T11:57:02Z</time>
 </trkpt>
 <trkpt lat="47.177132" lon="13.702061">
 <ele>1093.64</ele>
 <time>2010-09-19T11:57:08Z</time>
 </trkpt>
 <trkpt lat="47.176739" lon="13.702738">
 <ele>1094.58</ele>
 <time>2010-09-19T11:57:18Z</time>
 </trkpt>
 <trkpt lat="47.176601" lon="13.703009">
 <ele>1095.24</ele>
 <time>2010-09-19T11:57:23Z</time>
 </trkpt>
 <trkpt lat="47.176525" lon="13.703155">
 <ele>1096.04</ele>
 <time>2010-09-19T11:57:27Z</time>
 </trkpt>
 <trkpt lat="47.176342" lon="13.703512">
 <ele>1095.51</ele>
 <time>2010-09-19T11:57:33Z</time>
 </trkpt>
 <trkpt lat="47.176052" lon="13.704080">
 <ele>1094.55</ele>
 <time>2010-09-19T11:57:41Z</time>
 </trkpt>
 <trkpt lat="47.175777" lon="13.704624">
 <ele>1093.82</ele>
 <time>2010-09-19T11:57:48Z</time>
 </trkpt>
 <trkpt lat="47.175571" lon="13.705026">
 <ele>1093.59</ele>
 <time>2010-09-19T11:57:53Z</time>
 </trkpt>
 <trkpt lat="47.175533" lon="13.705104">
 <ele>1093.59</ele>
 <time>2010-09-19T11:57:54Z</time>
 </trkpt>
 <trkpt lat="47.175308" lon="13.705545">
 <ele>1093.72</ele>
 <time>2010-09-19T11:58:00Z</time>
 </trkpt>
 <trkpt lat="47.175121" lon="13.705906">
 <ele>1093.06</ele>
 <time>2010-09-19T11:58:07Z</time>
 </trkpt>
 <trkpt lat="47.175022" lon="13.706103">
 <ele>1093.20</ele>
 <time>2010-09-19T11:58:12Z</time>
 </trkpt>
 <trkpt lat="47.174854" lon="13.706434">
 <ele>1091.89</ele>
 <time>2010-09-19T11:58:17Z</time>
 </trkpt>
 <trkpt lat="47.174648" lon="13.706840">
 <ele>1090.90</ele>
 <time>2010-09-19T11:58:22Z</time>
 </trkpt>
 <trkpt lat="47.174561" lon="13.707013">
 <ele>1090.85</ele>
 <time>2010-09-19T11:58:24Z</time>
 </trkpt>
 <trkpt lat="47.174240" lon="13.707641">
 <ele>1091.41</ele>
 <time>2010-09-19T11:58:31Z</time>
 </trkpt>
 <trkpt lat="47.174057" lon="13.707849">
 <ele>1091.39</ele>
 <time>2010-09-19T11:58:34Z</time>
 </trkpt>
 <trkpt lat="47.173759" lon="13.708059">
 <ele>1091.51</ele>
 <time>2010-09-19T11:58:38Z</time>
 </trkpt>
 <trkpt lat="47.173122" lon="13.708513">
 <ele>1090.10</ele>
 <time>2010-09-19T11:58:46Z</time>
 </trkpt>
 <trkpt lat="47.172585" lon="13.708897">
 <ele>1090.57</ele>
 <time>2010-09-19T11:58:53Z</time>
 </trkpt>
 <trkpt lat="47.172058" lon="13.709274">
 <ele>1090.91</ele>
 <time>2010-09-19T11:59:00Z</time>
 </trkpt>
 <trkpt lat="47.171688" lon="13.709537">
 <ele>1090.46</ele>
 <time>2010-09-19T11:59:05Z</time>
 </trkpt>
 <trkpt lat="47.170761" lon="13.710197">
 <ele>1090.13</ele>
 <time>2010-09-19T11:59:17Z</time>
 </trkpt>
 <trkpt lat="47.170033" lon="13.710445">
 <ele>1089.98</ele>
 <time>2010-09-19T11:59:26Z</time>
 </trkpt>
 <trkpt lat="47.169621" lon="13.710559">
 <ele>1089.54</ele>
 <time>2010-09-19T11:59:31Z</time>
 </trkpt>
 <trkpt lat="47.168960" lon="13.710564">
 <ele>1100.00</ele>
 <time>2010-09-19T11:59:39Z</time>
 </trkpt>
 <trkpt lat="47.168128" lon="13.710584">
 <ele>1100.00</ele>
 <time>2010-09-19T11:59:50Z</time>
 </trkpt>
 <trkpt lat="47.167408" lon="13.710635">
 <ele>1100.00</ele>
 <time>2010-09-19T12:00:02Z</time>
 </trkpt>
 <trkpt lat="47.166734" lon="13.710684">
 <ele>1100.00</ele>
 <time>2010-09-19T12:00:12Z</time>
 </trkpt>
 <trkpt lat="47.166354" lon="13.710891">
 <ele>1100.00</ele>
 <time>2010-09-19T12:00:19Z</time>
 </trkpt>
 <trkpt lat="47.165565" lon="13.711371">
 <ele>1090.24</ele>
 <time>2010-09-19T12:00:28Z</time>
 </trkpt>
 <trkpt lat="47.164852" lon="13.711470">
 <ele>1089.97</ele>
 <time>2010-09-19T12:00:38Z</time>
 </trkpt>
 <trkpt lat="47.164211" lon="13.711558">
 <ele>1089.98</ele>
 <time>2010-09-19T12:00:47Z</time>
 </trkpt>
 <trkpt lat="47.163712" lon="13.711635">
 <ele>1089.38</ele>
 <time>2010-09-19T12:00:54Z</time>
 </trkpt>
 <trkpt lat="47.163345" lon="13.711881">
 <ele>1090.05</ele>
 <time>2010-09-19T12:01:00Z</time>
 </trkpt>
 <trkpt lat="47.162949" lon="13.712150">
 <ele>1091.14</ele>
 <time>2010-09-19T12:01:07Z</time>
 </trkpt>
 <trkpt lat="47.162567" lon="13.712406">
 <ele>1091.73</ele>
 <time>2010-09-19T12:01:14Z</time>
 </trkpt>
 <trkpt lat="47.162094" lon="13.712723">
 <ele>1091.30</ele>
 <time>2010-09-19T12:01:22Z</time>
 </trkpt>
 <trkpt lat="47.161465" lon="13.713107">
 <ele>1090.32</ele>
 <time>2010-09-19T12:01:32Z</time>
 </trkpt>
 <trkpt lat="47.160942" lon="13.713232">
 <ele>1089.19</ele>
 <time>2010-09-19T12:01:39Z</time>
 </trkpt>
 <trkpt lat="47.160282" lon="13.713371">
 <ele>1088.86</ele>
 <time>2010-09-19T12:01:48Z</time>
 </trkpt>
 <trkpt lat="47.159939" lon="13.713246">
 <ele>1089.61</ele>
 <time>2010-09-19T12:01:53Z</time>
 </trkpt>
 <trkpt lat="47.159451" lon="13.713067">
 <ele>1091.26</ele>
 <time>2010-09-19T12:02:01Z</time>
 </trkpt>
 <trkpt lat="47.158997" lon="13.712901">
 <ele>1092.22</ele>
 <time>2010-09-19T12:02:09Z</time>
 </trkpt>
 <trkpt lat="47.158615" lon="13.712911">
 <ele>1093.40</ele>
 <time>2010-09-19T12:02:16Z</time>
 </trkpt>
 <trkpt lat="47.158249" lon="13.713089">
 <ele>1093.92</ele>
 <time>2010-09-19T12:02:23Z</time>
 </trkpt>
 <trkpt lat="47.157864" lon="13.713275">
 <ele>1094.34</ele>
 <time>2010-09-19T12:02:30Z</time>
 </trkpt>
 <trkpt lat="47.157360" lon="13.713518">
 <ele>1094.02</ele>
 <time>2010-09-19T12:02:39Z</time>
 </trkpt>
 <trkpt lat="47.156998" lon="13.713692">
 <ele>1094.70</ele>
 <time>2010-09-19T12:02:46Z</time>
 </trkpt>
 <trkpt lat="47.156548" lon="13.713910">
 <ele>1095.50</ele>
 <time>2010-09-19T12:02:55Z</time>
 </trkpt>
 <trkpt lat="47.156097" lon="13.714119">
 <ele>1096.96</ele>
 <time>2010-09-19T12:03:04Z</time>
 </trkpt>
 <trkpt lat="47.155750" lon="13.714301">
 <ele>1097.18</ele>
 <time>2010-09-19T12:03:11Z</time>
 </trkpt>
 <trkpt lat="47.155254" lon="13.714592">
 <ele>1097.55</ele>
 <time>2010-09-19T12:03:21Z</time>
 </trkpt>
 <trkpt lat="47.154816" lon="13.714852">
 <ele>1097.31</ele>
 <time>2010-09-19T12:03:29Z</time>
 </trkpt>
 <trkpt lat="47.154293" lon="13.715159">
 <ele>1096.55</ele>
 <time>2010-09-19T12:03:38Z</time>
 </trkpt>
 <trkpt lat="47.153660" lon="13.715533">
 <ele>1096.83</ele>
 <time>2010-09-19T12:03:49Z</time>
 </trkpt>
 <trkpt lat="47.153061" lon="13.715902">
 <ele>1097.30</ele>
 <time>2010-09-19T12:04:00Z</time>
 </trkpt>
 <trkpt lat="47.152473" lon="13.716296">
 <ele>1097.00</ele>
 <time>2010-09-19T12:04:11Z</time>
 </trkpt>
 <trkpt lat="47.152203" lon="13.716475">
 <ele>1095.96</ele>
 <time>2010-09-19T12:04:16Z</time>
 </trkpt>
 <trkpt lat="47.151882" lon="13.716688">
 <ele>1095.28</ele>
 <time>2010-09-19T12:04:23Z</time>
 </trkpt>
 <trkpt lat="47.151707" lon="13.717107">
 <ele>1094.91</ele>
 <time>2010-09-19T12:04:29Z</time>
 </trkpt>
 <trkpt lat="47.151649" lon="13.717529">
 <ele>1093.99</ele>
 <time>2010-09-19T12:04:35Z</time>
 </trkpt>
 <trkpt lat="47.151569" lon="13.718094">
 <ele>1092.87</ele>
 <time>2010-09-19T12:04:41Z</time>
 </trkpt>
 <trkpt lat="47.151455" lon="13.718898">
 <ele>1090.10</ele>
 <time>2010-09-19T12:04:48Z</time>
 </trkpt>
 <trkpt lat="47.151325" lon="13.719637">
 <ele>1088.55</ele>
 <time>2010-09-19T12:04:54Z</time>
 </trkpt>
 <trkpt lat="47.151165" lon="13.720394">
 <ele>1087.18</ele>
 <time>2010-09-19T12:05:00Z</time>
 </trkpt>
 <trkpt lat="47.151001" lon="13.721171">
 <ele>1083.87</ele>
 <time>2010-09-19T12:05:06Z</time>
 </trkpt>
 <trkpt lat="47.150524" lon="13.722071">
 <ele>1080.14</ele>
 <time>2010-09-19T12:05:14Z</time>
 </trkpt>
 <trkpt lat="47.150185" lon="13.722621">
 <ele>1078.15</ele>
 <time>2010-09-19T12:05:19Z</time>
 </trkpt>
 <trkpt lat="47.149731" lon="13.723354">
 <ele>1076.82</ele>
 <time>2010-09-19T12:05:26Z</time>
 </trkpt>
 <trkpt lat="47.149422" lon="13.723857">
 <ele>1076.48</ele>
 <time>2010-09-19T12:05:31Z</time>
 </trkpt>
 <trkpt lat="47.149124" lon="13.724534">
 <ele>1074.83</ele>
 <time>2010-09-19T12:05:37Z</time>
 </trkpt>
 <trkpt lat="47.148994" lon="13.724895">
 <ele>1073.91</ele>
 <time>2010-09-19T12:05:40Z</time>
 </trkpt>
 <trkpt lat="47.148361" lon="13.726875">
 <ele>1071.30</ele>
 <time>2010-09-19T12:05:56Z</time>
 </trkpt>
 <trkpt lat="47.148098" lon="13.727834">
 <ele>1070.19</ele>
 <time>2010-09-19T12:06:04Z</time>
 </trkpt>
 <trkpt lat="47.147945" lon="13.728964">
 <ele>1069.95</ele>
 <time>2010-09-19T12:06:13Z</time>
 </trkpt>
 <trkpt lat="47.147781" lon="13.730201">
 <ele>1069.13</ele>
 <time>2010-09-19T12:06:23Z</time>
 </trkpt>
 <trkpt lat="47.147778" lon="13.731321">
 <ele>1069.24</ele>
 <time>2010-09-19T12:06:32Z</time>
 </trkpt>
 <trkpt lat="47.147850" lon="13.732181">
 <ele>1068.96</ele>
 <time>2010-09-19T12:06:39Z</time>
 </trkpt>
 <trkpt lat="47.147934" lon="13.733152">
 <ele>1068.88</ele>
 <time>2010-09-19T12:06:47Z</time>
 </trkpt>
 <trkpt lat="47.147980" lon="13.733696">
 <ele>1068.84</ele>
 <time>2010-09-19T12:06:52Z</time>
 </trkpt>
 <trkpt lat="47.148014" lon="13.734069">
 <ele>1069.23</ele>
 <time>2010-09-19T12:06:57Z</time>
 </trkpt>
 <trkpt lat="47.148037" lon="13.734343">
 <ele>1069.16</ele>
 <time>2010-09-19T12:07:02Z</time>
 </trkpt>
 <trkpt lat="47.147945" lon="13.734453">
 <ele>1068.70</ele>
 <time>2010-09-19T12:07:04Z</time>
 </trkpt>
 <trkpt lat="47.147507" lon="13.734635">
 <ele>1067.71</ele>
 <time>2010-09-19T12:07:12Z</time>
 </trkpt>
 <trkpt lat="47.147072" lon="13.734817">
 <ele>1067.10</ele>
 <time>2010-09-19T12:07:19Z</time>
 </trkpt>
 <trkpt lat="47.146416" lon="13.735091">
 <ele>1066.29</ele>
 <time>2010-09-19T12:07:29Z</time>
 </trkpt>
 <trkpt lat="47.145802" lon="13.735346">
 <ele>1066.40</ele>
 <time>2010-09-19T12:07:38Z</time>
 </trkpt>
 <trkpt lat="47.144928" lon="13.735712">
 <ele>1064.74</ele>
 <time>2010-09-19T12:07:51Z</time>
 </trkpt>
 <trkpt lat="47.144405" lon="13.735930">
 <ele>1065.18</ele>
 <time>2010-09-19T12:07:59Z</time>
 </trkpt>
 <trkpt lat="47.143616" lon="13.736251">
 <ele>1065.51</ele>
 <time>2010-09-19T12:08:11Z</time>
 </trkpt>
 <trkpt lat="47.142838" lon="13.736535">
 <ele>1065.71</ele>
 <time>2010-09-19T12:08:23Z</time>
 </trkpt>
 <trkpt lat="47.142208" lon="13.736764">
 <ele>1066.59</ele>
 <time>2010-09-19T12:08:33Z</time>
 </trkpt>
 <trkpt lat="47.141537" lon="13.737010">
 <ele>1066.89</ele>
 <time>2010-09-19T12:08:44Z</time>
 </trkpt>
 <trkpt lat="47.141220" lon="13.737127">
 <ele>1066.83</ele>
 <time>2010-09-19T12:08:50Z</time>
 </trkpt>
 <trkpt lat="47.141075" lon="13.737179">
 <ele>1067.23</ele>
 <time>2010-09-19T12:08:55Z</time>
 </trkpt>
 <trkpt lat="47.140991" lon="13.737210">
 <ele>1067.55</ele>
 <time>2010-09-19T12:08:59Z</time>
 </trkpt>
 <trkpt lat="47.140903" lon="13.737301">
 <ele>1067.31</ele>
 <time>2010-09-19T12:09:03Z</time>
 </trkpt>
 <trkpt lat="47.140976" lon="13.737923">
 <ele>1066.41</ele>
 <time>2010-09-19T12:09:11Z</time>
 </trkpt>
 <trkpt lat="47.140930" lon="13.738725">
 <ele>1065.84</ele>
 <time>2010-09-19T12:09:19Z</time>
 </trkpt>
 <trkpt lat="47.140823" lon="13.739687">
 <ele>1065.53</ele>
 <time>2010-09-19T12:09:28Z</time>
 </trkpt>
 <trkpt lat="47.140648" lon="13.740774">
 <ele>1064.52</ele>
 <time>2010-09-19T12:09:38Z</time>
 </trkpt>
 <trkpt lat="47.140465" lon="13.742015">
 <ele>1062.73</ele>
 <time>2010-09-19T12:09:49Z</time>
 </trkpt>
 <trkpt lat="47.140446" lon="13.742855">
 <ele>1063.08</ele>
 <time>2010-09-19T12:09:57Z</time>
 </trkpt>
 <trkpt lat="47.140545" lon="13.743803">
 <ele>1061.94</ele>
 <time>2010-09-19T12:10:06Z</time>
 </trkpt>
 <trkpt lat="47.140656" lon="13.744887">
 <ele>1061.82</ele>
 <time>2010-09-19T12:10:16Z</time>
 </trkpt>
 <trkpt lat="47.140759" lon="13.745880">
 <ele>1062.01</ele>
 <time>2010-09-19T12:10:25Z</time>
 </trkpt>
 <trkpt lat="47.140869" lon="13.746768">
 <ele>1060.90</ele>
 <time>2010-09-19T12:10:33Z</time>
 </trkpt>
 <trkpt lat="47.141026" lon="13.747985">
 <ele>1059.92</ele>
 <time>2010-09-19T12:10:44Z</time>
 </trkpt>
 <trkpt lat="47.141106" lon="13.749018">
 <ele>1060.41</ele>
 <time>2010-09-19T12:10:53Z</time>
 </trkpt>
 <trkpt lat="47.141094" lon="13.749969">
 <ele>1059.47</ele>
 <time>2010-09-19T12:11:01Z</time>
 </trkpt>
 <trkpt lat="47.140930" lon="13.750903">
 <ele>1059.21</ele>
 <time>2010-09-19T12:11:09Z</time>
 </trkpt>
 <trkpt lat="47.140709" lon="13.751809">
 <ele>1058.99</ele>
 <time>2010-09-19T12:11:17Z</time>
 </trkpt>
 <trkpt lat="47.140289" lon="13.752968">
 <ele>1058.57</ele>
 <time>2010-09-19T12:11:28Z</time>
 </trkpt>
 <trkpt lat="47.139793" lon="13.754360">
 <ele>1057.47</ele>
 <time>2010-09-19T12:11:41Z</time>
 </trkpt>
 <trkpt lat="47.139565" lon="13.755378">
 <ele>1057.37</ele>
 <time>2010-09-19T12:11:50Z</time>
 </trkpt>
 <trkpt lat="47.139339" lon="13.756386">
 <ele>1056.27</ele>
 <time>2010-09-19T12:11:59Z</time>
 </trkpt>
 <trkpt lat="47.139187" lon="13.757250">
 <ele>1056.53</ele>
 <time>2010-09-19T12:12:07Z</time>
 </trkpt>
 <trkpt lat="47.139225" lon="13.758246">
 <ele>1055.51</ele>
 <time>2010-09-19T12:12:16Z</time>
 </trkpt>
 <trkpt lat="47.139275" lon="13.759435">
 <ele>1055.84</ele>
 <time>2010-09-19T12:12:27Z</time>
 </trkpt>
 <trkpt lat="47.139305" lon="13.760916">
 <ele>1055.28</ele>
 <time>2010-09-19T12:12:41Z</time>
 </trkpt>
 <trkpt lat="47.139297" lon="13.761794">
 <ele>1056.41</ele>
 <time>2010-09-19T12:12:50Z</time>
 </trkpt>
 <trkpt lat="47.139290" lon="13.762804">
 <ele>1056.90</ele>
 <time>2010-09-19T12:13:01Z</time>
 </trkpt>
 <trkpt lat="47.139290" lon="13.763519">
 <ele>1057.22</ele>
 <time>2010-09-19T12:13:09Z</time>
 </trkpt>
 <trkpt lat="47.139290" lon="13.764060">
 <ele>1057.44</ele>
 <time>2010-09-19T12:13:15Z</time>
 </trkpt>
 <trkpt lat="47.139290" lon="13.764717">
 <ele>1057.88</ele>
 <time>2010-09-19T12:13:22Z</time>
 </trkpt>
 <trkpt lat="47.139381" lon="13.765852">
 <ele>1058.03</ele>
 <time>2010-09-19T12:13:34Z</time>
 </trkpt>
 <trkpt lat="47.139500" lon="13.766875">
 <ele>1058.04</ele>
 <time>2010-09-19T12:13:45Z</time>
 </trkpt>
 <trkpt lat="47.139587" lon="13.767984">
 <ele>1059.70</ele>
 <time>2010-09-19T12:13:57Z</time>
 </trkpt>
 <trkpt lat="47.139587" lon="13.768834">
 <ele>1061.45</ele>
 <time>2010-09-19T12:14:07Z</time>
 </trkpt>
 <trkpt lat="47.139587" lon="13.769393">
 <ele>1062.66</ele>
 <time>2010-09-19T12:14:14Z</time>
 </trkpt>
 <trkpt lat="47.139587" lon="13.770018">
 <ele>1064.33</ele>
 <time>2010-09-19T12:14:22Z</time>
 </trkpt>
 <trkpt lat="47.139587" lon="13.770098">
 <ele>1064.48</ele>
 <time>2010-09-19T12:14:23Z</time>
 </trkpt>
 <trkpt lat="47.139664" lon="13.770795">
 <ele>1066.09</ele>
 <time>2010-09-19T12:14:32Z</time>
 </trkpt>
 <trkpt lat="47.139748" lon="13.771517">
 <ele>1066.71</ele>
 <time>2010-09-19T12:14:41Z</time>
 </trkpt>
 <trkpt lat="47.139828" lon="13.772332">
 <ele>1068.26</ele>
 <time>2010-09-19T12:14:52Z</time>
 </trkpt>
 <trkpt lat="47.139877" lon="13.773095">
 <ele>1069.83</ele>
 <time>2010-09-19T12:15:03Z</time>
 </trkpt>
 <trkpt lat="47.139839" lon="13.773748">
 <ele>1071.16</ele>
 <time>2010-09-19T12:15:13Z</time>
 </trkpt>
 <trkpt lat="47.139805" lon="13.774266">
 <ele>1072.33</ele>
 <time>2010-09-19T12:15:21Z</time>
 </trkpt>
 <trkpt lat="47.139771" lon="13.774762">
 <ele>1073.47</ele>
 <time>2010-09-19T12:15:29Z</time>
 </trkpt>
 <trkpt lat="47.139721" lon="13.775438">
 <ele>1074.65</ele>
 <time>2010-09-19T12:15:40Z</time>
 </trkpt>
 <trkpt lat="47.139687" lon="13.775934">
 <ele>1075.26</ele>
 <time>2010-09-19T12:15:48Z</time>
 </trkpt>
 <trkpt lat="47.139614" lon="13.776662">
 <ele>1076.58</ele>
 <time>2010-09-19T12:16:00Z</time>
 </trkpt>
 <trkpt lat="47.139576" lon="13.777175">
 <ele>1078.14</ele>
 <time>2010-09-19T12:16:09Z</time>
 </trkpt>
 <trkpt lat="47.139496" lon="13.777709">
 <ele>1078.94</ele>
 <time>2010-09-19T12:16:18Z</time>
 </trkpt>
 <trkpt lat="47.139397" lon="13.778250">
 <ele>1079.33</ele>
 <time>2010-09-19T12:16:27Z</time>
 </trkpt>
 <trkpt lat="47.139324" lon="13.778507">
 <ele>1079.47</ele>
 <time>2010-09-19T12:16:31Z</time>
 </trkpt>
 <trkpt lat="47.139130" lon="13.779104">
 <ele>1079.55</ele>
 <time>2010-09-19T12:16:40Z</time>
 </trkpt>
 <trkpt lat="47.138889" lon="13.779811">
 <ele>1078.41</ele>
 <time>2010-09-19T12:16:49Z</time>
 </trkpt>
 <trkpt lat="47.138649" lon="13.780446">
 <ele>1076.87</ele>
 <time>2010-09-19T12:16:56Z</time>
 </trkpt>
 <trkpt lat="47.138321" lon="13.781308">
 <ele>1074.19</ele>
 <time>2010-09-19T12:17:04Z</time>
 </trkpt>
 <trkpt lat="47.138058" lon="13.782199">
 <ele>1070.76</ele>
 <time>2010-09-19T12:17:11Z</time>
 </trkpt>
 <trkpt lat="47.137814" lon="13.783206">
 <ele>1066.38</ele>
 <time>2010-09-19T12:17:18Z</time>
 </trkpt>
 <trkpt lat="47.137497" lon="13.784515">
 <ele>1062.48</ele>
 <time>2010-09-19T12:17:27Z</time>
 </trkpt>
 <trkpt lat="47.137371" lon="13.785579">
 <ele>1059.14</ele>
 <time>2010-09-19T12:17:34Z</time>
 </trkpt>
 <trkpt lat="47.137169" lon="13.786619">
 <ele>1056.30</ele>
 <time>2010-09-19T12:17:41Z</time>
 </trkpt>
 <trkpt lat="47.137028" lon="13.787209">
 <ele>1053.81</ele>
 <time>2010-09-19T12:17:45Z</time>
 </trkpt>
 <trkpt lat="47.136700" lon="13.787922">
 <ele>1051.76</ele>
 <time>2010-09-19T12:17:50Z</time>
 </trkpt>
 <trkpt lat="47.136536" lon="13.788141">
 <ele>1050.95</ele>
 <time>2010-09-19T12:17:52Z</time>
 </trkpt>
 <trkpt lat="47.136162" lon="13.788527">
 <ele>1047.87</ele>
 <time>2010-09-19T12:17:56Z</time>
 </trkpt>
 <trkpt lat="47.135651" lon="13.788828">
 <ele>1044.84</ele>
 <time>2010-09-19T12:18:01Z</time>
 </trkpt>
 <trkpt lat="47.135105" lon="13.788939">
 <ele>1041.77</ele>
 <time>2010-09-19T12:18:06Z</time>
 </trkpt>
 <trkpt lat="47.134441" lon="13.789034">
 <ele>1037.35</ele>
 <time>2010-09-19T12:18:12Z</time>
 </trkpt>
 <trkpt lat="47.134007" lon="13.789197">
 <ele>1034.30</ele>
 <time>2010-09-19T12:18:16Z</time>
 </trkpt>
 <trkpt lat="47.133587" lon="13.789380">
 <ele>1031.57</ele>
 <time>2010-09-19T12:18:20Z</time>
 </trkpt>
 <trkpt lat="47.133343" lon="13.789643">
 <ele>1030.99</ele>
 <time>2010-09-19T12:18:24Z</time>
 </trkpt>
 <trkpt lat="47.133095" lon="13.789912">
 <ele>1028.72</ele>
 <time>2010-09-19T12:18:29Z</time>
 </trkpt>
 <trkpt lat="47.132786" lon="13.790245">
 <ele>1024.84</ele>
 <time>2010-09-19T12:18:34Z</time>
 </trkpt>
 <trkpt lat="47.132526" lon="13.790803">
 <ele>1020.08</ele>
 <time>2010-09-19T12:18:39Z</time>
 </trkpt>
 <trkpt lat="47.132526" lon="13.790803">
 <ele>1019.28</ele>
 <time>2010-09-19T12:18:41Z</time>
 </trkpt>
 <trkpt lat="47.132271" lon="13.791361">
 <ele>1016.96</ele>
 <time>2010-09-19T12:18:46Z</time>
 </trkpt>
 <trkpt lat="47.132092" lon="13.791917">
 <ele>1016.26</ele>
 <time>2010-09-19T12:18:50Z</time>
 </trkpt>
 <trkpt lat="47.132008" lon="13.792168">
 <ele>1016.39</ele>
 <time>2010-09-19T12:18:55Z</time>
 </trkpt>
 <trkpt lat="47.131741" lon="13.792092">
 <ele>1016.53</ele>
 <time>2010-09-19T12:18:58Z</time>
 </trkpt>
 <trkpt lat="47.131588" lon="13.791799">
 <ele>1016.52</ele>
 <time>2010-09-19T12:19:02Z</time>
 </trkpt>
 <trkpt lat="47.131599" lon="13.791474">
 <ele>1015.65</ele>
 <time>2010-09-19T12:19:06Z</time>
 </trkpt>
 <trkpt lat="47.131672" lon="13.790975">
 <ele>1013.31</ele>
 <time>2010-09-19T12:19:12Z</time>
 </trkpt>
 <trkpt lat="47.131672" lon="13.790975">
 <ele>1013.03</ele>
 <time>2010-09-19T12:19:16Z</time>
 </trkpt>
 <trkpt lat="47.131886" lon="13.790696">
 <ele>1013.73</ele>
 <time>2010-09-19T12:19:22Z</time>
 </trkpt>
 <trkpt lat="47.131783" lon="13.790594">
 <ele>1013.99</ele>
 <time>2010-09-19T12:19:26Z</time>
 </trkpt>
 <trkpt lat="47.131695" lon="13.790506">
 <ele>1013.81</ele>
 <time>2010-09-19T12:19:29Z</time>
 </trkpt>
 <trkpt lat="47.131470" lon="13.790309">
 <ele>1013.77</ele>
 <time>2010-09-19T12:19:35Z</time>
 </trkpt>
 <trkpt lat="47.131027" lon="13.789938">
 <ele>1013.03</ele>
 <time>2010-09-19T12:19:44Z</time>
 </trkpt>
 <trkpt lat="47.130489" lon="13.789527">
 <ele>1011.75</ele>
 <time>2010-09-19T12:19:54Z</time>
 </trkpt>
 <trkpt lat="47.130135" lon="13.789298">
 <ele>1011.57</ele>
 <time>2010-09-19T12:20:00Z</time>
 </trkpt>
 <trkpt lat="47.129841" lon="13.789111">
 <ele>1011.13</ele>
 <time>2010-09-19T12:20:05Z</time>
 </trkpt>
 <trkpt lat="47.129604" lon="13.788784">
 <ele>1010.06</ele>
 <time>2010-09-19T12:20:10Z</time>
 </trkpt>
 <trkpt lat="47.129288" lon="13.787842">
 <ele>1008.84</ele>
 <time>2010-09-19T12:20:21Z</time>
 </trkpt>
 <trkpt lat="47.129059" lon="13.786703">
 <ele>1008.87</ele>
 <time>2010-09-19T12:20:34Z</time>
 </trkpt>
 <trkpt lat="47.128922" lon="13.785940">
 <ele>1008.57</ele>
 <time>2010-09-19T12:20:43Z</time>
 </trkpt>
 <trkpt lat="47.128796" lon="13.785011">
 <ele>1009.36</ele>
 <time>2010-09-19T12:20:54Z</time>
 </trkpt>
 <trkpt lat="47.128696" lon="13.784290">
 <ele>1009.20</ele>
 <time>2010-09-19T12:21:03Z</time>
 </trkpt>
 <trkpt lat="47.128567" lon="13.783450">
 <ele>1009.21</ele>
 <time>2010-09-19T12:21:14Z</time>
 </trkpt>
 <trkpt lat="47.128365" lon="13.782645">
 <ele>1009.43</ele>
 <time>2010-09-19T12:21:25Z</time>
 </trkpt>
 <trkpt lat="47.128197" lon="13.781967">
 <ele>1009.66</ele>
 <time>2010-09-19T12:21:34Z</time>
 </trkpt>
 <trkpt lat="47.127949" lon="13.780985">
 <ele>1009.14</ele>
 <time>2010-09-19T12:21:47Z</time>
 </trkpt>
 <trkpt lat="47.127758" lon="13.780217">
 <ele>1009.88</ele>
 <time>2010-09-19T12:21:57Z</time>
 </trkpt>
 <trkpt lat="47.127522" lon="13.779643">
 <ele>1009.95</ele>
 <time>2010-09-19T12:22:05Z</time>
 </trkpt>
 <trkpt lat="47.127235" lon="13.779173">
 <ele>1010.31</ele>
 <time>2010-09-19T12:22:13Z</time>
 </trkpt>
 <trkpt lat="47.126854" lon="13.778546">
 <ele>1011.30</ele>
 <time>2010-09-19T12:22:24Z</time>
 </trkpt>
 <trkpt lat="47.126564" lon="13.778072">
 <ele>1011.23</ele>
 <time>2010-09-19T12:22:32Z</time>
 </trkpt>
 <trkpt lat="47.126167" lon="13.777421">
 <ele>1011.22</ele>
 <time>2010-09-19T12:22:43Z</time>
 </trkpt>
 <trkpt lat="47.125778" lon="13.776783">
 <ele>1011.30</ele>
 <time>2010-09-19T12:22:53Z</time>
 </trkpt>
 <trkpt lat="47.125366" lon="13.776087">
 <ele>1010.55</ele>
 <time>2010-09-19T12:23:04Z</time>
 </trkpt>
 <trkpt lat="47.124992" lon="13.775442">
 <ele>1008.94</ele>
 <time>2010-09-19T12:23:15Z</time>
 </trkpt>
 <trkpt lat="47.124645" lon="13.774850">
 <ele>1009.32</ele>
 <time>2010-09-19T12:23:26Z</time>
 </trkpt>
 <trkpt lat="47.124329" lon="13.774309">
 <ele>1010.67</ele>
 <time>2010-09-19T12:23:36Z</time>
 </trkpt>
 <trkpt lat="47.123909" lon="13.773595">
 <ele>1010.38</ele>
 <time>2010-09-19T12:23:49Z</time>
 </trkpt>
 <trkpt lat="47.123512" lon="13.772946">
 <ele>1011.07</ele>
 <time>2010-09-19T12:24:01Z</time>
 </trkpt>
 <trkpt lat="47.123180" lon="13.772403">
 <ele>1011.18</ele>
 <time>2010-09-19T12:24:11Z</time>
 </trkpt>
 <trkpt lat="47.122845" lon="13.771754">
 <ele>1012.53</ele>
 <time>2010-09-19T12:24:22Z</time>
 </trkpt>
 <trkpt lat="47.122581" lon="13.771047">
 <ele>1012.15</ele>
 <time>2010-09-19T12:24:33Z</time>
 </trkpt>
 <trkpt lat="47.122292" lon="13.770261">
 <ele>1013.17</ele>
 <time>2010-09-19T12:24:45Z</time>
 </trkpt>
 <trkpt lat="47.121998" lon="13.769463">
 <ele>1013.31</ele>
 <time>2010-09-19T12:24:57Z</time>
 </trkpt>
 <trkpt lat="47.121727" lon="13.768728">
 <ele>1013.63</ele>
 <time>2010-09-19T12:25:08Z</time>
 </trkpt>
 <trkpt lat="47.121468" lon="13.768081">
 <ele>1014.87</ele>
 <time>2010-09-19T12:25:18Z</time>
 </trkpt>
 <trkpt lat="47.121155" lon="13.767357">
 <ele>1013.68</ele>
 <time>2010-09-19T12:25:29Z</time>
 </trkpt>
 <trkpt lat="47.120785" lon="13.766503">
 <ele>1013.78</ele>
 <time>2010-09-19T12:25:42Z</time>
 </trkpt>
 <trkpt lat="47.120472" lon="13.765779">
 <ele>1013.04</ele>
 <time>2010-09-19T12:25:53Z</time>
 </trkpt>
 <trkpt lat="47.120258" lon="13.765290">
 <ele>1012.33</ele>
 <time>2010-09-19T12:26:01Z</time>
 </trkpt>
 <trkpt lat="47.119987" lon="13.764630">
 <ele>1013.83</ele>
 <time>2010-09-19T12:26:12Z</time>
 </trkpt>
 <trkpt lat="47.119778" lon="13.764074">
 <ele>1015.53</ele>
 <time>2010-09-19T12:26:22Z</time>
 </trkpt>
 <trkpt lat="47.119530" lon="13.763424">
 <ele>1016.70</ele>
 <time>2010-09-19T12:26:34Z</time>
 </trkpt>
 <trkpt lat="47.119347" lon="13.762940">
 <ele>1015.88</ele>
 <time>2010-09-19T12:26:42Z</time>
 </trkpt>
 <trkpt lat="47.119244" lon="13.762717">
 <ele>1014.74</ele>
 <time>2010-09-19T12:26:45Z</time>
 </trkpt>
 <trkpt lat="47.118881" lon="13.762420">
 <ele>1012.93</ele>
 <time>2010-09-19T12:26:52Z</time>
 </trkpt>
 <trkpt lat="47.118454" lon="13.762071">
 <ele>1012.40</ele>
 <time>2010-09-19T12:27:00Z</time>
 </trkpt>
 <trkpt lat="47.118347" lon="13.761985">
 <ele>1011.85</ele>
 <time>2010-09-19T12:27:02Z</time>
 </trkpt>
 <trkpt lat="47.118294" lon="13.761688">
 <ele>1011.78</ele>
 <time>2010-09-19T12:27:07Z</time>
 </trkpt>
 <trkpt lat="47.118225" lon="13.761100">
 <ele>1012.46</ele>
 <time>2010-09-19T12:27:14Z</time>
 </trkpt>
 <trkpt lat="47.118130" lon="13.760285">
 <ele>1013.13</ele>
 <time>2010-09-19T12:27:24Z</time>
 </trkpt>
 <trkpt lat="47.118019" lon="13.759324">
 <ele>1013.73</ele>
 <time>2010-09-19T12:27:36Z</time>
 </trkpt>
 <trkpt lat="47.117924" lon="13.758502">
 <ele>1014.21</ele>
 <time>2010-09-19T12:27:46Z</time>
 </trkpt>
 <trkpt lat="47.117836" lon="13.757752">
 <ele>1014.79</ele>
 <time>2010-09-19T12:27:55Z</time>
 </trkpt>
 <trkpt lat="47.117687" lon="13.756970">
 <ele>1014.68</ele>
 <time>2010-09-19T12:28:05Z</time>
 </trkpt>
 <trkpt lat="47.117535" lon="13.756275">
 <ele>1014.99</ele>
 <time>2010-09-19T12:28:14Z</time>
 </trkpt>
 <trkpt lat="47.117348" lon="13.755458">
 <ele>1015.35</ele>
 <time>2010-09-19T12:28:24Z</time>
 </trkpt>
 <trkpt lat="47.117161" lon="13.754626">
 <ele>1014.81</ele>
 <time>2010-09-19T12:28:34Z</time>
 </trkpt>
 <trkpt lat="47.116955" lon="13.753710">
 <ele>1014.53</ele>
 <time>2010-09-19T12:28:45Z</time>
 </trkpt>
 <trkpt lat="47.116764" lon="13.752860">
 <ele>1014.59</ele>
 <time>2010-09-19T12:28:55Z</time>
 </trkpt>
 <trkpt lat="47.116554" lon="13.751926">
 <ele>1015.62</ele>
 <time>2010-09-19T12:29:06Z</time>
 </trkpt>
 <trkpt lat="47.116314" lon="13.751153">
 <ele>1016.37</ele>
 <time>2010-09-19T12:29:16Z</time>
 </trkpt>
 <trkpt lat="47.116035" lon="13.750478">
 <ele>1017.93</ele>
 <time>2010-09-19T12:29:26Z</time>
 </trkpt>
 <trkpt lat="47.115723" lon="13.749730">
 <ele>1019.51</ele>
 <time>2010-09-19T12:29:38Z</time>
 </trkpt>
 <trkpt lat="47.115417" lon="13.749000">
 <ele>1021.83</ele>
 <time>2010-09-19T12:29:50Z</time>
 </trkpt>
 <trkpt lat="47.115108" lon="13.748209">
 <ele>1022.10</ele>
 <time>2010-09-19T12:30:03Z</time>
 </trkpt>
 <trkpt lat="47.114895" lon="13.747500">
 <ele>1023.40</ele>
 <time>2010-09-19T12:30:14Z</time>
 </trkpt>
 <trkpt lat="47.114712" lon="13.746889">
 <ele>1022.27</ele>
 <time>2010-09-19T12:30:23Z</time>
 </trkpt>
 <trkpt lat="47.114578" lon="13.746455">
 <ele>1021.97</ele>
 <time>2010-09-19T12:30:29Z</time>
 </trkpt>
 <trkpt lat="47.114487" lon="13.746145">
 <ele>1020.52</ele>
 <time>2010-09-19T12:30:33Z</time>
 </trkpt>
 <trkpt lat="47.114277" lon="13.745446">
 <ele>1018.47</ele>
 <time>2010-09-19T12:30:41Z</time>
 </trkpt>
 <trkpt lat="47.114174" lon="13.745073">
 <ele>1017.58</ele>
 <time>2010-09-19T12:30:45Z</time>
 </trkpt>
 <trkpt lat="47.114124" lon="13.744890">
 <ele>1017.25</ele>
 <time>2010-09-19T12:30:47Z</time>
 </trkpt>
 <trkpt lat="47.114231" lon="13.744298">
 <ele>1016.73</ele>
 <time>2010-09-19T12:30:53Z</time>
 </trkpt>
 <trkpt lat="47.114250" lon="13.744204">
 <ele>1016.45</ele>
 <time>2010-09-19T12:30:54Z</time>
 </trkpt>
 <trkpt lat="47.114441" lon="13.743306">
 <ele>1017.56</ele>
 <time>2010-09-19T12:31:04Z</time>
 </trkpt>
 <trkpt lat="47.114445" lon="13.742778">
 <ele>1017.58</ele>
 <time>2010-09-19T12:31:10Z</time>
 </trkpt>
 <trkpt lat="47.114307" lon="13.742253">
 <ele>1017.76</ele>
 <time>2010-09-19T12:31:17Z</time>
 </trkpt>
 <trkpt lat="47.114105" lon="13.741891">
 <ele>1019.58</ele>
 <time>2010-09-19T12:31:24Z</time>
 </trkpt>
 <trkpt lat="47.113815" lon="13.741563">
 <ele>1018.89</ele>
 <time>2010-09-19T12:31:31Z</time>
 </trkpt>
 <trkpt lat="47.113430" lon="13.741125">
 <ele>1018.20</ele>
 <time>2010-09-19T12:31:40Z</time>
 </trkpt>
 <trkpt lat="47.113235" lon="13.740905">
 <ele>1017.57</ele>
 <time>2010-09-19T12:31:44Z</time>
 </trkpt>
 <trkpt lat="47.112885" lon="13.740504">
 <ele>1018.59</ele>
 <time>2010-09-19T12:31:52Z</time>
 </trkpt>
 <trkpt lat="47.112598" lon="13.739966">
 <ele>1018.52</ele>
 <time>2010-09-19T12:32:01Z</time>
 </trkpt>
 <trkpt lat="47.112568" lon="13.739824">
 <ele>1018.20</ele>
 <time>2010-09-19T12:32:03Z</time>
 </trkpt>
 <trkpt lat="47.112453" lon="13.739294">
 <ele>1017.27</ele>
 <time>2010-09-19T12:32:09Z</time>
 </trkpt>
 <trkpt lat="47.112309" lon="13.738621">
 <ele>1018.50</ele>
 <time>2010-09-19T12:32:17Z</time>
 </trkpt>
 <trkpt lat="47.112144" lon="13.738119">
 <ele>1018.18</ele>
 <time>2010-09-19T12:32:24Z</time>
 </trkpt>
 <trkpt lat="47.111923" lon="13.737623">
 <ele>1017.99</ele>
 <time>2010-09-19T12:32:31Z</time>
 </trkpt>
 <trkpt lat="47.111626" lon="13.736946">
 <ele>1017.97</ele>
 <time>2010-09-19T12:32:40Z</time>
 </trkpt>
 <trkpt lat="47.111366" lon="13.736357">
 <ele>1018.77</ele>
 <time>2010-09-19T12:32:48Z</time>
 </trkpt>
 <trkpt lat="47.111103" lon="13.735574">
 <ele>1019.50</ele>
 <time>2010-09-19T12:32:58Z</time>
 </trkpt>
 <trkpt lat="47.110920" lon="13.734932">
 <ele>1018.26</ele>
 <time>2010-09-19T12:33:06Z</time>
 </trkpt>
 <trkpt lat="47.110722" lon="13.734248">
 <ele>1018.14</ele>
 <time>2010-09-19T12:33:15Z</time>
 </trkpt>
 <trkpt lat="47.110550" lon="13.733650">
 <ele>1018.22</ele>
 <time>2010-09-19T12:33:23Z</time>
 </trkpt>
 <trkpt lat="47.110287" lon="13.732732">
 <ele>1016.53</ele>
 <time>2010-09-19T12:33:35Z</time>
 </trkpt>
 <trkpt lat="47.110073" lon="13.732262">
 <ele>1017.35</ele>
 <time>2010-09-19T12:33:42Z</time>
 </trkpt>
 <trkpt lat="47.109722" lon="13.731520">
 <ele>1016.92</ele>
 <time>2010-09-19T12:33:53Z</time>
 </trkpt>
 <trkpt lat="47.109303" lon="13.730626">
 <ele>1017.75</ele>
 <time>2010-09-19T12:34:06Z</time>
 </trkpt>
 <trkpt lat="47.108990" lon="13.729962">
 <ele>1017.36</ele>
 <time>2010-09-19T12:34:16Z</time>
 </trkpt>
 <trkpt lat="47.108746" lon="13.729439">
 <ele>1018.13</ele>
 <time>2010-09-19T12:34:24Z</time>
 </trkpt>
 <trkpt lat="47.108421" lon="13.728753">
 <ele>1018.98</ele>
 <time>2010-09-19T12:34:34Z</time>
 </trkpt>
 <trkpt lat="47.108143" lon="13.728181">
 <ele>1018.52</ele>
 <time>2010-09-19T12:34:42Z</time>
 </trkpt>
 <trkpt lat="47.107758" lon="13.727486">
 <ele>1018.71</ele>
 <time>2010-09-19T12:34:52Z</time>
 </trkpt>
 <trkpt lat="47.107376" lon="13.726800">
 <ele>1018.64</ele>
 <time>2010-09-19T12:35:02Z</time>
 </trkpt>
 <trkpt lat="47.107010" lon="13.726140">
 <ele>1018.40</ele>
 <time>2010-09-19T12:35:12Z</time>
 </trkpt>
 <trkpt lat="47.106667" lon="13.725570">
 <ele>1018.86</ele>
 <time>2010-09-19T12:35:21Z</time>
 </trkpt>
 <trkpt lat="47.106319" lon="13.725034">
 <ele>1018.32</ele>
 <time>2010-09-19T12:35:30Z</time>
 </trkpt>
 <trkpt lat="47.106049" lon="13.724113">
 <ele>1019.24</ele>
 <time>2010-09-19T12:35:42Z</time>
 </trkpt>
 <trkpt lat="47.105942" lon="13.723191">
 <ele>1019.30</ele>
 <time>2010-09-19T12:35:54Z</time>
 </trkpt>
 <trkpt lat="47.105881" lon="13.722646">
 <ele>1020.25</ele>
 <time>2010-09-19T12:36:01Z</time>
 </trkpt>
 <trkpt lat="47.105778" lon="13.722015">
 <ele>1020.89</ele>
 <time>2010-09-19T12:36:10Z</time>
 </trkpt>
 <trkpt lat="47.105663" lon="13.721592">
 <ele>1022.76</ele>
 <time>2010-09-19T12:36:17Z</time>
 </trkpt>
 <trkpt lat="47.105541" lon="13.721142">
 <ele>1023.18</ele>
 <time>2010-09-19T12:36:24Z</time>
 </trkpt>
 <trkpt lat="47.105404" lon="13.720638">
 <ele>1022.47</ele>
 <time>2010-09-19T12:36:31Z</time>
 </trkpt>
 <trkpt lat="47.105240" lon="13.720039">
 <ele>1020.75</ele>
 <time>2010-09-19T12:36:38Z</time>
 </trkpt>
 <trkpt lat="47.105042" lon="13.719252">
 <ele>1020.33</ele>
 <time>2010-09-19T12:36:47Z</time>
 </trkpt>
 <trkpt lat="47.104900" lon="13.718361">
 <ele>1021.78</ele>
 <time>2010-09-19T12:36:57Z</time>
 </trkpt>
 <trkpt lat="47.104710" lon="13.717154">
 <ele>1022.52</ele>
 <time>2010-09-19T12:37:11Z</time>
 </trkpt>
 <trkpt lat="47.104565" lon="13.716398">
 <ele>1022.53</ele>
 <time>2010-09-19T12:37:20Z</time>
 </trkpt>
 <trkpt lat="47.104374" lon="13.715493">
 <ele>1021.69</ele>
 <time>2010-09-19T12:37:31Z</time>
 </trkpt>
 <trkpt lat="47.104225" lon="13.714796">
 <ele>1022.41</ele>
 <time>2010-09-19T12:37:40Z</time>
 </trkpt>
 <trkpt lat="47.104053" lon="13.714112">
 <ele>1023.48</ele>
 <time>2010-09-19T12:37:49Z</time>
 </trkpt>
 <trkpt lat="47.103909" lon="13.713834">
 <ele>1024.59</ele>
 <time>2010-09-19T12:37:55Z</time>
 </trkpt>
 <trkpt lat="47.103897" lon="13.713810">
 <ele>1025.05</ele>
 <time>2010-09-19T12:37:57Z</time>
 </trkpt>
 <trkpt lat="47.103954" lon="13.713924">
 <ele>1024.87</ele>
 <time>2010-09-19T12:38:04Z</time>
 </trkpt>
 <trkpt lat="47.104004" lon="13.714018">
 <ele>1024.79</ele>
 <time>2010-09-19T12:38:08Z</time>
 </trkpt>
 <trkpt lat="47.104004" lon="13.714018">
 <ele>1024.87</ele>
 <time>2010-09-19T12:38:09Z</time>
 </trkpt>
 <trkpt lat="47.104069" lon="13.714141">
 <ele>1024.79</ele>
 <time>2010-09-19T12:38:22Z</time>
 </trkpt>
 <trkpt lat="47.104095" lon="13.714108">
 <ele>1024.88</ele>
 <time>2010-09-19T12:38:26Z</time>
 </trkpt>
 <trkpt lat="47.104095" lon="13.713992">
 <ele>1025.13</ele>
 <time>2010-09-19T12:38:30Z</time>
 </trkpt>
 <trkpt lat="47.104095" lon="13.713671">
 <ele>1026.57</ele>
 <time>2010-09-19T12:38:39Z</time>
 </trkpt>
 <trkpt lat="47.104095" lon="13.713393">
 <ele>1028.85</ele>
 <time>2010-09-19T12:38:47Z</time>
 </trkpt>
 <trkpt lat="47.104095" lon="13.713229">
 <ele>1029.53</ele>
 <time>2010-09-19T12:38:52Z</time>
 </trkpt>
 <trkpt lat="47.104038" lon="13.712820">
 <ele>1032.67</ele>
 <time>2010-09-19T12:39:04Z</time>
 </trkpt>
 <trkpt lat="47.103970" lon="13.712522">
 <ele>1034.96</ele>
 <time>2010-09-19T12:39:13Z</time>
 </trkpt>
 <trkpt lat="47.103909" lon="13.712238">
 <ele>1037.72</ele>
 <time>2010-09-19T12:39:22Z</time>
 </trkpt>
 <trkpt lat="47.103867" lon="13.711955">
 <ele>1039.80</ele>
 <time>2010-09-19T12:39:31Z</time>
 </trkpt>
 <trkpt lat="47.103825" lon="13.711659">
 <ele>1041.27</ele>
 <time>2010-09-19T12:39:41Z</time>
 </trkpt>
 <trkpt lat="47.103783" lon="13.711355">
 <ele>1042.87</ele>
 <time>2010-09-19T12:39:51Z</time>
 </trkpt>
 <trkpt lat="47.103737" lon="13.711026">
 <ele>1044.75</ele>
 <time>2010-09-19T12:40:02Z</time>
 </trkpt>
 <trkpt lat="47.103710" lon="13.710826">
 <ele>1046.39</ele>
 <time>2010-09-19T12:40:09Z</time>
 </trkpt>
 <trkpt lat="47.103680" lon="13.710598">
 <ele>1047.37</ele>
 <time>2010-09-19T12:40:17Z</time>
 </trkpt>
 <trkpt lat="47.103638" lon="13.710317">
 <ele>1048.82</ele>
 <time>2010-09-19T12:40:27Z</time>
 </trkpt>
 <trkpt lat="47.103603" lon="13.710069">
 <ele>1050.46</ele>
 <time>2010-09-19T12:40:36Z</time>
 </trkpt>
 <trkpt lat="47.103569" lon="13.709819">
 <ele>1051.85</ele>
 <time>2010-09-19T12:40:45Z</time>
 </trkpt>
 <trkpt lat="47.103535" lon="13.709586">
 <ele>1053.06</ele>
 <time>2010-09-19T12:40:54Z</time>
 </trkpt>
 <trkpt lat="47.103516" lon="13.709434">
 <ele>1054.62</ele>
 <time>2010-09-19T12:41:00Z</time>
 </trkpt>
 <trkpt lat="47.103477" lon="13.709221">
 <ele>1055.73</ele>
 <time>2010-09-19T12:41:09Z</time>
 </trkpt>
 <trkpt lat="47.103439" lon="13.709075">
 <ele>1056.83</ele>
 <time>2010-09-19T12:41:16Z</time>
 </trkpt>
 <trkpt lat="47.103397" lon="13.708893">
 <ele>1058.49</ele>
 <time>2010-09-19T12:41:24Z</time>
 </trkpt>
 <trkpt lat="47.103344" lon="13.708663">
 <ele>1060.49</ele>
 <time>2010-09-19T12:41:33Z</time>
 </trkpt>
 <trkpt lat="47.103283" lon="13.708398">
 <ele>1062.48</ele>
 <time>2010-09-19T12:41:43Z</time>
 </trkpt>
 <trkpt lat="47.103222" lon="13.708142">
 <ele>1064.11</ele>
 <time>2010-09-19T12:41:54Z</time>
 </trkpt>
 <trkpt lat="47.103176" lon="13.707952">
 <ele>1066.02</ele>
 <time>2010-09-19T12:42:02Z</time>
 </trkpt>
 <trkpt lat="47.103142" lon="13.707793">
 <ele>1067.02</ele>
 <time>2010-09-19T12:42:09Z</time>
 </trkpt>
 <trkpt lat="47.103100" lon="13.707589">
 <ele>1068.75</ele>
 <time>2010-09-19T12:42:18Z</time>
 </trkpt>
 <trkpt lat="47.103058" lon="13.707403">
 <ele>1070.79</ele>
 <time>2010-09-19T12:42:26Z</time>
 </trkpt>
 <trkpt lat="47.103024" lon="13.707232">
 <ele>1071.98</ele>
 <time>2010-09-19T12:42:34Z</time>
 </trkpt>
 <trkpt lat="47.102985" lon="13.707058">
 <ele>1073.51</ele>
 <time>2010-09-19T12:42:42Z</time>
 </trkpt>
 <trkpt lat="47.102974" lon="13.706997">
 <ele>1074.20</ele>
 <time>2010-09-19T12:42:45Z</time>
 </trkpt>
 <trkpt lat="47.102962" lon="13.706943">
 <ele>1074.77</ele>
 <time>2010-09-19T12:42:47Z</time>
 </trkpt>
 <trkpt lat="47.102936" lon="13.706821">
 <ele>1075.89</ele>
 <time>2010-09-19T12:42:54Z</time>
 </trkpt>
 <trkpt lat="47.102913" lon="13.706710">
 <ele>1076.62</ele>
 <time>2010-09-19T12:42:59Z</time>
 </trkpt>
 <trkpt lat="47.102909" lon="13.706686">
 <ele>1077.06</ele>
 <time>2010-09-19T12:43:00Z</time>
 </trkpt>
 <trkpt lat="47.102856" lon="13.706435">
 <ele>1078.93</ele>
 <time>2010-09-19T12:43:09Z</time>
 </trkpt>
 <trkpt lat="47.102829" lon="13.706310">
 <ele>1080.44</ele>
 <time>2010-09-19T12:43:15Z</time>
 </trkpt>
 <trkpt lat="47.102783" lon="13.706184">
 <ele>1080.73</ele>
 <time>2010-09-19T12:43:18Z</time>
 </trkpt>
 <trkpt lat="47.102661" lon="13.706029">
 <ele>1081.81</ele>
 <time>2010-09-19T12:43:28Z</time>
 </trkpt>
 <trkpt lat="47.102573" lon="13.705918">
 <ele>1082.18</ele>
 <time>2010-09-19T12:43:35Z</time>
 </trkpt>
 <trkpt lat="47.102486" lon="13.705805">
 <ele>1083.44</ele>
 <time>2010-09-19T12:43:42Z</time>
 </trkpt>
 <trkpt lat="47.102398" lon="13.705693">
 <ele>1083.76</ele>
 <time>2010-09-19T12:43:49Z</time>
 </trkpt>
 <trkpt lat="47.102291" lon="13.705471">
 <ele>1083.82</ele>
 <time>2010-09-19T12:43:57Z</time>
 </trkpt>
 <trkpt lat="47.102226" lon="13.705256">
 <ele>1084.45</ele>
 <time>2010-09-19T12:44:04Z</time>
 </trkpt>
 <trkpt lat="47.102161" lon="13.705046">
 <ele>1084.85</ele>
 <time>2010-09-19T12:44:12Z</time>
 </trkpt>
 <trkpt lat="47.102158" lon="13.705031">
 <ele>1084.88</ele>
 <time>2010-09-19T12:44:14Z</time>
 </trkpt>
 <trkpt lat="47.102146" lon="13.705002">
 <ele>1084.83</ele>
 <time>2010-09-19T12:44:20Z</time>
 </trkpt>
 <trkpt lat="47.102146" lon="13.705002">
 <ele>1084.87</ele>
 <time>2010-09-19T12:46:40Z</time>
 </trkpt>
 <trkpt lat="47.102146" lon="13.705002">
 <ele>1084.76</ele>
 <time>2010-09-19T12:46:41Z</time>
 </trkpt>
 <trkpt lat="47.102104" lon="13.704858">
 <ele>1084.56</ele>
 <time>2010-09-19T12:46:55Z</time>
 </trkpt>
 <trkpt lat="47.102036" lon="13.704639">
 <ele>1084.55</ele>
 <time>2010-09-19T12:47:03Z</time>
 </trkpt>
 <trkpt lat="47.101967" lon="13.704443">
 <ele>1085.40</ele>
 <time>2010-09-19T12:47:10Z</time>
 </trkpt>
 <trkpt lat="47.101910" lon="13.704322">
 <ele>1086.19</ele>
 <time>2010-09-19T12:47:16Z</time>
 </trkpt>
 <trkpt lat="47.101852" lon="13.704208">
 <ele>1087.14</ele>
 <time>2010-09-19T12:47:21Z</time>
 </trkpt>
 <trkpt lat="47.101768" lon="13.704028">
 <ele>1088.08</ele>
 <time>2010-09-19T12:47:28Z</time>
 </trkpt>
 <trkpt lat="47.101700" lon="13.703887">
 <ele>1088.49</ele>
 <time>2010-09-19T12:47:34Z</time>
 </trkpt>
 <trkpt lat="47.101620" lon="13.703724">
 <ele>1089.44</ele>
 <time>2010-09-19T12:47:40Z</time>
 </trkpt>
 <trkpt lat="47.101612" lon="13.703706">
 <ele>1089.66</ele>
 <time>2010-09-19T12:47:41Z</time>
 </trkpt>
 <trkpt lat="47.101517" lon="13.703505">
 <ele>1091.29</ele>
 <time>2010-09-19T12:47:50Z</time>
 </trkpt>
 <trkpt lat="47.101437" lon="13.703340">
 <ele>1092.75</ele>
 <time>2010-09-19T12:47:56Z</time>
 </trkpt>
 <trkpt lat="47.101322" lon="13.703080">
 <ele>1094.08</ele>
 <time>2010-09-19T12:48:05Z</time>
 </trkpt>
 <trkpt lat="47.101192" lon="13.702787">
 <ele>1095.93</ele>
 <time>2010-09-19T12:48:15Z</time>
 </trkpt>
 <trkpt lat="47.101078" lon="13.702523">
 <ele>1097.50</ele>
 <time>2010-09-19T12:48:24Z</time>
 </trkpt>
 <trkpt lat="47.101044" lon="13.702445">
 <ele>1097.81</ele>
 <time>2010-09-19T12:48:27Z</time>
 </trkpt>
 <trkpt lat="47.101021" lon="13.702394">
 <ele>1098.35</ele>
 <time>2010-09-19T12:48:32Z</time>
 </trkpt>
 <trkpt lat="47.101021" lon="13.702394">
 <ele>1098.50</ele>
 <time>2010-09-19T12:48:34Z</time>
 </trkpt>
 <trkpt lat="47.101021" lon="13.702394">
 <ele>1098.64</ele>
 <time>2010-09-19T12:48:47Z</time>
 </trkpt>
 <trkpt lat="47.101021" lon="13.702394">
 <ele>1098.63</ele>
 <time>2010-09-19T12:48:49Z</time>
 </trkpt>
 <trkpt lat="47.100994" lon="13.702333">
 <ele>1098.64</ele>
 <time>2010-09-19T12:48:58Z</time>
 </trkpt>
 <trkpt lat="47.100945" lon="13.702224">
 <ele>1098.90</ele>
 <time>2010-09-19T12:49:03Z</time>
 </trkpt>
 <trkpt lat="47.100815" lon="13.701928">
 <ele>1099.85</ele>
 <time>2010-09-19T12:49:14Z</time>
 </trkpt>
 <trkpt lat="47.100651" lon="13.701642">
 <ele>1100.57</ele>
 <time>2010-09-19T12:49:24Z</time>
 </trkpt>
 <trkpt lat="47.100494" lon="13.701378">
 <ele>1100.71</ele>
 <time>2010-09-19T12:49:32Z</time>
 </trkpt>
 <trkpt lat="47.100365" lon="13.701152">
 <ele>1100.77</ele>
 <time>2010-09-19T12:49:39Z</time>
 </trkpt>
 <trkpt lat="47.100254" lon="13.700965">
 <ele>1100.28</ele>
 <time>2010-09-19T12:49:45Z</time>
 </trkpt>
 <trkpt lat="47.100094" lon="13.700692">
 <ele>1099.43</ele>
 <time>2010-09-19T12:49:52Z</time>
 </trkpt>
 <trkpt lat="47.100018" lon="13.700575">
 <ele>1099.20</ele>
 <time>2010-09-19T12:49:56Z</time>
 </trkpt>
 <trkpt lat="47.099957" lon="13.699612">
 <ele>1099.31</ele>
 <time>2010-09-19T12:50:01Z</time>
 </trkpt>
 <trkpt lat="47.100063" lon="13.699544">
 <ele>1100.08</ele>
 <time>2010-09-19T12:50:07Z</time>
 </trkpt>
 <trkpt lat="47.100224" lon="13.699395">
 <ele>1101.55</ele>
 <time>2010-09-19T12:50:14Z</time>
 </trkpt>
 <trkpt lat="47.100380" lon="13.699247">
 <ele>1101.17</ele>
 <time>2010-09-19T12:50:20Z</time>
 </trkpt>
 <trkpt lat="47.100586" lon="13.699056">
 <ele>1101.50</ele>
 <time>2010-09-19T12:50:28Z</time>
 </trkpt>
 <trkpt lat="47.100685" lon="13.698964">
 <ele>1102.04</ele>
 <time>2010-09-19T12:50:36Z</time>
 </trkpt>
 <trkpt lat="47.100868" lon="13.698679">
 <ele>1103.44</ele>
 <time>2010-09-19T12:50:45Z</time>
 </trkpt>
 <trkpt lat="47.101032" lon="13.698424">
 <ele>1105.03</ele>
 <time>2010-09-19T12:50:54Z</time>
 </trkpt>
 <trkpt lat="47.101151" lon="13.698242">
 <ele>1106.51</ele>
 <time>2010-09-19T12:51:02Z</time>
 </trkpt>
 <trkpt lat="47.101257" lon="13.698075">
 <ele>1107.94</ele>
 <time>2010-09-19T12:51:09Z</time>
 </trkpt>
 <trkpt lat="47.101360" lon="13.697911">
 <ele>1109.22</ele>
 <time>2010-09-19T12:51:16Z</time>
 </trkpt>
 <trkpt lat="47.101620" lon="13.697625">
 <ele>1110.95</ele>
 <time>2010-09-19T12:51:27Z</time>
 </trkpt>
 <trkpt lat="47.101807" lon="13.697465">
 <ele>1111.67</ele>
 <time>2010-09-19T12:51:36Z</time>
 </trkpt>
 <trkpt lat="47.102009" lon="13.697292">
 <ele>1112.77</ele>
 <time>2010-09-19T12:51:46Z</time>
 </trkpt>
 <trkpt lat="47.102165" lon="13.697157">
 <ele>1115.19</ele>
 <time>2010-09-19T12:51:54Z</time>
 </trkpt>
 <trkpt lat="47.102276" lon="13.697060">
 <ele>1116.63</ele>
 <time>2010-09-19T12:52:00Z</time>
 </trkpt>
 <trkpt lat="47.102585" lon="13.696958">
 <ele>1117.18</ele>
 <time>2010-09-19T12:52:11Z</time>
 </trkpt>
 <trkpt lat="47.102829" lon="13.696924">
 <ele>1117.62</ele>
 <time>2010-09-19T12:52:20Z</time>
 </trkpt>
 <trkpt lat="47.103130" lon="13.696882">
 <ele>1118.52</ele>
 <time>2010-09-19T12:52:31Z</time>
 </trkpt>
 <trkpt lat="47.103405" lon="13.696843">
 <ele>1119.29</ele>
 <time>2010-09-19T12:52:41Z</time>
 </trkpt>
 <trkpt lat="47.103645" lon="13.696838">
 <ele>1120.13</ele>
 <time>2010-09-19T12:52:49Z</time>
 </trkpt>
 <trkpt lat="47.103947" lon="13.696929">
 <ele>1121.36</ele>
 <time>2010-09-19T12:52:59Z</time>
 </trkpt>
 <trkpt lat="47.104179" lon="13.697000">
 <ele>1121.79</ele>
 <time>2010-09-19T12:53:09Z</time>
 </trkpt>
 <trkpt lat="47.104412" lon="13.697070">
 <ele>1122.92</ele>
 <time>2010-09-19T12:53:18Z</time>
 </trkpt>
 <trkpt lat="47.104671" lon="13.697149">
 <ele>1123.76</ele>
 <time>2010-09-19T12:53:28Z</time>
 </trkpt>
 <trkpt lat="47.104950" lon="13.697207">
 <ele>1124.68</ele>
 <time>2010-09-19T12:53:37Z</time>
 </trkpt>
 <trkpt lat="47.105190" lon="13.697240">
 <ele>1125.03</ele>
 <time>2010-09-19T12:53:44Z</time>
 </trkpt>
 <trkpt lat="47.105473" lon="13.697280">
 <ele>1125.06</ele>
 <time>2010-09-19T12:53:52Z</time>
 </trkpt>
 <trkpt lat="47.105854" lon="13.697271">
 <ele>1124.98</ele>
 <time>2010-09-19T12:54:03Z</time>
 </trkpt>
 <trkpt lat="47.106239" lon="13.697163">
 <ele>1124.60</ele>
 <time>2010-09-19T12:54:13Z</time>
 </trkpt>
 <trkpt lat="47.106773" lon="13.697013">
 <ele>1124.16</ele>
 <time>2010-09-19T12:54:25Z</time>
 </trkpt>
 <trkpt lat="47.107315" lon="13.696796">
 <ele>1121.28</ele>
 <time>2010-09-19T12:54:36Z</time>
 </trkpt>
 <trkpt lat="47.107822" lon="13.696592">
 <ele>1119.49</ele>
 <time>2010-09-19T12:54:45Z</time>
 </trkpt>
 <trkpt lat="47.108402" lon="13.696358">
 <ele>1117.38</ele>
 <time>2010-09-19T12:54:55Z</time>
 </trkpt>
 <trkpt lat="47.109192" lon="13.696040">
 <ele>1115.38</ele>
 <time>2010-09-19T12:55:08Z</time>
 </trkpt>
 <trkpt lat="47.109798" lon="13.695795">
 <ele>1115.11</ele>
 <time>2010-09-19T12:55:18Z</time>
 </trkpt>
 <trkpt lat="47.110146" lon="13.695655">
 <ele>1114.99</ele>
 <time>2010-09-19T12:55:24Z</time>
 </trkpt>
 <trkpt lat="47.110313" lon="13.695583">
 <ele>1114.27</ele>
 <time>2010-09-19T12:55:27Z</time>
 </trkpt>
 <trkpt lat="47.110584" lon="13.695469">
 <ele>1113.74</ele>
 <time>2010-09-19T12:55:32Z</time>
 </trkpt>
 <trkpt lat="47.110943" lon="13.695317">
 <ele>1113.32</ele>
 <time>2010-09-19T12:55:39Z</time>
 </trkpt>
 <trkpt lat="47.111462" lon="13.695097">
 <ele>1112.30</ele>
 <time>2010-09-19T12:55:50Z</time>
 </trkpt>
 <trkpt lat="47.111923" lon="13.694901">
 <ele>1112.86</ele>
 <time>2010-09-19T12:56:00Z</time>
 </trkpt>
 <trkpt lat="47.112370" lon="13.694681">
 <ele>1112.02</ele>
 <time>2010-09-19T12:56:10Z</time>
 </trkpt>
 <trkpt lat="47.112869" lon="13.694370">
 <ele>1112.15</ele>
 <time>2010-09-19T12:56:22Z</time>
 </trkpt>
 <trkpt lat="47.113281" lon="13.694116">
 <ele>1112.73</ele>
 <time>2010-09-19T12:56:32Z</time>
 </trkpt>
 <trkpt lat="47.113693" lon="13.693862">
 <ele>1112.36</ele>
 <time>2010-09-19T12:56:42Z</time>
 </trkpt>
 <trkpt lat="47.114082" lon="13.693572">
 <ele>1112.32</ele>
 <time>2010-09-19T12:56:52Z</time>
 </trkpt>
 <trkpt lat="47.114536" lon="13.693200">
 <ele>1111.78</ele>
 <time>2010-09-19T12:57:04Z</time>
 </trkpt>
 <trkpt lat="47.114964" lon="13.692853">
 <ele>1112.00</ele>
 <time>2010-09-19T12:57:15Z</time>
 </trkpt>
 <trkpt lat="47.115376" lon="13.692512">
 <ele>1111.64</ele>
 <time>2010-09-19T12:57:26Z</time>
 </trkpt>
 <trkpt lat="47.115810" lon="13.692241">
 <ele>1110.90</ele>
 <time>2010-09-19T12:57:37Z</time>
 </trkpt>
 <trkpt lat="47.116318" lon="13.691958">
 <ele>1110.68</ele>
 <time>2010-09-19T12:57:50Z</time>
 </trkpt>
 <trkpt lat="47.116684" lon="13.691754">
 <ele>1111.11</ele>
 <time>2010-09-19T12:57:59Z</time>
 </trkpt>
 <trkpt lat="47.117176" lon="13.691479">
 <ele>1111.07</ele>
 <time>2010-09-19T12:58:11Z</time>
 </trkpt>
 <trkpt lat="47.117577" lon="13.691264">
 <ele>1109.93</ele>
 <time>2010-09-19T12:58:21Z</time>
 </trkpt>
 <trkpt lat="47.117882" lon="13.691100">
 <ele>1109.30</ele>
 <time>2010-09-19T12:58:29Z</time>
 </trkpt>
 <trkpt lat="47.118122" lon="13.690970">
 <ele>1109.75</ele>
 <time>2010-09-19T12:58:35Z</time>
 </trkpt>
 <trkpt lat="47.118507" lon="13.690762">
 <ele>1107.58</ele>
 <time>2010-09-19T12:58:45Z</time>
 </trkpt>
 <trkpt lat="47.118954" lon="13.690522">
 <ele>1108.65</ele>
 <time>2010-09-19T12:58:57Z</time>
 </trkpt>
 <trkpt lat="47.119350" lon="13.690253">
 <ele>1109.04</ele>
 <time>2010-09-19T12:59:08Z</time>
 </trkpt>
 <trkpt lat="47.119659" lon="13.690016">
 <ele>1109.56</ele>
 <time>2010-09-19T12:59:17Z</time>
 </trkpt>
 <trkpt lat="47.119987" lon="13.689767">
 <ele>1108.96</ele>
 <time>2010-09-19T12:59:27Z</time>
 </trkpt>
 <trkpt lat="47.120342" lon="13.689498">
 <ele>1110.58</ele>
 <time>2010-09-19T12:59:38Z</time>
 </trkpt>
 <trkpt lat="47.120628" lon="13.689274">
 <ele>1111.06</ele>
 <time>2010-09-19T12:59:47Z</time>
 </trkpt>
 <trkpt lat="47.120850" lon="13.689097">
 <ele>1111.31</ele>
 <time>2010-09-19T12:59:54Z</time>
 </trkpt>
 <trkpt lat="47.121136" lon="13.688868">
 <ele>1110.64</ele>
 <time>2010-09-19T13:00:03Z</time>
 </trkpt>
 <trkpt lat="47.121445" lon="13.688617">
 <ele>1110.12</ele>
 <time>2010-09-19T13:00:13Z</time>
 </trkpt>
 <trkpt lat="47.121731" lon="13.688388">
 <ele>1111.23</ele>
 <time>2010-09-19T13:00:22Z</time>
 </trkpt>
 <trkpt lat="47.122105" lon="13.688086">
 <ele>1112.57</ele>
 <time>2010-09-19T13:00:34Z</time>
 </trkpt>
 <trkpt lat="47.122486" lon="13.687780">
 <ele>1113.82</ele>
 <time>2010-09-19T13:00:46Z</time>
 </trkpt>
 <trkpt lat="47.122829" lon="13.687544">
 <ele>1113.73</ele>
 <time>2010-09-19T13:00:56Z</time>
 </trkpt>
 <trkpt lat="47.123173" lon="13.687309">
 <ele>1112.77</ele>
 <time>2010-09-19T13:01:06Z</time>
 </trkpt>
 <trkpt lat="47.123489" lon="13.687093">
 <ele>1112.74</ele>
 <time>2010-09-19T13:01:15Z</time>
 </trkpt>
 <trkpt lat="47.123894" lon="13.686820">
 <ele>1111.65</ele>
 <time>2010-09-19T13:01:26Z</time>
 </trkpt>
 <trkpt lat="47.124306" lon="13.686581">
 <ele>1110.90</ele>
 <time>2010-09-19T13:01:36Z</time>
 </trkpt>
 <trkpt lat="47.124691" lon="13.686355">
 <ele>1110.01</ele>
 <time>2010-09-19T13:01:45Z</time>
 </trkpt>
 <trkpt lat="47.124847" lon="13.686263">
 <ele>1109.43</ele>
 <time>2010-09-19T13:01:49Z</time>
 </trkpt>
 <trkpt lat="47.125000" lon="13.686174">
 <ele>1109.20</ele>
 <time>2010-09-19T13:01:53Z</time>
 </trkpt>
 <trkpt lat="47.125404" lon="13.685939">
 <ele>1106.98</ele>
 <time>2010-09-19T13:02:03Z</time>
 </trkpt>
 <trkpt lat="47.125912" lon="13.685658">
 <ele>1107.37</ele>
 <time>2010-09-19T13:02:15Z</time>
 </trkpt>
 <trkpt lat="47.126366" lon="13.685443">
 <ele>1106.52</ele>
 <time>2010-09-19T13:02:25Z</time>
 </trkpt>
 <trkpt lat="47.126888" lon="13.685195">
 <ele>1105.88</ele>
 <time>2010-09-19T13:02:37Z</time>
 </trkpt>
 <trkpt lat="47.127075" lon="13.685116">
 <ele>1107.19</ele>
 <time>2010-09-19T13:02:43Z</time>
 </trkpt>
 <trkpt lat="47.127213" lon="13.685062">
 <ele>1105.89</ele>
 <time>2010-09-19T13:02:48Z</time>
 </trkpt>
 <trkpt lat="47.127472" lon="13.684959">
 <ele>1105.57</ele>
 <time>2010-09-19T13:02:55Z</time>
 </trkpt>
 <trkpt lat="47.127850" lon="13.684811">
 <ele>1105.23</ele>
 <time>2010-09-19T13:03:04Z</time>
 </trkpt>
 <trkpt lat="47.128227" lon="13.684659">
 <ele>1105.38</ele>
 <time>2010-09-19T13:03:13Z</time>
 </trkpt>
 <trkpt lat="47.128635" lon="13.684494">
 <ele>1104.69</ele>
 <time>2010-09-19T13:03:23Z</time>
 </trkpt>
 <trkpt lat="47.129044" lon="13.684330">
 <ele>1105.69</ele>
 <time>2010-09-19T13:03:33Z</time>
 </trkpt>
 <trkpt lat="47.129364" lon="13.684200">
 <ele>1105.71</ele>
 <time>2010-09-19T13:03:41Z</time>
 </trkpt>
 <trkpt lat="47.129761" lon="13.684039">
 <ele>1106.51</ele>
 <time>2010-09-19T13:03:51Z</time>
 </trkpt>
 <trkpt lat="47.130104" lon="13.683901">
 <ele>1106.82</ele>
 <time>2010-09-19T13:04:00Z</time>
 </trkpt>
 <trkpt lat="47.130402" lon="13.683727">
 <ele>1107.44</ele>
 <time>2010-09-19T13:04:09Z</time>
 </trkpt>
 <trkpt lat="47.130630" lon="13.683594">
 <ele>1107.34</ele>
 <time>2010-09-19T13:04:16Z</time>
 </trkpt>
 <trkpt lat="47.130974" lon="13.683395">
 <ele>1107.56</ele>
 <time>2010-09-19T13:04:25Z</time>
 </trkpt>
 <trkpt lat="47.131134" lon="13.683300">
 <ele>1107.15</ele>
 <time>2010-09-19T13:04:35Z</time>
 </trkpt>
 <trkpt lat="47.131664" lon="13.683072">
 <ele>1105.19</ele>
 <time>2010-09-19T13:04:41Z</time>
 </trkpt>
 <trkpt lat="47.132034" lon="13.682911">
 <ele>1101.94</ele>
 <time>2010-09-19T13:04:47Z</time>
 </trkpt>
 <trkpt lat="47.132458" lon="13.682886">
 <ele>1099.72</ele>
 <time>2010-09-19T13:04:53Z</time>
 </trkpt>
 <trkpt lat="47.132839" lon="13.682981">
 <ele>1101.02</ele>
 <time>2010-09-19T13:04:59Z</time>
 </trkpt>
 <trkpt lat="47.132999" lon="13.683021">
 <ele>1099.94</ele>
 <time>2010-09-19T13:05:05Z</time>
 </trkpt>
 <trkpt lat="47.133446" lon="13.683393">
 <ele>1100.86</ele>
 <time>2010-09-19T13:05:13Z</time>
 </trkpt>
 <trkpt lat="47.133762" lon="13.683646">
 <ele>1101.60</ele>
 <time>2010-09-19T13:05:22Z</time>
 </trkpt>
 <trkpt lat="47.133923" lon="13.683772">
 <ele>1101.83</ele>
 <time>2010-09-19T13:05:32Z</time>
 </trkpt>
 <trkpt lat="47.134361" lon="13.683892">
 <ele>1103.89</ele>
 <time>2010-09-19T13:05:39Z</time>
 </trkpt>
 <trkpt lat="47.134682" lon="13.684015">
 <ele>1105.16</ele>
 <time>2010-09-19T13:05:49Z</time>
 </trkpt>
 <trkpt lat="47.134838" lon="13.684078">
 <ele>1106.60</ele>
 <time>2010-09-19T13:05:54Z</time>
 </trkpt>
 <trkpt lat="47.135117" lon="13.684269">
 <ele>1108.45</ele>
 <time>2010-09-19T13:06:02Z</time>
 </trkpt>
 <trkpt lat="47.135483" lon="13.684575">
 <ele>1110.69</ele>
 <time>2010-09-19T13:06:13Z</time>
 </trkpt>
 <trkpt lat="47.135864" lon="13.684878">
 <ele>1111.60</ele>
 <time>2010-09-19T13:06:26Z</time>
 </trkpt>
 <trkpt lat="47.136166" lon="13.685033">
 <ele>1112.64</ele>
 <time>2010-09-19T13:06:35Z</time>
 </trkpt>
 <trkpt lat="47.136360" lon="13.685142">
 <ele>1114.41</ele>
 <time>2010-09-19T13:06:42Z</time>
 </trkpt>
 <trkpt lat="47.136391" lon="13.686218">
 <ele>1116.14</ele>
 <time>2010-09-19T13:06:51Z</time>
 </trkpt>
 <trkpt lat="47.136848" lon="13.686433">
 <ele>1117.06</ele>
 <time>2010-09-19T13:07:01Z</time>
 </trkpt>
 <trkpt lat="47.136864" lon="13.686974">
 <ele>1117.42</ele>
 <time>2010-09-19T13:07:11Z</time>
 </trkpt>
 <trkpt lat="47.136635" lon="13.687483">
 <ele>1116.88</ele>
 <time>2010-09-19T13:07:18Z</time>
 </trkpt>
 <trkpt lat="47.136600" lon="13.688251">
 <ele>1115.39</ele>
 <time>2010-09-19T13:07:28Z</time>
 </trkpt>
 <trkpt lat="47.136597" lon="13.688887">
 <ele>1114.82</ele>
 <time>2010-09-19T13:07:36Z</time>
 </trkpt>
 <trkpt lat="47.136593" lon="13.689656">
 <ele>1115.46</ele>
 <time>2010-09-19T13:07:46Z</time>
 </trkpt>
 <trkpt lat="47.136589" lon="13.690103">
 <ele>1115.32</ele>
 <time>2010-09-19T13:07:52Z</time>
 </trkpt>
 <trkpt lat="47.136585" lon="13.690379">
 <ele>1115.93</ele>
 <time>2010-09-19T13:07:56Z</time>
 </trkpt>
 <trkpt lat="47.136585" lon="13.690720">
 <ele>1115.63</ele>
 <time>2010-09-19T13:08:01Z</time>
 </trkpt>
 <trkpt lat="47.136623" lon="13.691407">
 <ele>1116.53</ele>
 <time>2010-09-19T13:08:11Z</time>
 </trkpt>
 <trkpt lat="47.136642" lon="13.691569">
 <ele>1116.82</ele>
 <time>2010-09-19T13:08:14Z</time>
 </trkpt>
 <trkpt lat="47.136799" lon="13.691550">
 <ele>1116.85</ele>
 <time>2010-09-19T13:08:18Z</time>
 </trkpt>
 <trkpt lat="47.136921" lon="13.691604">
 <ele>1116.25</ele>
 <time>2010-09-19T13:08:22Z</time>
 </trkpt>
 <trkpt lat="47.137020" lon="13.691448">
 <ele>1115.79</ele>
 <time>2010-09-19T13:08:25Z</time>
 </trkpt>
 <trkpt lat="47.137157" lon="13.690780">
 <ele>1116.13</ele>
 <time>2010-09-19T13:08:35Z</time>
 </trkpt>
 <trkpt lat="47.137276" lon="13.690196">
 <ele>1116.38</ele>
 <time>2010-09-19T13:08:45Z</time>
 </trkpt>
 <trkpt lat="47.137344" lon="13.689801">
 <ele>1117.76</ele>
 <time>2010-09-19T13:08:52Z</time>
 </trkpt>
 <trkpt lat="47.137424" lon="13.689342">
 <ele>1118.99</ele>
 <time>2010-09-19T13:09:00Z</time>
 </trkpt>
 <trkpt lat="47.137501" lon="13.688808">
 <ele>1118.75</ele>
 <time>2010-09-19T13:09:10Z</time>
 </trkpt>
 <trkpt lat="47.137547" lon="13.688261">
 <ele>1119.20</ele>
 <time>2010-09-19T13:09:20Z</time>
 </trkpt>
 <trkpt lat="47.137589" lon="13.687772">
 <ele>1120.23</ele>
 <time>2010-09-19T13:09:29Z</time>
 </trkpt>
 <trkpt lat="47.137592" lon="13.687532">
 <ele>1120.99</ele>
 <time>2010-09-19T13:09:35Z</time>
 </trkpt>
 <trkpt lat="47.137592" lon="13.687394">
 <ele>1121.64</ele>
 <time>2010-09-19T13:09:40Z</time>
 </trkpt>
 <trkpt lat="47.137592" lon="13.687394">
 <ele>1121.91</ele>
 <time>2010-09-19T13:09:42Z</time>
 </trkpt>
 </trkseg>
 </trk>
</gpx>
